<?xml version="1.0" encoding="UTF-8" standalone="no" ?>
<gpx xmlns="http://www.topografix.com/GPX/1/1" xmlns:xsi="http://www.w3.org/2001/XMLSchema-instance" xsi:schemaLocation="http://www.topografix.com/GPX/1/1 http://www.topografix.com/GPX/1/1/gpx.xsd" version="1.1" creator="VisuGPX - https://www.visugpx.com">
  <metadata>
    <name>VTT_Paladru_J2_53km</name>
    <desc><![CDATA[2e jour en VTT, 53 km]]></desc>
  </metadata>
  <trk>
    <name><![CDATA[J2-paladru]]></name>
    <trkseg>
      <trkpt lat="45.47335" lon="5.55032">
        <ele>502</ele>
        <time>2022-05-02T10:28:06Z</time>
      </trkpt>
      <trkpt lat="45.47245" lon="5.54911">
        <ele>502</ele>
        <time>2022-05-02T10:28:35Z</time>
      </trkpt>
      <trkpt lat="45.47283" lon="5.54841">
        <ele>512</ele>
        <time>2022-05-02T10:28:49Z</time>
      </trkpt>
      <trkpt lat="45.47308" lon="5.54806">
        <ele>516</ele>
        <time>2022-05-02T10:28:57Z</time>
      </trkpt>
      <trkpt lat="45.47343" lon="5.54738">
        <ele>521</ele>
        <time>2022-05-02T10:29:11Z</time>
      </trkpt>
      <trkpt lat="45.47439" lon="5.54626">
        <ele>535</ele>
        <time>2022-05-02T10:29:40Z</time>
      </trkpt>
      <trkpt lat="45.47471" lon="5.54566">
        <ele>540</ele>
        <time>2022-05-02T10:29:52Z</time>
      </trkpt>
      <trkpt lat="45.47463" lon="5.54562">
        <ele>539</ele>
        <time>2022-05-02T10:29:54Z</time>
      </trkpt>
      <trkpt lat="45.47454" lon="5.54562">
        <ele>538</ele>
        <time>2022-05-02T10:29:56Z</time>
      </trkpt>
      <trkpt lat="45.47424" lon="5.54568">
        <ele>536</ele>
        <time>2022-05-02T10:30:04Z</time>
      </trkpt>
      <trkpt lat="45.47407" lon="5.54562">
        <ele>538</ele>
        <time>2022-05-02T10:30:08Z</time>
      </trkpt>
      <trkpt lat="45.47399" lon="5.54552">
        <ele>540</ele>
        <time>2022-05-02T10:30:10Z</time>
      </trkpt>
      <trkpt lat="45.474" lon="5.54535">
        <ele>542</ele>
        <time>2022-05-02T10:30:13Z</time>
      </trkpt>
      <trkpt lat="45.47406" lon="5.54523">
        <ele>543</ele>
        <time>2022-05-02T10:30:15Z</time>
      </trkpt>
      <trkpt lat="45.47441" lon="5.54474">
        <ele>547</ele>
        <time>2022-05-02T10:30:27Z</time>
      </trkpt>
      <trkpt lat="45.47462" lon="5.54427">
        <ele>552</ele>
        <time>2022-05-02T10:30:36Z</time>
      </trkpt>
      <trkpt lat="45.47495" lon="5.54367">
        <ele>559</ele>
        <time>2022-05-02T10:30:48Z</time>
      </trkpt>
      <trkpt lat="45.47545" lon="5.54284">
        <ele>564</ele>
        <time>2022-05-02T10:31:06Z</time>
      </trkpt>
      <trkpt lat="45.47575" lon="5.5424">
        <ele>570</ele>
        <time>2022-05-02T10:31:16Z</time>
      </trkpt>
      <trkpt lat="45.47583" lon="5.54215">
        <ele>575</ele>
        <time>2022-05-02T10:31:21Z</time>
      </trkpt>
      <trkpt lat="45.47582" lon="5.54196">
        <ele>579</ele>
        <time>2022-05-02T10:31:24Z</time>
      </trkpt>
      <trkpt lat="45.47572" lon="5.54151">
        <ele>587</ele>
        <time>2022-05-02T10:31:32Z</time>
      </trkpt>
      <trkpt lat="45.47574" lon="5.54121">
        <ele>591</ele>
        <time>2022-05-02T10:31:37Z</time>
      </trkpt>
      <trkpt lat="45.47583" lon="5.54098">
        <ele>594</ele>
        <time>2022-05-02T10:31:41Z</time>
      </trkpt>
      <trkpt lat="45.47596" lon="5.54089">
        <ele>594</ele>
        <time>2022-05-02T10:31:44Z</time>
      </trkpt>
      <trkpt lat="45.4761" lon="5.54083">
        <ele>594</ele>
        <time>2022-05-02T10:31:48Z</time>
      </trkpt>
      <trkpt lat="45.47634" lon="5.54064">
        <ele>594</ele>
        <time>2022-05-02T10:31:54Z</time>
      </trkpt>
      <trkpt lat="45.47646" lon="5.5404">
        <ele>596</ele>
        <time>2022-05-02T10:31:59Z</time>
      </trkpt>
      <trkpt lat="45.47676" lon="5.53873">
        <ele>609</ele>
        <time>2022-05-02T10:32:27Z</time>
      </trkpt>
      <trkpt lat="45.47674" lon="5.53851">
        <ele>611</ele>
        <time>2022-05-02T10:32:31Z</time>
      </trkpt>
      <trkpt lat="45.47667" lon="5.53833">
        <ele>613</ele>
        <time>2022-05-02T10:32:34Z</time>
      </trkpt>
      <trkpt lat="45.47664" lon="5.53683">
        <ele>622</ele>
        <time>2022-05-02T10:32:59Z</time>
      </trkpt>
      <trkpt lat="45.47667" lon="5.53663">
        <ele>623</ele>
        <time>2022-05-02T10:33:02Z</time>
      </trkpt>
      <trkpt lat="45.47681" lon="5.53618">
        <ele>626</ele>
        <time>2022-05-02T10:33:10Z</time>
      </trkpt>
      <trkpt lat="45.47693" lon="5.53557">
        <ele>629</ele>
        <time>2022-05-02T10:33:21Z</time>
      </trkpt>
      <trkpt lat="45.47655" lon="5.53481">
        <ele>632</ele>
        <time>2022-05-02T10:33:36Z</time>
      </trkpt>
      <trkpt lat="45.47648" lon="5.53473">
        <ele>632</ele>
        <time>2022-05-02T10:33:38Z</time>
      </trkpt>
      <trkpt lat="45.47628" lon="5.53459">
        <ele>633</ele>
        <time>2022-05-02T10:33:43Z</time>
      </trkpt>
      <trkpt lat="45.47677" lon="5.53392">
        <ele>640</ele>
        <time>2022-05-02T10:33:59Z</time>
      </trkpt>
      <trkpt lat="45.47689" lon="5.53373">
        <ele>642</ele>
        <time>2022-05-02T10:34:03Z</time>
      </trkpt>
      <trkpt lat="45.47708" lon="5.53333">
        <ele>646</ele>
        <time>2022-05-02T10:34:11Z</time>
      </trkpt>
      <trkpt lat="45.47719" lon="5.53327">
        <ele>647</ele>
        <time>2022-05-02T10:34:14Z</time>
      </trkpt>
      <trkpt lat="45.47736" lon="5.53334">
        <ele>647</ele>
        <time>2022-05-02T10:34:18Z</time>
      </trkpt>
      <trkpt lat="45.47764" lon="5.53358">
        <ele>646</ele>
        <time>2022-05-02T10:34:26Z</time>
      </trkpt>
      <trkpt lat="45.47799" lon="5.53395">
        <ele>645</ele>
        <time>2022-05-02T10:34:36Z</time>
      </trkpt>
      <trkpt lat="45.47824" lon="5.53416">
        <ele>645</ele>
        <time>2022-05-02T10:34:43Z</time>
      </trkpt>
      <trkpt lat="45.47871" lon="5.53446">
        <ele>645</ele>
        <time>2022-05-02T10:34:55Z</time>
      </trkpt>
      <trkpt lat="45.47908" lon="5.53451">
        <ele>646</ele>
        <time>2022-05-02T10:35:03Z</time>
      </trkpt>
      <trkpt lat="45.47917" lon="5.53434">
        <ele>648</ele>
        <time>2022-05-02T10:35:07Z</time>
      </trkpt>
      <trkpt lat="45.47927" lon="5.53434">
        <ele>648</ele>
        <time>2022-05-02T10:35:09Z</time>
      </trkpt>
      <trkpt lat="45.47951" lon="5.5344">
        <ele>648</ele>
        <time>2022-05-02T10:35:15Z</time>
      </trkpt>
      <trkpt lat="45.47978" lon="5.5344">
        <ele>649</ele>
        <time>2022-05-02T10:35:21Z</time>
      </trkpt>
      <trkpt lat="45.47976" lon="5.53424">
        <ele>650</ele>
        <time>2022-05-02T10:35:24Z</time>
      </trkpt>
      <trkpt lat="45.47959" lon="5.53369">
        <ele>655</ele>
        <time>2022-05-02T10:35:34Z</time>
      </trkpt>
      <trkpt lat="45.4792" lon="5.53303">
        <ele>660</ele>
        <time>2022-05-02T10:35:48Z</time>
      </trkpt>
      <trkpt lat="45.47914" lon="5.53277">
        <ele>663</ele>
        <time>2022-05-02T10:35:52Z</time>
      </trkpt>
      <trkpt lat="45.47913" lon="5.53257">
        <ele>665</ele>
        <time>2022-05-02T10:35:55Z</time>
      </trkpt>
      <trkpt lat="45.47898" lon="5.53169">
        <ele>669</ele>
        <time>2022-05-02T10:36:10Z</time>
      </trkpt>
      <trkpt lat="45.47883" lon="5.53033">
        <ele>671</ele>
        <time>2022-05-02T10:36:33Z</time>
      </trkpt>
      <trkpt lat="45.47877" lon="5.53015">
        <ele>672</ele>
        <time>2022-05-02T10:36:36Z</time>
      </trkpt>
      <trkpt lat="45.47869" lon="5.52971">
        <ele>675</ele>
        <time>2022-05-02T10:36:44Z</time>
      </trkpt>
      <trkpt lat="45.47852" lon="5.52916">
        <ele>679</ele>
        <time>2022-05-02T10:36:53Z</time>
      </trkpt>
      <trkpt lat="45.47813" lon="5.52838">
        <ele>681</ele>
        <time>2022-05-02T10:37:09Z</time>
      </trkpt>
      <trkpt lat="45.47768" lon="5.52837">
        <ele>683</ele>
        <time>2022-05-02T10:37:20Z</time>
      </trkpt>
      <trkpt lat="45.47727" lon="5.52828">
        <ele>684</ele>
        <time>2022-05-02T10:37:29Z</time>
      </trkpt>
      <trkpt lat="45.47707" lon="5.52814">
        <ele>685</ele>
        <time>2022-05-02T10:37:34Z</time>
      </trkpt>
      <trkpt lat="45.47687" lon="5.52788">
        <ele>686</ele>
        <time>2022-05-02T10:37:41Z</time>
      </trkpt>
      <trkpt lat="45.47656" lon="5.52766">
        <ele>687</ele>
        <time>2022-05-02T10:37:49Z</time>
      </trkpt>
      <trkpt lat="45.47633" lon="5.52752">
        <ele>688</ele>
        <time>2022-05-02T10:37:55Z</time>
      </trkpt>
      <trkpt lat="45.47596" lon="5.52743">
        <ele>690</ele>
        <time>2022-05-02T10:38:04Z</time>
      </trkpt>
      <trkpt lat="45.47577" lon="5.52735">
        <ele>690</ele>
        <time>2022-05-02T10:38:08Z</time>
      </trkpt>
      <trkpt lat="45.47525" lon="5.52694">
        <ele>691</ele>
        <time>2022-05-02T10:38:22Z</time>
      </trkpt>
      <trkpt lat="45.47515" lon="5.5269">
        <ele>691</ele>
        <time>2022-05-02T10:38:24Z</time>
      </trkpt>
      <trkpt lat="45.4747" lon="5.52695">
        <ele>695</ele>
        <time>2022-05-02T10:38:35Z</time>
      </trkpt>
      <trkpt lat="45.47437" lon="5.52677">
        <ele>696</ele>
        <time>2022-05-02T10:38:43Z</time>
      </trkpt>
      <trkpt lat="45.47383" lon="5.52658">
        <ele>698</ele>
        <time>2022-05-02T10:38:56Z</time>
      </trkpt>
      <trkpt lat="45.47348" lon="5.52652">
        <ele>700</ele>
        <time>2022-05-02T10:39:04Z</time>
      </trkpt>
      <trkpt lat="45.47333" lon="5.52646">
        <ele>700</ele>
        <time>2022-05-02T10:39:08Z</time>
      </trkpt>
      <trkpt lat="45.47289" lon="5.52612">
        <ele>700</ele>
        <time>2022-05-02T10:39:20Z</time>
      </trkpt>
      <trkpt lat="45.47229" lon="5.52584">
        <ele>700</ele>
        <time>2022-05-02T10:39:35Z</time>
      </trkpt>
      <trkpt lat="45.47172" lon="5.52511">
        <ele>697</ele>
        <time>2022-05-02T10:39:52Z</time>
      </trkpt>
      <trkpt lat="45.47151" lon="5.52494">
        <ele>696</ele>
        <time>2022-05-02T10:39:58Z</time>
      </trkpt>
      <trkpt lat="45.47117" lon="5.52479">
        <ele>697</ele>
        <time>2022-05-02T10:40:06Z</time>
      </trkpt>
      <trkpt lat="45.47102" lon="5.52449">
        <ele>693</ele>
        <time>2022-05-02T10:40:12Z</time>
      </trkpt>
      <trkpt lat="45.47091" lon="5.52443">
        <ele>693</ele>
        <time>2022-05-02T10:40:15Z</time>
      </trkpt>
      <trkpt lat="45.47069" lon="5.52442">
        <ele>694</ele>
        <time>2022-05-02T10:40:20Z</time>
      </trkpt>
      <trkpt lat="45.47058" lon="5.52444">
        <ele>695</ele>
        <time>2022-05-02T10:40:23Z</time>
      </trkpt>
      <trkpt lat="45.47013" lon="5.52479">
        <ele>701</ele>
        <time>2022-05-02T10:40:35Z</time>
      </trkpt>
      <trkpt lat="45.47008" lon="5.52486">
        <ele>702</ele>
        <time>2022-05-02T10:40:36Z</time>
      </trkpt>
      <trkpt lat="45.47003" lon="5.52506">
        <ele>702</ele>
        <time>2022-05-02T10:40:40Z</time>
      </trkpt>
      <trkpt lat="45.47" lon="5.52521">
        <ele>702</ele>
        <time>2022-05-02T10:40:43Z</time>
      </trkpt>
      <trkpt lat="45.47003" lon="5.52607">
        <ele>696</ele>
        <time>2022-05-02T10:40:57Z</time>
      </trkpt>
      <trkpt lat="45.47" lon="5.52643">
        <ele>693</ele>
        <time>2022-05-02T10:41:03Z</time>
      </trkpt>
      <trkpt lat="45.47009" lon="5.52728">
        <ele>686</ele>
        <time>2022-05-02T10:41:17Z</time>
      </trkpt>
      <trkpt lat="45.46971" lon="5.52728">
        <ele>687</ele>
        <time>2022-05-02T10:41:26Z</time>
      </trkpt>
      <trkpt lat="45.46921" lon="5.52734">
        <ele>687</ele>
        <time>2022-05-02T10:41:37Z</time>
      </trkpt>
      <trkpt lat="45.46893" lon="5.52743">
        <ele>687</ele>
        <time>2022-05-02T10:41:44Z</time>
      </trkpt>
      <trkpt lat="45.46875" lon="5.52757">
        <ele>686</ele>
        <time>2022-05-02T10:41:49Z</time>
      </trkpt>
      <trkpt lat="45.46864" lon="5.52762">
        <ele>685</ele>
        <time>2022-05-02T10:41:51Z</time>
      </trkpt>
      <trkpt lat="45.46837" lon="5.52767">
        <ele>685</ele>
        <time>2022-05-02T10:41:58Z</time>
      </trkpt>
      <trkpt lat="45.46778" lon="5.52747">
        <ele>686</ele>
        <time>2022-05-02T10:42:12Z</time>
      </trkpt>
      <trkpt lat="45.4677" lon="5.5274">
        <ele>686</ele>
        <time>2022-05-02T10:42:14Z</time>
      </trkpt>
      <trkpt lat="45.46739" lon="5.52723">
        <ele>687</ele>
        <time>2022-05-02T10:42:22Z</time>
      </trkpt>
      <trkpt lat="45.46717" lon="5.52676">
        <ele>692</ele>
        <time>2022-05-02T10:42:31Z</time>
      </trkpt>
      <trkpt lat="45.46703" lon="5.5266">
        <ele>693</ele>
        <time>2022-05-02T10:42:35Z</time>
      </trkpt>
      <trkpt lat="45.46661" lon="5.52657">
        <ele>692</ele>
        <time>2022-05-02T10:42:45Z</time>
      </trkpt>
      <trkpt lat="45.46569" lon="5.52656">
        <ele>683</ele>
        <time>2022-05-02T10:43:07Z</time>
      </trkpt>
      <trkpt lat="45.46536" lon="5.52653">
        <ele>680</ele>
        <time>2022-05-02T10:43:14Z</time>
      </trkpt>
      <trkpt lat="45.46519" lon="5.52642">
        <ele>679</ele>
        <time>2022-05-02T10:43:19Z</time>
      </trkpt>
      <trkpt lat="45.46527" lon="5.5267">
        <ele>678</ele>
        <time>2022-05-02T10:43:24Z</time>
      </trkpt>
      <trkpt lat="45.46532" lon="5.52708">
        <ele>675</ele>
        <time>2022-05-02T10:43:30Z</time>
      </trkpt>
      <trkpt lat="45.46552" lon="5.52739">
        <ele>673</ele>
        <time>2022-05-02T10:43:37Z</time>
      </trkpt>
      <trkpt lat="45.46568" lon="5.5278">
        <ele>669</ele>
        <time>2022-05-02T10:43:45Z</time>
      </trkpt>
      <trkpt lat="45.46602" lon="5.52825">
        <ele>667</ele>
        <time>2022-05-02T10:43:55Z</time>
      </trkpt>
      <trkpt lat="45.4661" lon="5.5284">
        <ele>665</ele>
        <time>2022-05-02T10:43:58Z</time>
      </trkpt>
      <trkpt lat="45.46624" lon="5.52856">
        <ele>664</ele>
        <time>2022-05-02T10:44:03Z</time>
      </trkpt>
      <trkpt lat="45.46674" lon="5.5289">
        <ele>663</ele>
        <time>2022-05-02T10:44:16Z</time>
      </trkpt>
      <trkpt lat="45.46686" lon="5.52902">
        <ele>662</ele>
        <time>2022-05-02T10:44:19Z</time>
      </trkpt>
      <trkpt lat="45.46702" lon="5.52923">
        <ele>661</ele>
        <time>2022-05-02T10:44:24Z</time>
      </trkpt>
      <trkpt lat="45.4673" lon="5.52969">
        <ele>657</ele>
        <time>2022-05-02T10:44:34Z</time>
      </trkpt>
      <trkpt lat="45.46775" lon="5.53015">
        <ele>654</ele>
        <time>2022-05-02T10:44:47Z</time>
      </trkpt>
      <trkpt lat="45.46798" lon="5.53034">
        <ele>653</ele>
        <time>2022-05-02T10:44:53Z</time>
      </trkpt>
      <trkpt lat="45.46829" lon="5.53054">
        <ele>651</ele>
        <time>2022-05-02T10:45:01Z</time>
      </trkpt>
      <trkpt lat="45.46877" lon="5.53078">
        <ele>650</ele>
        <time>2022-05-02T10:45:13Z</time>
      </trkpt>
      <trkpt lat="45.46913" lon="5.53102">
        <ele>648</ele>
        <time>2022-05-02T10:45:22Z</time>
      </trkpt>
      <trkpt lat="45.46927" lon="5.53117">
        <ele>646</ele>
        <time>2022-05-02T10:45:26Z</time>
      </trkpt>
      <trkpt lat="45.46926" lon="5.53136">
        <ele>643</ele>
        <time>2022-05-02T10:45:30Z</time>
      </trkpt>
      <trkpt lat="45.46914" lon="5.53152">
        <ele>640</ele>
        <time>2022-05-02T10:45:33Z</time>
      </trkpt>
      <trkpt lat="45.46902" lon="5.53158">
        <ele>639</ele>
        <time>2022-05-02T10:45:36Z</time>
      </trkpt>
      <trkpt lat="45.46871" lon="5.53166">
        <ele>636</ele>
        <time>2022-05-02T10:45:44Z</time>
      </trkpt>
      <trkpt lat="45.46816" lon="5.53187">
        <ele>631</ele>
        <time>2022-05-02T10:45:57Z</time>
      </trkpt>
      <trkpt lat="45.46791" lon="5.53192">
        <ele>630</ele>
        <time>2022-05-02T10:46:03Z</time>
      </trkpt>
      <trkpt lat="45.46766" lon="5.53201">
        <ele>627</ele>
        <time>2022-05-02T10:46:09Z</time>
      </trkpt>
      <trkpt lat="45.46749" lon="5.53198">
        <ele>627</ele>
        <time>2022-05-02T10:46:13Z</time>
      </trkpt>
      <trkpt lat="45.4675" lon="5.5321">
        <ele>626</ele>
        <time>2022-05-02T10:46:15Z</time>
      </trkpt>
      <trkpt lat="45.46743" lon="5.53178">
        <ele>629</ele>
        <time>2022-05-02T10:46:20Z</time>
      </trkpt>
      <trkpt lat="45.46732" lon="5.53156">
        <ele>631</ele>
        <time>2022-05-02T10:46:25Z</time>
      </trkpt>
      <trkpt lat="45.46719" lon="5.53142">
        <ele>632</ele>
        <time>2022-05-02T10:46:29Z</time>
      </trkpt>
      <trkpt lat="45.46667" lon="5.53118">
        <ele>632</ele>
        <time>2022-05-02T10:46:41Z</time>
      </trkpt>
      <trkpt lat="45.46625" lon="5.53103">
        <ele>632</ele>
        <time>2022-05-02T10:46:52Z</time>
      </trkpt>
      <trkpt lat="45.46608" lon="5.531">
        <ele>632</ele>
        <time>2022-05-02T10:46:56Z</time>
      </trkpt>
      <trkpt lat="45.46567" lon="5.53102">
        <ele>631</ele>
        <time>2022-05-02T10:47:05Z</time>
      </trkpt>
      <trkpt lat="45.4655" lon="5.531">
        <ele>632</ele>
        <time>2022-05-02T10:47:09Z</time>
      </trkpt>
      <trkpt lat="45.46542" lon="5.53097">
        <ele>632</ele>
        <time>2022-05-02T10:47:11Z</time>
      </trkpt>
      <trkpt lat="45.46491" lon="5.53062">
        <ele>633</ele>
        <time>2022-05-02T10:47:24Z</time>
      </trkpt>
      <trkpt lat="45.4647" lon="5.53051">
        <ele>632</ele>
        <time>2022-05-02T10:47:29Z</time>
      </trkpt>
      <trkpt lat="45.46439" lon="5.53037">
        <ele>631</ele>
        <time>2022-05-02T10:47:37Z</time>
      </trkpt>
      <trkpt lat="45.46421" lon="5.53035">
        <ele>629</ele>
        <time>2022-05-02T10:47:41Z</time>
      </trkpt>
      <trkpt lat="45.46374" lon="5.53041">
        <ele>622</ele>
        <time>2022-05-02T10:47:52Z</time>
      </trkpt>
      <trkpt lat="45.46362" lon="5.53057">
        <ele>619</ele>
        <time>2022-05-02T10:47:56Z</time>
      </trkpt>
      <trkpt lat="45.46348" lon="5.53054">
        <ele>616</ele>
        <time>2022-05-02T10:47:59Z</time>
      </trkpt>
      <trkpt lat="45.46328" lon="5.53061">
        <ele>611</ele>
        <time>2022-05-02T10:48:04Z</time>
      </trkpt>
      <trkpt lat="45.46301" lon="5.53057">
        <ele>607</ele>
        <time>2022-05-02T10:48:11Z</time>
      </trkpt>
      <trkpt lat="45.46288" lon="5.53061">
        <ele>607</ele>
        <time>2022-05-02T10:48:14Z</time>
      </trkpt>
      <trkpt lat="45.46272" lon="5.53078">
        <ele>603</ele>
        <time>2022-05-02T10:48:18Z</time>
      </trkpt>
      <trkpt lat="45.46246" lon="5.53094">
        <ele>600</ele>
        <time>2022-05-02T10:48:25Z</time>
      </trkpt>
      <trkpt lat="45.46236" lon="5.53107">
        <ele>597</ele>
        <time>2022-05-02T10:48:28Z</time>
      </trkpt>
      <trkpt lat="45.46227" lon="5.53113">
        <ele>597</ele>
        <time>2022-05-02T10:48:30Z</time>
      </trkpt>
      <trkpt lat="45.46213" lon="5.53116">
        <ele>599</ele>
        <time>2022-05-02T10:48:34Z</time>
      </trkpt>
      <trkpt lat="45.4618" lon="5.53129">
        <ele>597</ele>
        <time>2022-05-02T10:48:42Z</time>
      </trkpt>
      <trkpt lat="45.46161" lon="5.53129">
        <ele>597</ele>
        <time>2022-05-02T10:48:46Z</time>
      </trkpt>
      <trkpt lat="45.46142" lon="5.53117">
        <ele>601</ele>
        <time>2022-05-02T10:48:51Z</time>
      </trkpt>
      <trkpt lat="45.4612" lon="5.53088">
        <ele>606</ele>
        <time>2022-05-02T10:48:58Z</time>
      </trkpt>
      <trkpt lat="45.46064" lon="5.53003">
        <ele>613</ele>
        <time>2022-05-02T10:49:17Z</time>
      </trkpt>
      <trkpt lat="45.46033" lon="5.52935">
        <ele>616</ele>
        <time>2022-05-02T10:49:30Z</time>
      </trkpt>
      <trkpt lat="45.46027" lon="5.52912">
        <ele>618</ele>
        <time>2022-05-02T10:49:34Z</time>
      </trkpt>
      <trkpt lat="45.46018" lon="5.52904">
        <ele>618</ele>
        <time>2022-05-02T10:49:37Z</time>
      </trkpt>
      <trkpt lat="45.46004" lon="5.52873">
        <ele>619</ele>
        <time>2022-05-02T10:49:43Z</time>
      </trkpt>
      <trkpt lat="45.45965" lon="5.52823">
        <ele>619</ele>
        <time>2022-05-02T10:49:55Z</time>
      </trkpt>
      <trkpt lat="45.45948" lon="5.52784">
        <ele>621</ele>
        <time>2022-05-02T10:50:03Z</time>
      </trkpt>
      <trkpt lat="45.45942" lon="5.52742">
        <ele>622</ele>
        <time>2022-05-02T10:50:10Z</time>
      </trkpt>
      <trkpt lat="45.4595" lon="5.52678">
        <ele>622</ele>
        <time>2022-05-02T10:50:20Z</time>
      </trkpt>
      <trkpt lat="45.45949" lon="5.52653">
        <ele>621</ele>
        <time>2022-05-02T10:50:24Z</time>
      </trkpt>
      <trkpt lat="45.45944" lon="5.52634">
        <ele>620</ele>
        <time>2022-05-02T10:50:28Z</time>
      </trkpt>
      <trkpt lat="45.45916" lon="5.52589">
        <ele>614</ele>
        <time>2022-05-02T10:50:38Z</time>
      </trkpt>
      <trkpt lat="45.45918" lon="5.5257">
        <ele>613</ele>
        <time>2022-05-02T10:50:41Z</time>
      </trkpt>
      <trkpt lat="45.45912" lon="5.52543">
        <ele>611</ele>
        <time>2022-05-02T10:50:45Z</time>
      </trkpt>
      <trkpt lat="45.45911" lon="5.52464">
        <ele>602</ele>
        <time>2022-05-02T10:50:58Z</time>
      </trkpt>
      <trkpt lat="45.45913" lon="5.52452">
        <ele>601</ele>
        <time>2022-05-02T10:51:00Z</time>
      </trkpt>
      <trkpt lat="45.45924" lon="5.52425">
        <ele>599</ele>
        <time>2022-05-02T10:51:06Z</time>
      </trkpt>
      <trkpt lat="45.45942" lon="5.52407">
        <ele>598</ele>
        <time>2022-05-02T10:51:11Z</time>
      </trkpt>
      <trkpt lat="45.45941" lon="5.52387">
        <ele>597</ele>
        <time>2022-05-02T10:51:14Z</time>
      </trkpt>
      <trkpt lat="45.45927" lon="5.52353">
        <ele>594</ele>
        <time>2022-05-02T10:51:20Z</time>
      </trkpt>
      <trkpt lat="45.45914" lon="5.52336">
        <ele>593</ele>
        <time>2022-05-02T10:51:25Z</time>
      </trkpt>
      <trkpt lat="45.45903" lon="5.52327">
        <ele>592</ele>
        <time>2022-05-02T10:51:27Z</time>
      </trkpt>
      <trkpt lat="45.45837" lon="5.52279">
        <ele>591</ele>
        <time>2022-05-02T10:51:45Z</time>
      </trkpt>
      <trkpt lat="45.45824" lon="5.52272">
        <ele>591</ele>
        <time>2022-05-02T10:51:48Z</time>
      </trkpt>
      <trkpt lat="45.4575" lon="5.52259">
        <ele>590</ele>
        <time>2022-05-02T10:52:05Z</time>
      </trkpt>
      <trkpt lat="45.45729" lon="5.52248">
        <ele>589</ele>
        <time>2022-05-02T10:52:11Z</time>
      </trkpt>
      <trkpt lat="45.45708" lon="5.52232">
        <ele>587</ele>
        <time>2022-05-02T10:52:16Z</time>
      </trkpt>
      <trkpt lat="45.45692" lon="5.52212">
        <ele>586</ele>
        <time>2022-05-02T10:52:21Z</time>
      </trkpt>
      <trkpt lat="45.45647" lon="5.52181">
        <ele>580</ele>
        <time>2022-05-02T10:52:33Z</time>
      </trkpt>
      <trkpt lat="45.45627" lon="5.52158">
        <ele>578</ele>
        <time>2022-05-02T10:52:39Z</time>
      </trkpt>
      <trkpt lat="45.4561" lon="5.52131">
        <ele>577</ele>
        <time>2022-05-02T10:52:45Z</time>
      </trkpt>
      <trkpt lat="45.45602" lon="5.52065">
        <ele>577</ele>
        <time>2022-05-02T10:52:56Z</time>
      </trkpt>
      <trkpt lat="45.45595" lon="5.51977">
        <ele>576</ele>
        <time>2022-05-02T10:53:10Z</time>
      </trkpt>
      <trkpt lat="45.45596" lon="5.51917">
        <ele>575</ele>
        <time>2022-05-02T10:53:20Z</time>
      </trkpt>
      <trkpt lat="45.45605" lon="5.51867">
        <ele>575</ele>
        <time>2022-05-02T10:53:29Z</time>
      </trkpt>
      <trkpt lat="45.45608" lon="5.5183">
        <ele>574</ele>
        <time>2022-05-02T10:53:35Z</time>
      </trkpt>
      <trkpt lat="45.45603" lon="5.51795">
        <ele>572</ele>
        <time>2022-05-02T10:53:41Z</time>
      </trkpt>
      <trkpt lat="45.45603" lon="5.51758">
        <ele>571</ele>
        <time>2022-05-02T10:53:47Z</time>
      </trkpt>
      <trkpt lat="45.45614" lon="5.51703">
        <ele>569</ele>
        <time>2022-05-02T10:53:56Z</time>
      </trkpt>
      <trkpt lat="45.45619" lon="5.5169">
        <ele>569</ele>
        <time>2022-05-02T10:53:58Z</time>
      </trkpt>
      <trkpt lat="45.45628" lon="5.51677">
        <ele>570</ele>
        <time>2022-05-02T10:54:01Z</time>
      </trkpt>
      <trkpt lat="45.45683" lon="5.51612">
        <ele>571</ele>
        <time>2022-05-02T10:54:18Z</time>
      </trkpt>
      <trkpt lat="45.45682" lon="5.51591">
        <ele>567</ele>
        <time>2022-05-02T10:54:22Z</time>
      </trkpt>
      <trkpt lat="45.45793" lon="5.51548">
        <ele>571</ele>
        <time>2022-05-02T10:54:48Z</time>
      </trkpt>
      <trkpt lat="45.45833" lon="5.51518">
        <ele>569</ele>
        <time>2022-05-02T10:54:59Z</time>
      </trkpt>
      <trkpt lat="45.45852" lon="5.51495">
        <ele>566</ele>
        <time>2022-05-02T10:55:05Z</time>
      </trkpt>
      <trkpt lat="45.45821" lon="5.51397">
        <ele>545</ele>
        <time>2022-05-02T10:55:22Z</time>
      </trkpt>
      <trkpt lat="45.45812" lon="5.51391">
        <ele>544</ele>
        <time>2022-05-02T10:55:25Z</time>
      </trkpt>
      <trkpt lat="45.45803" lon="5.5138">
        <ele>541</ele>
        <time>2022-05-02T10:55:27Z</time>
      </trkpt>
      <trkpt lat="45.45784" lon="5.51346">
        <ele>534</ele>
        <time>2022-05-02T10:55:35Z</time>
      </trkpt>
      <trkpt lat="45.45784" lon="5.51324">
        <ele>532</ele>
        <time>2022-05-02T10:55:38Z</time>
      </trkpt>
      <trkpt lat="45.45773" lon="5.51296">
        <ele>527</ele>
        <time>2022-05-02T10:55:43Z</time>
      </trkpt>
      <trkpt lat="45.45754" lon="5.51275">
        <ele>525</ele>
        <time>2022-05-02T10:55:49Z</time>
      </trkpt>
      <trkpt lat="45.45699" lon="5.51223">
        <ele>520</ele>
        <time>2022-05-02T10:56:04Z</time>
      </trkpt>
      <trkpt lat="45.45692" lon="5.51214">
        <ele>519</ele>
        <time>2022-05-02T10:56:07Z</time>
      </trkpt>
      <trkpt lat="45.45689" lon="5.51203">
        <ele>519</ele>
        <time>2022-05-02T10:56:09Z</time>
      </trkpt>
      <trkpt lat="45.4569" lon="5.51188">
        <ele>519</ele>
        <time>2022-05-02T10:56:11Z</time>
      </trkpt>
      <trkpt lat="45.45694" lon="5.51174">
        <ele>518</ele>
        <time>2022-05-02T10:56:14Z</time>
      </trkpt>
      <trkpt lat="45.45741" lon="5.51104">
        <ele>517</ele>
        <time>2022-05-02T10:56:52Z</time>
      </trkpt>
      <trkpt lat="45.45783" lon="5.5103">
        <ele>517</ele>
        <time>2022-05-02T10:56:56Z</time>
      </trkpt>
      <trkpt lat="45.45794" lon="5.50986">
        <ele>517</ele>
        <time>2022-05-02T10:56:59Z</time>
      </trkpt>
      <trkpt lat="45.45808" lon="5.50926">
        <ele>517</ele>
        <time>2022-05-02T10:57:03Z</time>
      </trkpt>
      <trkpt lat="45.45789" lon="5.50925">
        <ele>516</ele>
        <time>2022-05-02T10:57:07Z</time>
      </trkpt>
      <trkpt lat="45.45766" lon="5.50907">
        <ele>514</ele>
        <time>2022-05-02T10:57:14Z</time>
      </trkpt>
      <trkpt lat="45.45702" lon="5.50808">
        <ele>514</ele>
        <time>2022-05-02T10:57:36Z</time>
      </trkpt>
      <trkpt lat="45.45697" lon="5.50796">
        <ele>514</ele>
        <time>2022-05-02T10:57:38Z</time>
      </trkpt>
      <trkpt lat="45.45692" lon="5.50725">
        <ele>515</ele>
        <time>2022-05-02T10:57:50Z</time>
      </trkpt>
      <trkpt lat="45.45677" lon="5.50617">
        <ele>518</ele>
        <time>2022-05-02T10:58:08Z</time>
      </trkpt>
      <trkpt lat="45.45667" lon="5.50559">
        <ele>518</ele>
        <time>2022-05-02T10:58:17Z</time>
      </trkpt>
      <trkpt lat="45.45658" lon="5.50524">
        <ele>519</ele>
        <time>2022-05-02T10:58:23Z</time>
      </trkpt>
      <trkpt lat="45.4564" lon="5.5054">
        <ele>519</ele>
        <time>2022-05-02T10:58:28Z</time>
      </trkpt>
      <trkpt lat="45.45626" lon="5.50557">
        <ele>519</ele>
        <time>2022-05-02T10:58:33Z</time>
      </trkpt>
      <trkpt lat="45.45549" lon="5.50612">
        <ele>519</ele>
        <time>2022-05-02T10:58:53Z</time>
      </trkpt>
      <trkpt lat="45.45503" lon="5.50651">
        <ele>518</ele>
        <time>2022-05-02T10:59:05Z</time>
      </trkpt>
      <trkpt lat="45.45474" lon="5.50672">
        <ele>518</ele>
        <time>2022-05-02T10:59:13Z</time>
      </trkpt>
      <trkpt lat="45.4543" lon="5.50714">
        <ele>518</ele>
        <time>2022-05-02T10:59:25Z</time>
      </trkpt>
      <trkpt lat="45.454" lon="5.50752">
        <ele>519</ele>
        <time>2022-05-02T10:59:35Z</time>
      </trkpt>
      <trkpt lat="45.45338" lon="5.5075">
        <ele>520</ele>
        <time>2022-05-02T10:59:49Z</time>
      </trkpt>
      <trkpt lat="45.45319" lon="5.50765">
        <ele>521</ele>
        <time>2022-05-02T10:59:54Z</time>
      </trkpt>
      <trkpt lat="45.45292" lon="5.50803">
        <ele>521</ele>
        <time>2022-05-02T11:00:03Z</time>
      </trkpt>
      <trkpt lat="45.45269" lon="5.50827">
        <ele>521</ele>
        <time>2022-05-02T11:00:10Z</time>
      </trkpt>
      <trkpt lat="45.45256" lon="5.50836">
        <ele>521</ele>
        <time>2022-05-02T11:00:13Z</time>
      </trkpt>
      <trkpt lat="45.45214" lon="5.50855">
        <ele>523</ele>
        <time>2022-05-02T11:00:23Z</time>
      </trkpt>
      <trkpt lat="45.45163" lon="5.5086">
        <ele>524</ele>
        <time>2022-05-02T11:00:35Z</time>
      </trkpt>
      <trkpt lat="45.4512" lon="5.50868">
        <ele>524</ele>
        <time>2022-05-02T11:00:45Z</time>
      </trkpt>
      <trkpt lat="45.4507" lon="5.50868">
        <ele>524</ele>
        <time>2022-05-02T11:00:57Z</time>
      </trkpt>
      <trkpt lat="45.45045" lon="5.50874">
        <ele>523</ele>
        <time>2022-05-02T11:01:03Z</time>
      </trkpt>
      <trkpt lat="45.45035" lon="5.50882">
        <ele>523</ele>
        <time>2022-05-02T11:01:06Z</time>
      </trkpt>
      <trkpt lat="45.45019" lon="5.50896">
        <ele>522.371155</ele>
        <time>2022-05-02T11:01:11Z</time>
      </trkpt>
      <trkpt lat="45.45006" lon="5.509">
        <ele>522</ele>
        <time>2022-05-02T11:01:15Z</time>
      </trkpt>
      <trkpt lat="45.44976" lon="5.5091">
        <ele>522</ele>
        <time>2022-05-02T11:01:23Z</time>
      </trkpt>
      <trkpt lat="45.44944" lon="5.50925">
        <ele>523</ele>
        <time>2022-05-02T11:01:30Z</time>
      </trkpt>
      <trkpt lat="45.44883" lon="5.50965">
        <ele>522</ele>
        <time>2022-05-02T11:01:46Z</time>
      </trkpt>
      <trkpt lat="45.44862" lon="5.50967">
        <ele>522</ele>
        <time>2022-05-02T11:01:51Z</time>
      </trkpt>
      <trkpt lat="45.44852" lon="5.50963">
        <ele>522</ele>
        <time>2022-05-02T11:01:53Z</time>
      </trkpt>
      <trkpt lat="45.44827" lon="5.50939">
        <ele>522</ele>
        <time>2022-05-02T11:02:01Z</time>
      </trkpt>
      <trkpt lat="45.44803" lon="5.50906">
        <ele>522</ele>
        <time>2022-05-02T11:02:08Z</time>
      </trkpt>
      <trkpt lat="45.44792" lon="5.50896">
        <ele>522</ele>
        <time>2022-05-02T11:02:11Z</time>
      </trkpt>
      <trkpt lat="45.44778" lon="5.50887">
        <ele>521</ele>
        <time>2022-05-02T11:02:15Z</time>
      </trkpt>
      <trkpt lat="45.44747" lon="5.50876">
        <ele>520</ele>
        <time>2022-05-02T11:02:22Z</time>
      </trkpt>
      <trkpt lat="45.44724" lon="5.50879">
        <ele>519</ele>
        <time>2022-05-02T11:02:28Z</time>
      </trkpt>
      <trkpt lat="45.44707" lon="5.50886">
        <ele>518</ele>
        <time>2022-05-02T11:02:32Z</time>
      </trkpt>
      <trkpt lat="45.44687" lon="5.50906">
        <ele>518</ele>
        <time>2022-05-02T11:02:38Z</time>
      </trkpt>
      <trkpt lat="45.44619" lon="5.50984">
        <ele>518</ele>
        <time>2022-05-02T11:02:58Z</time>
      </trkpt>
      <trkpt lat="45.44604" lon="5.50996">
        <ele>518</ele>
        <time>2022-05-02T11:03:02Z</time>
      </trkpt>
      <trkpt lat="45.44593" lon="5.51001">
        <ele>519</ele>
        <time>2022-05-02T11:03:05Z</time>
      </trkpt>
      <trkpt lat="45.44586" lon="5.51001">
        <ele>519</ele>
        <time>2022-05-02T11:03:06Z</time>
      </trkpt>
      <trkpt lat="45.44571" lon="5.50995">
        <ele>520</ele>
        <time>2022-05-02T11:03:10Z</time>
      </trkpt>
      <trkpt lat="45.44536" lon="5.50987">
        <ele>522</ele>
        <time>2022-05-02T11:03:18Z</time>
      </trkpt>
      <trkpt lat="45.4445" lon="5.50975">
        <ele>527</ele>
        <time>2022-05-02T11:03:38Z</time>
      </trkpt>
      <trkpt lat="45.44387" lon="5.50968">
        <ele>530</ele>
        <time>2022-05-02T11:03:53Z</time>
      </trkpt>
      <trkpt lat="45.44288" lon="5.50961">
        <ele>534</ele>
        <time>2022-05-02T11:04:16Z</time>
      </trkpt>
      <trkpt lat="45.44261" lon="5.50962">
        <ele>536</ele>
        <time>2022-05-02T11:04:23Z</time>
      </trkpt>
      <trkpt lat="45.44173" lon="5.50983">
        <ele>537</ele>
        <time>2022-05-02T11:04:44Z</time>
      </trkpt>
      <trkpt lat="45.44097" lon="5.50998">
        <ele>533</ele>
        <time>2022-05-02T11:05:01Z</time>
      </trkpt>
      <trkpt lat="45.44081" lon="5.51003">
        <ele>533</ele>
        <time>2022-05-02T11:05:05Z</time>
      </trkpt>
      <trkpt lat="45.44054" lon="5.51017">
        <ele>531</ele>
        <time>2022-05-02T11:05:12Z</time>
      </trkpt>
      <trkpt lat="45.44032" lon="5.51023">
        <ele>530</ele>
        <time>2022-05-02T11:05:17Z</time>
      </trkpt>
      <trkpt lat="45.43995" lon="5.51026">
        <ele>531</ele>
        <time>2022-05-02T11:05:26Z</time>
      </trkpt>
      <trkpt lat="45.43924" lon="5.51007">
        <ele>534</ele>
        <time>2022-05-02T11:05:43Z</time>
      </trkpt>
      <trkpt lat="45.43889" lon="5.51011">
        <ele>536</ele>
        <time>2022-05-02T11:05:51Z</time>
      </trkpt>
      <trkpt lat="45.43838" lon="5.51025">
        <ele>538</ele>
        <time>2022-05-02T11:06:03Z</time>
      </trkpt>
      <trkpt lat="45.43752" lon="5.51082">
        <ele>541</ele>
        <time>2022-05-02T11:06:25Z</time>
      </trkpt>
      <trkpt lat="45.43736" lon="5.511">
        <ele>540</ele>
        <time>2022-05-02T11:06:30Z</time>
      </trkpt>
      <trkpt lat="45.43714" lon="5.51165">
        <ele>536</ele>
        <time>2022-05-02T11:06:42Z</time>
      </trkpt>
      <trkpt lat="45.43697" lon="5.5119">
        <ele>534</ele>
        <time>2022-05-02T11:06:47Z</time>
      </trkpt>
      <trkpt lat="45.43687" lon="5.512">
        <ele>533</ele>
        <time>2022-05-02T11:06:50Z</time>
      </trkpt>
      <trkpt lat="45.43672" lon="5.51209">
        <ele>531</ele>
        <time>2022-05-02T11:06:54Z</time>
      </trkpt>
      <trkpt lat="45.43588" lon="5.51249">
        <ele>518</ele>
        <time>2022-05-02T11:07:15Z</time>
      </trkpt>
      <trkpt lat="45.43482" lon="5.51252">
        <ele>507</ele>
        <time>2022-05-02T11:07:40Z</time>
      </trkpt>
      <trkpt lat="45.43439" lon="5.51241">
        <ele>506</ele>
        <time>2022-05-02T11:07:50Z</time>
      </trkpt>
      <trkpt lat="45.43425" lon="5.51235">
        <ele>506</ele>
        <time>2022-05-02T11:07:53Z</time>
      </trkpt>
      <trkpt lat="45.43394" lon="5.51206">
        <ele>507</ele>
        <time>2022-05-02T11:08:02Z</time>
      </trkpt>
      <trkpt lat="45.43382" lon="5.51205">
        <ele>506</ele>
        <time>2022-05-02T11:08:05Z</time>
      </trkpt>
      <trkpt lat="45.43351" lon="5.5121">
        <ele>505</ele>
        <time>2022-05-02T11:08:12Z</time>
      </trkpt>
      <trkpt lat="45.43332" lon="5.51231">
        <ele>503</ele>
        <time>2022-05-02T11:08:14Z</time>
      </trkpt>
      <trkpt lat="45.43333" lon="5.51273">
        <ele>498</ele>
        <time>2022-05-02T11:25:34Z</time>
      </trkpt>
      <trkpt lat="45.43331" lon="5.51346">
        <ele>494</ele>
      </trkpt>
      <trkpt lat="45.43326" lon="5.51445">
        <ele>493</ele>
      </trkpt>
      <trkpt lat="45.43319" lon="5.51528">
        <ele>492</ele>
      </trkpt>
      <trkpt lat="45.43317" lon="5.51614">
        <ele>491</ele>
      </trkpt>
      <trkpt lat="45.43315" lon="5.51665">
        <ele>491</ele>
        <time>2022-05-02T11:25:39Z</time>
      </trkpt>
      <trkpt lat="45.43314" lon="5.51706">
        <ele>492</ele>
        <time>2022-05-02T11:25:41Z</time>
      </trkpt>
      <trkpt lat="45.43292" lon="5.51715">
        <ele>492</ele>
        <time>2022-05-02T11:25:51Z</time>
      </trkpt>
      <trkpt lat="45.43261" lon="5.51714">
        <ele>492</ele>
        <time>2022-05-02T11:25:59Z</time>
      </trkpt>
      <trkpt lat="45.43041" lon="5.51633">
        <ele>491</ele>
        <time>2022-05-02T11:26:52Z</time>
      </trkpt>
      <trkpt lat="45.42981" lon="5.51618">
        <ele>492</ele>
        <time>2022-05-02T11:27:06Z</time>
      </trkpt>
      <trkpt lat="45.4293" lon="5.5163">
        <ele>492</ele>
        <time>2022-05-02T11:27:18Z</time>
      </trkpt>
      <trkpt lat="45.42881" lon="5.51667">
        <ele>493</ele>
        <time>2022-05-02T11:27:31Z</time>
      </trkpt>
      <trkpt lat="45.42832" lon="5.51753">
        <ele>494</ele>
        <time>2022-05-02T11:27:49Z</time>
      </trkpt>
      <trkpt lat="45.42808" lon="5.51843">
        <ele>496</ele>
        <time>2022-05-02T11:28:05Z</time>
      </trkpt>
      <trkpt lat="45.42785" lon="5.51895">
        <ele>497</ele>
        <time>2022-05-02T11:28:15Z</time>
      </trkpt>
      <trkpt lat="45.42737" lon="5.51942">
        <ele>498</ele>
        <time>2022-05-02T11:28:29Z</time>
      </trkpt>
      <trkpt lat="45.42667" lon="5.51946">
        <ele>498</ele>
        <time>2022-05-02T11:28:45Z</time>
      </trkpt>
      <trkpt lat="45.42633" lon="5.51928">
        <ele>499</ele>
        <time>2022-05-02T11:28:53Z</time>
      </trkpt>
      <trkpt lat="45.42654" lon="5.51824">
        <ele>497</ele>
        <time>2022-05-02T11:29:10Z</time>
      </trkpt>
      <trkpt lat="45.42635" lon="5.51691">
        <ele>495</ele>
        <time>2022-05-02T11:29:33Z</time>
      </trkpt>
      <trkpt lat="45.42598" lon="5.51547">
        <ele>496</ele>
        <time>2022-05-02T11:30:13Z</time>
      </trkpt>
      <trkpt lat="45.42549" lon="5.5137">
        <ele>503</ele>
        <time>2022-05-02T11:30:29Z</time>
      </trkpt>
      <trkpt lat="45.42527" lon="5.5128">
        <ele>510</ele>
        <time>2022-05-02T11:30:45Z</time>
      </trkpt>
      <trkpt lat="45.4249" lon="5.51157">
        <ele>518</ele>
        <time>2022-05-02T11:31:07Z</time>
      </trkpt>
      <trkpt lat="45.42447" lon="5.51176">
        <ele>518</ele>
        <time>2022-05-02T11:31:17Z</time>
      </trkpt>
      <trkpt lat="45.42422" lon="5.51135">
        <ele>523</ele>
        <time>2022-05-02T11:31:26Z</time>
      </trkpt>
      <trkpt lat="45.42431" lon="5.51097">
        <ele>525</ele>
        <time>2022-05-02T11:31:33Z</time>
      </trkpt>
      <trkpt lat="45.42471" lon="5.51022">
        <ele>529</ele>
        <time>2022-05-02T11:31:48Z</time>
      </trkpt>
      <trkpt lat="45.4249" lon="5.50957">
        <ele>536</ele>
        <time>2022-05-02T11:32:00Z</time>
      </trkpt>
      <trkpt lat="45.42489" lon="5.50939">
        <ele>540</ele>
        <time>2022-05-02T11:32:02Z</time>
      </trkpt>
      <trkpt lat="45.42544" lon="5.50835">
        <ele>549</ele>
        <time>2022-05-02T11:32:24Z</time>
      </trkpt>
      <trkpt lat="45.42556" lon="5.50785">
        <ele>553</ele>
        <time>2022-05-02T11:32:32Z</time>
      </trkpt>
      <trkpt lat="45.42564" lon="5.50714">
        <ele>557</ele>
        <time>2022-05-02T11:32:44Z</time>
      </trkpt>
      <trkpt lat="45.42557" lon="5.5069">
        <ele>560</ele>
        <time>2022-05-02T11:32:49Z</time>
      </trkpt>
      <trkpt lat="45.42558" lon="5.50675">
        <ele>560</ele>
        <time>2022-05-02T11:32:51Z</time>
      </trkpt>
      <trkpt lat="45.42573" lon="5.50647">
        <ele>559</ele>
        <time>2022-05-02T11:32:57Z</time>
      </trkpt>
      <trkpt lat="45.42576" lon="5.50624">
        <ele>560</ele>
        <time>2022-05-02T11:33:01Z</time>
      </trkpt>
      <trkpt lat="45.42571" lon="5.50605">
        <ele>562</ele>
        <time>2022-05-02T11:33:04Z</time>
      </trkpt>
      <trkpt lat="45.42569" lon="5.50581">
        <ele>563</ele>
        <time>2022-05-02T11:33:08Z</time>
      </trkpt>
      <trkpt lat="45.4259" lon="5.50503">
        <ele>565</ele>
        <time>2022-05-02T11:33:22Z</time>
      </trkpt>
      <trkpt lat="45.42585" lon="5.50478">
        <ele>567</ele>
        <time>2022-05-02T11:33:26Z</time>
      </trkpt>
      <trkpt lat="45.42564" lon="5.50463">
        <ele>572</ele>
        <time>2022-05-02T11:33:31Z</time>
      </trkpt>
      <trkpt lat="45.42548" lon="5.50434">
        <ele>576</ele>
        <time>2022-05-02T11:33:37Z</time>
      </trkpt>
      <trkpt lat="45.42528" lon="5.50348">
        <ele>581</ele>
        <time>2022-05-02T11:33:52Z</time>
      </trkpt>
      <trkpt lat="45.42499" lon="5.50263">
        <ele>588</ele>
        <time>2022-05-02T11:34:08Z</time>
      </trkpt>
      <trkpt lat="45.4249" lon="5.50211">
        <ele>592</ele>
        <time>2022-05-02T11:34:16Z</time>
      </trkpt>
      <trkpt lat="45.42483" lon="5.50119">
        <ele>595</ele>
        <time>2022-05-02T11:34:32Z</time>
      </trkpt>
      <trkpt lat="45.42447" lon="5.50162">
        <ele>598</ele>
        <time>2022-05-02T11:34:43Z</time>
      </trkpt>
      <trkpt lat="45.42388" lon="5.50263">
        <ele>603</ele>
        <time>2022-05-02T11:35:04Z</time>
      </trkpt>
      <trkpt lat="45.42372" lon="5.50295">
        <ele>604</ele>
        <time>2022-05-02T11:35:11Z</time>
      </trkpt>
      <trkpt lat="45.42361" lon="5.5031">
        <ele>605</ele>
        <time>2022-05-02T11:35:14Z</time>
      </trkpt>
      <trkpt lat="45.42338" lon="5.50321">
        <ele>608</ele>
        <time>2022-05-02T11:35:20Z</time>
      </trkpt>
      <trkpt lat="45.4231" lon="5.5033">
        <ele>611</ele>
        <time>2022-05-02T11:35:27Z</time>
      </trkpt>
      <trkpt lat="45.4227" lon="5.50338">
        <ele>615</ele>
        <time>2022-05-02T11:35:36Z</time>
      </trkpt>
      <trkpt lat="45.42221" lon="5.50352">
        <ele>619</ele>
        <time>2022-05-02T11:35:48Z</time>
      </trkpt>
      <trkpt lat="45.42241" lon="5.50455">
        <ele>616</ele>
        <time>2022-05-02T11:36:05Z</time>
      </trkpt>
      <trkpt lat="45.42244" lon="5.50502">
        <ele>616</ele>
        <time>2022-05-02T11:36:13Z</time>
      </trkpt>
      <trkpt lat="45.42239" lon="5.50558">
        <ele>617</ele>
        <time>2022-05-02T11:36:22Z</time>
      </trkpt>
      <trkpt lat="45.42224" lon="5.50658">
        <ele>619</ele>
        <time>2022-05-02T11:36:39Z</time>
      </trkpt>
      <trkpt lat="45.42216" lon="5.50734">
        <ele>617</ele>
        <time>2022-05-02T11:36:51Z</time>
      </trkpt>
      <trkpt lat="45.42203" lon="5.50758">
        <ele>617</ele>
        <time>2022-05-02T11:36:56Z</time>
      </trkpt>
      <trkpt lat="45.42166" lon="5.50813">
        <ele>619</ele>
        <time>2022-05-02T11:37:09Z</time>
      </trkpt>
      <trkpt lat="45.42147" lon="5.50833">
        <ele>622</ele>
        <time>2022-05-02T11:37:14Z</time>
      </trkpt>
      <trkpt lat="45.4213" lon="5.50841">
        <ele>625</ele>
        <time>2022-05-02T11:37:19Z</time>
      </trkpt>
      <trkpt lat="45.42118" lon="5.50839">
        <ele>627</ele>
        <time>2022-05-02T11:37:21Z</time>
      </trkpt>
      <trkpt lat="45.42085" lon="5.508">
        <ele>634</ele>
        <time>2022-05-02T11:37:31Z</time>
      </trkpt>
      <trkpt lat="45.42069" lon="5.50812">
        <ele>637</ele>
        <time>2022-05-02T11:37:36Z</time>
      </trkpt>
      <trkpt lat="45.42048" lon="5.50813">
        <ele>642</ele>
        <time>2022-05-02T11:37:41Z</time>
      </trkpt>
      <trkpt lat="45.41998" lon="5.50825">
        <ele>654</ele>
        <time>2022-05-02T11:37:52Z</time>
      </trkpt>
      <trkpt lat="45.41987" lon="5.50951">
        <ele>644</ele>
        <time>2022-05-02T11:38:13Z</time>
      </trkpt>
      <trkpt lat="45.41977" lon="5.50962">
        <ele>645</ele>
        <time>2022-05-02T11:38:16Z</time>
      </trkpt>
      <trkpt lat="45.41954" lon="5.5098">
        <ele>648</ele>
        <time>2022-05-02T11:38:22Z</time>
      </trkpt>
      <trkpt lat="45.41944" lon="5.50994">
        <ele>649</ele>
        <time>2022-05-02T11:38:26Z</time>
      </trkpt>
      <trkpt lat="45.41935" lon="5.51046">
        <ele>648</ele>
        <time>2022-05-02T11:38:34Z</time>
      </trkpt>
      <trkpt lat="45.41929" lon="5.51067">
        <ele>651</ele>
        <time>2022-05-02T11:38:38Z</time>
      </trkpt>
      <trkpt lat="45.4191" lon="5.51093">
        <ele>659</ele>
        <time>2022-05-02T11:38:44Z</time>
      </trkpt>
      <trkpt lat="45.41896" lon="5.51106">
        <ele>665</ele>
        <time>2022-05-02T11:38:48Z</time>
      </trkpt>
      <trkpt lat="45.41871" lon="5.5112">
        <ele>675</ele>
        <time>2022-05-02T11:38:54Z</time>
      </trkpt>
      <trkpt lat="45.41864" lon="5.51127">
        <ele>678</ele>
        <time>2022-05-02T11:38:56Z</time>
      </trkpt>
      <trkpt lat="45.4186" lon="5.51138">
        <ele>680</ele>
        <time>2022-05-02T11:38:58Z</time>
      </trkpt>
      <trkpt lat="45.41864" lon="5.5115">
        <ele>679</ele>
        <time>2022-05-02T11:39:01Z</time>
      </trkpt>
      <trkpt lat="45.41883" lon="5.51181">
        <ele>674</ele>
        <time>2022-05-02T11:39:07Z</time>
      </trkpt>
      <trkpt lat="45.41903" lon="5.51227">
        <ele>663</ele>
        <time>2022-05-02T11:39:16Z</time>
      </trkpt>
      <trkpt lat="45.41904" lon="5.51244">
        <ele>658</ele>
        <time>2022-05-02T11:39:19Z</time>
      </trkpt>
      <trkpt lat="45.41899" lon="5.51259">
        <ele>657</ele>
        <time>2022-05-02T11:39:22Z</time>
      </trkpt>
      <trkpt lat="45.4173" lon="5.51464">
        <ele>668</ele>
        <time>2022-05-02T11:40:14Z</time>
      </trkpt>
      <trkpt lat="45.41708" lon="5.51473">
        <ele>671</ele>
        <time>2022-05-02T11:40:19Z</time>
      </trkpt>
      <trkpt lat="45.41663" lon="5.51473">
        <ele>676</ele>
        <time>2022-05-02T11:40:29Z</time>
      </trkpt>
      <trkpt lat="45.41633" lon="5.51466">
        <ele>680</ele>
        <time>2022-05-02T11:40:37Z</time>
      </trkpt>
      <trkpt lat="45.41603" lon="5.51465">
        <ele>677</ele>
        <time>2022-05-02T11:40:44Z</time>
      </trkpt>
      <trkpt lat="45.41555" lon="5.51441">
        <ele>678</ele>
        <time>2022-05-02T11:40:55Z</time>
      </trkpt>
      <trkpt lat="45.41505" lon="5.51401">
        <ele>684</ele>
        <time>2022-05-02T11:41:09Z</time>
      </trkpt>
      <trkpt lat="45.41495" lon="5.51387">
        <ele>687</ele>
        <time>2022-05-02T11:41:12Z</time>
      </trkpt>
      <trkpt lat="45.41476" lon="5.5138">
        <ele>689</ele>
        <time>2022-05-02T11:41:17Z</time>
      </trkpt>
      <trkpt lat="45.41464" lon="5.5138">
        <ele>691</ele>
        <time>2022-05-02T11:41:20Z</time>
      </trkpt>
      <trkpt lat="45.41458" lon="5.5139">
        <ele>690</ele>
        <time>2022-05-02T11:41:22Z</time>
      </trkpt>
      <trkpt lat="45.41458" lon="5.51421">
        <ele>685</ele>
        <time>2022-05-02T11:41:27Z</time>
      </trkpt>
      <trkpt lat="45.41465" lon="5.51476">
        <ele>681</ele>
        <time>2022-05-02T11:41:36Z</time>
      </trkpt>
      <trkpt lat="45.41489" lon="5.51577">
        <ele>678</ele>
        <time>2022-05-02T11:41:53Z</time>
      </trkpt>
      <trkpt lat="45.41494" lon="5.51763">
        <ele>712</ele>
        <time>2022-05-02T11:42:24Z</time>
      </trkpt>
      <trkpt lat="45.41491" lon="5.51786">
        <ele>714</ele>
        <time>2022-05-02T11:42:28Z</time>
      </trkpt>
      <trkpt lat="45.41482" lon="5.51792">
        <ele>718</ele>
        <time>2022-05-02T11:42:30Z</time>
      </trkpt>
      <trkpt lat="45.4147" lon="5.51788">
        <ele>721</ele>
        <time>2022-05-02T11:42:33Z</time>
      </trkpt>
      <trkpt lat="45.41439" lon="5.51763">
        <ele>727</ele>
        <time>2022-05-02T11:42:41Z</time>
      </trkpt>
      <trkpt lat="45.4142" lon="5.51764">
        <ele>727</ele>
        <time>2022-05-02T11:42:46Z</time>
      </trkpt>
      <trkpt lat="45.41409" lon="5.51762">
        <ele>727</ele>
        <time>2022-05-02T11:42:48Z</time>
      </trkpt>
      <trkpt lat="45.41382" lon="5.51734">
        <ele>729</ele>
        <time>2022-05-02T11:42:56Z</time>
      </trkpt>
      <trkpt lat="45.41348" lon="5.51672">
        <ele>732</ele>
        <time>2022-05-02T11:43:09Z</time>
      </trkpt>
      <trkpt lat="45.41321" lon="5.51645">
        <ele>730</ele>
        <time>2022-05-02T11:43:17Z</time>
      </trkpt>
      <trkpt lat="45.41272" lon="5.51578">
        <ele>728</ele>
        <time>2022-05-02T11:43:33Z</time>
      </trkpt>
      <trkpt lat="45.41242" lon="5.51454">
        <ele>731</ele>
        <time>2022-05-02T11:43:54Z</time>
      </trkpt>
      <trkpt lat="45.41234" lon="5.51429">
        <ele>732</ele>
        <time>2022-05-02T11:43:59Z</time>
      </trkpt>
      <trkpt lat="45.41214" lon="5.51399">
        <ele>731</ele>
        <time>2022-05-02T11:44:05Z</time>
      </trkpt>
      <trkpt lat="45.41214" lon="5.51384">
        <ele>732</ele>
        <time>2022-05-02T11:44:08Z</time>
      </trkpt>
      <trkpt lat="45.41278" lon="5.51258">
        <ele>738</ele>
        <time>2022-05-02T11:44:33Z</time>
      </trkpt>
      <trkpt lat="45.41299" lon="5.51232">
        <ele>738</ele>
        <time>2022-05-02T11:44:40Z</time>
      </trkpt>
      <trkpt lat="45.41327" lon="5.51207">
        <ele>740</ele>
        <time>2022-05-02T11:44:48Z</time>
      </trkpt>
      <trkpt lat="45.41376" lon="5.51149">
        <ele>746</ele>
        <time>2022-05-02T11:45:02Z</time>
      </trkpt>
      <trkpt lat="45.41392" lon="5.51134">
        <ele>749</ele>
        <time>2022-05-02T11:45:07Z</time>
      </trkpt>
      <trkpt lat="45.414" lon="5.51096">
        <ele>755</ele>
        <time>2022-05-02T11:45:13Z</time>
      </trkpt>
      <trkpt lat="45.41414" lon="5.51056">
        <ele>761</ele>
        <time>2022-05-02T11:45:21Z</time>
      </trkpt>
      <trkpt lat="45.41433" lon="5.51029">
        <ele>763</ele>
        <time>2022-05-02T11:45:27Z</time>
      </trkpt>
      <trkpt lat="45.41458" lon="5.50963">
        <ele>766</ele>
        <time>2022-05-02T11:45:39Z</time>
      </trkpt>
      <trkpt lat="45.41488" lon="5.50905">
        <ele>765</ele>
        <time>2022-05-02T11:45:51Z</time>
      </trkpt>
      <trkpt lat="45.41539" lon="5.50858">
        <ele>763</ele>
        <time>2022-05-02T11:46:05Z</time>
      </trkpt>
      <trkpt lat="45.41546" lon="5.50844">
        <ele>763</ele>
        <time>2022-05-02T11:46:08Z</time>
      </trkpt>
      <trkpt lat="45.41559" lon="5.50783">
        <ele>762</ele>
        <time>2022-05-02T11:46:19Z</time>
      </trkpt>
      <trkpt lat="45.41577" lon="5.50715">
        <ele>758</ele>
        <time>2022-05-02T11:46:30Z</time>
      </trkpt>
      <trkpt lat="45.41555" lon="5.50642">
        <ele>762</ele>
        <time>2022-05-02T11:46:43Z</time>
      </trkpt>
      <trkpt lat="45.41498" lon="5.5049">
        <ele>760</ele>
        <time>2022-05-02T11:47:12Z</time>
      </trkpt>
      <trkpt lat="45.41504" lon="5.50478">
        <ele>760</ele>
        <time>2022-05-02T11:47:14Z</time>
      </trkpt>
      <trkpt lat="45.41508" lon="5.5038">
        <ele>753</ele>
        <time>2022-05-02T11:47:30Z</time>
      </trkpt>
      <trkpt lat="45.41525" lon="5.50307">
        <ele>746</ele>
        <time>2022-05-02T11:47:43Z</time>
      </trkpt>
      <trkpt lat="45.41564" lon="5.50249">
        <ele>733</ele>
        <time>2022-05-02T11:47:56Z</time>
      </trkpt>
      <trkpt lat="45.41631" lon="5.50115">
        <ele>728</ele>
        <time>2022-05-02T11:48:23Z</time>
      </trkpt>
      <trkpt lat="45.4161" lon="5.50108">
        <ele>732</ele>
        <time>2022-05-02T11:48:28Z</time>
      </trkpt>
      <trkpt lat="45.41569" lon="5.50107">
        <ele>740</ele>
        <time>2022-05-02T11:48:38Z</time>
      </trkpt>
      <trkpt lat="45.41502" lon="5.50113">
        <ele>754</ele>
        <time>2022-05-02T11:48:53Z</time>
      </trkpt>
      <trkpt lat="45.41458" lon="5.50137">
        <ele>760</ele>
        <time>2022-05-02T11:49:04Z</time>
      </trkpt>
      <trkpt lat="45.41463" lon="5.50072">
        <ele>759</ele>
        <time>2022-05-02T11:49:15Z</time>
      </trkpt>
      <trkpt lat="45.4151" lon="5.49992">
        <ele>749</ele>
        <time>2022-05-02T11:49:32Z</time>
      </trkpt>
      <trkpt lat="45.41583" lon="5.49887">
        <ele>735</ele>
        <time>2022-05-02T11:49:56Z</time>
      </trkpt>
      <trkpt lat="45.41753" lon="5.49722">
        <ele>706</ele>
        <time>2022-05-02T11:50:44Z</time>
      </trkpt>
      <trkpt lat="45.41774" lon="5.49616">
        <ele>692</ele>
        <time>2022-05-02T11:51:02Z</time>
      </trkpt>
      <trkpt lat="45.41792" lon="5.49467">
        <ele>683</ele>
        <time>2022-05-02T11:51:27Z</time>
      </trkpt>
      <trkpt lat="45.4181" lon="5.49431">
        <ele>682</ele>
        <time>2022-05-02T11:51:34Z</time>
      </trkpt>
      <trkpt lat="45.41823" lon="5.49378">
        <ele>679</ele>
        <time>2022-05-02T11:51:44Z</time>
      </trkpt>
      <trkpt lat="45.41812" lon="5.49329">
        <ele>678</ele>
        <time>2022-05-02T11:51:52Z</time>
      </trkpt>
      <trkpt lat="45.41788" lon="5.49267">
        <ele>675</ele>
        <time>2022-05-02T11:52:04Z</time>
      </trkpt>
      <trkpt lat="45.4178" lon="5.49203">
        <ele>670</ele>
        <time>2022-05-02T11:52:14Z</time>
      </trkpt>
      <trkpt lat="45.4177" lon="5.49077">
        <ele>660</ele>
        <time>2022-05-02T11:52:35Z</time>
      </trkpt>
      <trkpt lat="45.41772" lon="5.49038">
        <ele>657</ele>
        <time>2022-05-02T11:52:42Z</time>
      </trkpt>
      <trkpt lat="45.41762" lon="5.49019">
        <ele>656</ele>
        <time>2022-05-02T11:52:45Z</time>
      </trkpt>
      <trkpt lat="45.41776" lon="5.48993">
        <ele>656</ele>
        <time>2022-05-02T11:52:51Z</time>
      </trkpt>
      <trkpt lat="45.41795" lon="5.48967">
        <ele>655</ele>
        <time>2022-05-02T11:52:57Z</time>
      </trkpt>
      <trkpt lat="45.4183" lon="5.48951">
        <ele>653</ele>
        <time>2022-05-02T11:53:06Z</time>
      </trkpt>
      <trkpt lat="45.41855" lon="5.48944">
        <ele>649</ele>
        <time>2022-05-02T11:53:11Z</time>
      </trkpt>
      <trkpt lat="45.41883" lon="5.48943">
        <ele>644</ele>
        <time>2022-05-02T11:53:18Z</time>
      </trkpt>
      <trkpt lat="45.41898" lon="5.48937">
        <ele>642</ele>
        <time>2022-05-02T11:53:22Z</time>
      </trkpt>
      <trkpt lat="45.41905" lon="5.48926">
        <ele>641</ele>
        <time>2022-05-02T11:53:24Z</time>
      </trkpt>
      <trkpt lat="45.41917" lon="5.48876">
        <ele>643</ele>
        <time>2022-05-02T11:53:33Z</time>
      </trkpt>
      <trkpt lat="45.41915" lon="5.48789">
        <ele>644</ele>
        <time>2022-05-02T11:53:47Z</time>
      </trkpt>
      <trkpt lat="45.41924" lon="5.4874">
        <ele>643</ele>
        <time>2022-05-02T11:53:55Z</time>
      </trkpt>
      <trkpt lat="45.41971" lon="5.48648">
        <ele>639</ele>
        <time>2022-05-02T11:54:14Z</time>
      </trkpt>
      <trkpt lat="45.41996" lon="5.48564">
        <ele>634</ele>
        <time>2022-05-02T11:54:29Z</time>
      </trkpt>
      <trkpt lat="45.42004" lon="5.48524">
        <ele>632</ele>
        <time>2022-05-02T11:54:36Z</time>
      </trkpt>
      <trkpt lat="45.42007" lon="5.48426">
        <ele>630</ele>
        <time>2022-05-02T11:54:52Z</time>
      </trkpt>
      <trkpt lat="45.42033" lon="5.48341">
        <ele>624</ele>
        <time>2022-05-02T11:55:07Z</time>
      </trkpt>
      <trkpt lat="45.42045" lon="5.48283">
        <ele>620</ele>
        <time>2022-05-02T11:55:17Z</time>
      </trkpt>
      <trkpt lat="45.42059" lon="5.48231">
        <ele>615</ele>
        <time>2022-05-02T11:55:26Z</time>
      </trkpt>
      <trkpt lat="45.4206" lon="5.48159">
        <ele>606</ele>
        <time>2022-05-02T11:55:38Z</time>
      </trkpt>
      <trkpt lat="45.42068" lon="5.48081">
        <ele>599</ele>
        <time>2022-05-02T11:55:51Z</time>
      </trkpt>
      <trkpt lat="45.42074" lon="5.48051">
        <ele>596</ele>
        <time>2022-05-02T11:55:56Z</time>
      </trkpt>
      <trkpt lat="45.42087" lon="5.48024">
        <ele>594</ele>
        <time>2022-05-02T11:56:01Z</time>
      </trkpt>
      <trkpt lat="45.42161" lon="5.47923">
        <ele>580</ele>
        <time>2022-05-02T11:56:25Z</time>
      </trkpt>
      <trkpt lat="45.42222" lon="5.47874">
        <ele>571</ele>
        <time>2022-05-02T11:56:42Z</time>
      </trkpt>
      <trkpt lat="45.4228" lon="5.47834">
        <ele>567</ele>
        <time>2022-05-02T11:56:57Z</time>
      </trkpt>
      <trkpt lat="45.42198" lon="5.47267">
        <ele>551</ele>
        <time>2022-05-02T11:58:31Z</time>
      </trkpt>
      <trkpt lat="45.42189" lon="5.47218">
        <ele>550</ele>
        <time>2022-05-02T11:58:40Z</time>
      </trkpt>
      <trkpt lat="45.42163" lon="5.47128">
        <ele>548</ele>
        <time>2022-05-02T11:58:56Z</time>
      </trkpt>
      <trkpt lat="45.42125" lon="5.47034">
        <ele>546</ele>
        <time>2022-05-02T11:59:14Z</time>
      </trkpt>
      <trkpt lat="45.4216" lon="5.47007">
        <ele>544</ele>
        <time>2022-05-02T11:59:23Z</time>
      </trkpt>
      <trkpt lat="45.42198" lon="5.46971">
        <ele>544</ele>
        <time>2022-05-02T11:59:33Z</time>
      </trkpt>
      <trkpt lat="45.42195" lon="5.46954">
        <ele>544</ele>
        <time>2022-05-02T11:59:36Z</time>
      </trkpt>
      <trkpt lat="45.42181" lon="5.46913">
        <ele>543</ele>
        <time>2022-05-02T11:59:44Z</time>
      </trkpt>
      <trkpt lat="45.42186" lon="5.46895">
        <ele>543</ele>
        <time>2022-05-02T11:59:47Z</time>
      </trkpt>
      <trkpt lat="45.42207" lon="5.46877">
        <ele>544</ele>
        <time>2022-05-02T11:59:53Z</time>
      </trkpt>
      <trkpt lat="45.42219" lon="5.46858">
        <ele>543</ele>
        <time>2022-05-02T11:59:57Z</time>
      </trkpt>
      <trkpt lat="45.42214" lon="5.46831">
        <ele>542</ele>
        <time>2022-05-02T12:00:01Z</time>
      </trkpt>
      <trkpt lat="45.42186" lon="5.46739">
        <ele>538</ele>
        <time>2022-05-02T12:00:18Z</time>
      </trkpt>
      <trkpt lat="45.423" lon="5.46659">
        <ele>544</ele>
        <time>2022-05-02T12:00:48Z</time>
      </trkpt>
      <trkpt lat="45.42301" lon="5.46644">
        <ele>544</ele>
        <time>2022-05-02T12:00:50Z</time>
      </trkpt>
      <trkpt lat="45.42298" lon="5.46623">
        <ele>544</ele>
        <time>2022-05-02T12:00:54Z</time>
      </trkpt>
      <trkpt lat="45.42288" lon="5.46609">
        <ele>544</ele>
        <time>2022-05-02T12:00:57Z</time>
      </trkpt>
      <trkpt lat="45.42274" lon="5.46579">
        <ele>543</ele>
        <time>2022-05-02T12:01:03Z</time>
      </trkpt>
      <trkpt lat="45.42269" lon="5.46557">
        <ele>543</ele>
        <time>2022-05-02T12:01:07Z</time>
      </trkpt>
      <trkpt lat="45.42244" lon="5.46499">
        <ele>542</ele>
        <time>2022-05-02T12:01:18Z</time>
      </trkpt>
      <trkpt lat="45.42247" lon="5.4649">
        <ele>543</ele>
        <time>2022-05-02T12:01:19Z</time>
      </trkpt>
      <trkpt lat="45.42375" lon="5.46411">
        <ele>547</ele>
        <time>2022-05-02T12:01:52Z</time>
      </trkpt>
      <trkpt lat="45.42388" lon="5.46398">
        <ele>547</ele>
        <time>2022-05-02T12:01:56Z</time>
      </trkpt>
      <trkpt lat="45.424" lon="5.46379">
        <ele>547</ele>
        <time>2022-05-02T12:02:00Z</time>
      </trkpt>
      <trkpt lat="45.42409" lon="5.46376">
        <ele>548</ele>
        <time>2022-05-02T12:02:02Z</time>
      </trkpt>
      <trkpt lat="45.4244" lon="5.4641">
        <ele>550</ele>
        <time>2022-05-02T12:02:11Z</time>
      </trkpt>
      <trkpt lat="45.42464" lon="5.46431">
        <ele>551</ele>
        <time>2022-05-02T12:02:18Z</time>
      </trkpt>
      <trkpt lat="45.42483" lon="5.46443">
        <ele>552</ele>
        <time>2022-05-02T12:02:23Z</time>
      </trkpt>
      <trkpt lat="45.425" lon="5.46448">
        <ele>553</ele>
        <time>2022-05-02T12:02:27Z</time>
      </trkpt>
      <trkpt lat="45.4253" lon="5.46428">
        <ele>554</ele>
        <time>2022-05-02T12:02:34Z</time>
      </trkpt>
      <trkpt lat="45.42539" lon="5.46436">
        <ele>554</ele>
        <time>2022-05-02T12:02:37Z</time>
      </trkpt>
      <trkpt lat="45.42615" lon="5.46424">
        <ele>556</ele>
        <time>2022-05-02T12:02:55Z</time>
      </trkpt>
      <trkpt lat="45.42621" lon="5.46364">
        <ele>556</ele>
        <time>2022-05-02T12:03:05Z</time>
      </trkpt>
      <trkpt lat="45.42642" lon="5.46259">
        <ele>556</ele>
        <time>2022-05-02T12:03:22Z</time>
      </trkpt>
      <trkpt lat="45.42656" lon="5.46154">
        <ele>556</ele>
        <time>2022-05-02T12:03:40Z</time>
      </trkpt>
      <trkpt lat="45.42659" lon="5.46065">
        <ele>558</ele>
        <time>2022-05-02T12:03:55Z</time>
      </trkpt>
      <trkpt lat="45.42667" lon="5.46066">
        <ele>558</ele>
        <time>2022-05-02T12:03:56Z</time>
      </trkpt>
      <trkpt lat="45.42686" lon="5.46077">
        <ele>558</ele>
        <time>2022-05-02T12:04:01Z</time>
      </trkpt>
      <trkpt lat="45.42696" lon="5.46079">
        <ele>558</ele>
        <time>2022-05-02T12:04:04Z</time>
      </trkpt>
      <trkpt lat="45.42705" lon="5.46074">
        <ele>559</ele>
        <time>2022-05-02T12:04:06Z</time>
      </trkpt>
      <trkpt lat="45.42743" lon="5.46029">
        <ele>560</ele>
        <time>2022-05-02T12:04:17Z</time>
      </trkpt>
      <trkpt lat="45.42762" lon="5.46002">
        <ele>561</ele>
        <time>2022-05-02T12:04:24Z</time>
      </trkpt>
      <trkpt lat="45.42783" lon="5.45935">
        <ele>561</ele>
        <time>2022-05-02T12:04:36Z</time>
      </trkpt>
      <trkpt lat="45.4285" lon="5.45769">
        <ele>565</ele>
        <time>2022-05-02T12:05:07Z</time>
      </trkpt>
      <trkpt lat="45.42883" lon="5.45596">
        <ele>571</ele>
        <time>2022-05-02T12:05:36Z</time>
      </trkpt>
      <trkpt lat="45.42889" lon="5.45584">
        <ele>571</ele>
        <time>2022-05-02T12:05:39Z</time>
      </trkpt>
      <trkpt lat="45.42912" lon="5.4558">
        <ele>571</ele>
        <time>2022-05-02T12:05:44Z</time>
      </trkpt>
      <trkpt lat="45.43003" lon="5.45613">
        <ele>575</ele>
        <time>2022-05-02T12:06:06Z</time>
      </trkpt>
      <trkpt lat="45.4312" lon="5.45666">
        <ele>581</ele>
        <time>2022-05-02T12:06:35Z</time>
      </trkpt>
      <trkpt lat="45.43162" lon="5.45674">
        <ele>581</ele>
        <time>2022-05-02T12:06:45Z</time>
      </trkpt>
      <trkpt lat="45.43226" lon="5.45698">
        <ele>581</ele>
        <time>2022-05-02T12:07:00Z</time>
      </trkpt>
      <trkpt lat="45.43235" lon="5.45725">
        <ele>582</ele>
        <time>2022-05-02T12:07:05Z</time>
      </trkpt>
      <trkpt lat="45.43234" lon="5.45819">
        <ele>580</ele>
        <time>2022-05-02T12:07:21Z</time>
      </trkpt>
      <trkpt lat="45.43243" lon="5.45916">
        <ele>580</ele>
        <time>2022-05-02T12:07:37Z</time>
      </trkpt>
      <trkpt lat="45.43251" lon="5.45948">
        <ele>582</ele>
        <time>2022-05-02T12:07:42Z</time>
      </trkpt>
      <trkpt lat="45.43261" lon="5.45966">
        <ele>584</ele>
        <time>2022-05-02T12:07:46Z</time>
      </trkpt>
      <trkpt lat="45.43295" lon="5.45994">
        <ele>592</ele>
        <time>2022-05-02T12:07:55Z</time>
      </trkpt>
      <trkpt lat="45.43264" lon="5.46078">
        <ele>591</ele>
        <time>2022-05-02T12:08:11Z</time>
      </trkpt>
      <trkpt lat="45.43218" lon="5.46132">
        <ele>587</ele>
        <time>2022-05-02T12:08:25Z</time>
      </trkpt>
      <trkpt lat="45.43176" lon="5.46176">
        <ele>583</ele>
        <time>2022-05-02T12:08:37Z</time>
      </trkpt>
      <trkpt lat="45.43157" lon="5.46238">
        <ele>581</ele>
        <time>2022-05-02T12:08:48Z</time>
      </trkpt>
      <trkpt lat="45.43143" lon="5.46277">
        <ele>582</ele>
        <time>2022-05-02T12:08:55Z</time>
      </trkpt>
      <trkpt lat="45.4313" lon="5.46303">
        <ele>580</ele>
        <time>2022-05-02T12:09:00Z</time>
      </trkpt>
      <trkpt lat="45.43117" lon="5.46347">
        <ele>578</ele>
        <time>2022-05-02T12:09:08Z</time>
      </trkpt>
      <trkpt lat="45.43104" lon="5.46454">
        <ele>580</ele>
        <time>2022-05-02T12:09:26Z</time>
      </trkpt>
      <trkpt lat="45.43099" lon="5.46477">
        <ele>579</ele>
        <time>2022-05-02T12:09:30Z</time>
      </trkpt>
      <trkpt lat="45.43122" lon="5.46558">
        <ele>579</ele>
        <time>2022-05-02T12:09:44Z</time>
      </trkpt>
      <trkpt lat="45.43144" lon="5.46613">
        <ele>582</ele>
        <time>2022-05-02T12:09:54Z</time>
      </trkpt>
      <trkpt lat="45.43208" lon="5.46729">
        <ele>584</ele>
        <time>2022-05-02T12:10:19Z</time>
      </trkpt>
      <trkpt lat="45.43218" lon="5.4675">
        <ele>584</ele>
        <time>2022-05-02T12:10:23Z</time>
      </trkpt>
      <trkpt lat="45.43238" lon="5.46806">
        <ele>585</ele>
        <time>2022-05-02T12:10:33Z</time>
      </trkpt>
      <trkpt lat="45.43253" lon="5.4689">
        <ele>586</ele>
        <time>2022-05-02T12:10:47Z</time>
      </trkpt>
      <trkpt lat="45.43273" lon="5.4695">
        <ele>589</ele>
        <time>2022-05-02T12:10:58Z</time>
      </trkpt>
      <trkpt lat="45.43285" lon="5.47008">
        <ele>591</ele>
        <time>2022-05-02T12:10:59Z</time>
      </trkpt>
      <trkpt lat="45.43292" lon="5.47121">
        <ele>582</ele>
        <time>2022-05-02T12:11:27Z</time>
      </trkpt>
      <trkpt lat="45.43298" lon="5.47153">
        <ele>579</ele>
        <time>2022-05-02T12:11:32Z</time>
      </trkpt>
      <trkpt lat="45.43313" lon="5.47177">
        <ele>577</ele>
        <time>2022-05-02T12:11:38Z</time>
      </trkpt>
      <trkpt lat="45.43359" lon="5.47223">
        <ele>577</ele>
        <time>2022-05-02T12:11:51Z</time>
      </trkpt>
      <trkpt lat="45.43396" lon="5.47315">
        <ele>575</ele>
        <time>2022-05-02T12:11:56Z</time>
      </trkpt>
      <trkpt lat="45.43405" lon="5.47324">
        <ele>575</ele>
        <time>2022-05-05T11:13:56Z</time>
      </trkpt>
      <trkpt lat="45.43424" lon="5.47342">
        <ele>576</ele>
        <time>2022-05-05T11:14:02Z</time>
      </trkpt>
      <trkpt lat="45.43447" lon="5.47367">
        <ele>578</ele>
        <time>2022-05-05T11:14:08Z</time>
      </trkpt>
      <trkpt lat="45.43466" lon="5.47394">
        <ele>578</ele>
        <time>2022-05-05T11:14:15Z</time>
      </trkpt>
      <trkpt lat="45.43479" lon="5.47413">
        <ele>578</ele>
        <time>2022-05-05T11:14:19Z</time>
      </trkpt>
      <trkpt lat="45.43507" lon="5.47464">
        <ele>580</ele>
        <time>2022-05-05T11:14:30Z</time>
      </trkpt>
      <trkpt lat="45.43519" lon="5.47477">
        <ele>583</ele>
        <time>2022-05-05T11:14:33Z</time>
      </trkpt>
      <trkpt lat="45.43532" lon="5.47486">
        <ele>586</ele>
        <time>2022-05-05T11:14:37Z</time>
      </trkpt>
      <trkpt lat="45.43562" lon="5.47504">
        <ele>589</ele>
        <time>2022-05-05T11:14:44Z</time>
      </trkpt>
      <trkpt lat="45.43598" lon="5.47522">
        <ele>590</ele>
        <time>2022-05-05T11:14:53Z</time>
      </trkpt>
      <trkpt lat="45.43661" lon="5.47549">
        <ele>589</ele>
        <time>2022-05-05T11:15:08Z</time>
      </trkpt>
      <trkpt lat="45.43676" lon="5.47556">
        <ele>589</ele>
        <time>2022-05-05T11:15:12Z</time>
      </trkpt>
      <trkpt lat="45.43731" lon="5.47587">
        <ele>589</ele>
        <time>2022-05-05T11:15:26Z</time>
      </trkpt>
      <trkpt lat="45.43756" lon="5.47602">
        <ele>589</ele>
        <time>2022-05-05T11:15:32Z</time>
      </trkpt>
      <trkpt lat="45.4379" lon="5.47617">
        <ele>590</ele>
        <time>2022-05-05T11:15:41Z</time>
      </trkpt>
      <trkpt lat="45.43813" lon="5.47626">
        <ele>591</ele>
        <time>2022-05-05T11:15:46Z</time>
      </trkpt>
      <trkpt lat="45.43837" lon="5.47636">
        <ele>592</ele>
        <time>2022-05-05T11:15:52Z</time>
      </trkpt>
      <trkpt lat="45.43862" lon="5.47643">
        <ele>593</ele>
        <time>2022-05-05T11:15:58Z</time>
      </trkpt>
      <trkpt lat="45.43893" lon="5.47653">
        <ele>594</ele>
        <time>2022-05-05T11:16:05Z</time>
      </trkpt>
      <trkpt lat="45.43921" lon="5.47659">
        <ele>597</ele>
        <time>2022-05-05T11:16:12Z</time>
      </trkpt>
      <trkpt lat="45.43939" lon="5.47665">
        <ele>598</ele>
        <time>2022-05-05T11:16:16Z</time>
      </trkpt>
      <trkpt lat="45.43948" lon="5.47671">
        <ele>599</ele>
        <time>2022-05-05T11:16:19Z</time>
      </trkpt>
      <trkpt lat="45.43962" lon="5.47679">
        <ele>601</ele>
        <time>2022-05-05T11:16:22Z</time>
      </trkpt>
      <trkpt lat="45.43979" lon="5.47693">
        <ele>603</ele>
        <time>2022-05-05T11:16:27Z</time>
      </trkpt>
      <trkpt lat="45.43999" lon="5.47698">
        <ele>606.404968</ele>
        <time>2022-05-05T11:16:32Z</time>
      </trkpt>
      <trkpt lat="45.44024" lon="5.47703">
        <ele>610.286316</ele>
        <time>2022-05-05T11:16:40Z</time>
      </trkpt>
      <trkpt lat="45.44046" lon="5.47713">
        <ele>612.237915</ele>
        <time>2022-05-05T11:16:45Z</time>
      </trkpt>
      <trkpt lat="45.44075" lon="5.47725">
        <ele>614.576294</ele>
        <time>2022-05-05T11:16:49Z</time>
      </trkpt>
      <trkpt lat="45.44104" lon="5.47753">
        <ele>614</ele>
        <time>2022-05-05T11:16:58Z</time>
      </trkpt>
      <trkpt lat="45.44115" lon="5.47759">
        <ele>614.628723</ele>
        <time>2022-05-05T11:17:03Z</time>
      </trkpt>
      <trkpt lat="45.44126" lon="5.47765">
        <ele>615</ele>
        <time>2022-05-05T11:17:05Z</time>
      </trkpt>
      <trkpt lat="45.44131" lon="5.47783">
        <ele>613</ele>
        <time>2022-05-05T11:17:08Z</time>
      </trkpt>
      <trkpt lat="45.44139" lon="5.47799">
        <ele>611</ele>
        <time>2022-05-05T11:17:11Z</time>
      </trkpt>
      <trkpt lat="45.44149" lon="5.47813">
        <ele>610</ele>
        <time>2022-05-05T11:17:14Z</time>
      </trkpt>
      <trkpt lat="45.44162" lon="5.47826">
        <ele>610</ele>
        <time>2022-05-05T11:17:18Z</time>
      </trkpt>
      <trkpt lat="45.44179" lon="5.47838">
        <ele>609</ele>
        <time>2022-05-05T11:17:23Z</time>
      </trkpt>
      <trkpt lat="45.44197" lon="5.47838">
        <ele>611</ele>
        <time>2022-05-05T11:17:27Z</time>
      </trkpt>
      <trkpt lat="45.44218" lon="5.47838">
        <ele>613</ele>
        <time>2022-05-05T11:17:32Z</time>
      </trkpt>
      <trkpt lat="45.4423" lon="5.47848">
        <ele>612</ele>
        <time>2022-05-05T11:17:35Z</time>
      </trkpt>
      <trkpt lat="45.44238" lon="5.47853">
        <ele>611</ele>
        <time>2022-05-05T11:17:37Z</time>
      </trkpt>
      <trkpt lat="45.44251" lon="5.4787">
        <ele>609</ele>
        <time>2022-05-05T11:17:41Z</time>
      </trkpt>
      <trkpt lat="45.44264" lon="5.47895">
        <ele>604</ele>
        <time>2022-05-05T11:17:46Z</time>
      </trkpt>
      <trkpt lat="45.44271" lon="5.47905">
        <ele>603</ele>
        <time>2022-05-05T11:17:49Z</time>
      </trkpt>
      <trkpt lat="45.44295" lon="5.47921">
        <ele>602</ele>
        <time>2022-05-05T11:17:55Z</time>
      </trkpt>
      <trkpt lat="45.44322" lon="5.47935">
        <ele>602</ele>
        <time>2022-05-05T11:18:01Z</time>
      </trkpt>
      <trkpt lat="45.44341" lon="5.47964">
        <ele>599.107483</ele>
        <time>2022-05-05T11:18:05Z</time>
      </trkpt>
      <trkpt lat="45.44367" lon="5.47991">
        <ele>597.70752</ele>
        <time>2022-05-05T11:18:08Z</time>
      </trkpt>
      <trkpt lat="45.44388" lon="5.4803">
        <ele>594.717285</ele>
        <time>2022-05-05T11:18:10Z</time>
      </trkpt>
      <trkpt lat="45.4441" lon="5.48073">
        <ele>591.639526</ele>
        <time>2022-05-05T11:18:10Z</time>
      </trkpt>
      <trkpt lat="45.44442" lon="5.48135">
        <ele>589</ele>
        <time>2022-05-05T11:18:45Z</time>
      </trkpt>
      <trkpt lat="45.4435" lon="5.48106">
        <ele>584</ele>
        <time>2022-05-05T11:19:07Z</time>
      </trkpt>
      <trkpt lat="45.44322" lon="5.48097">
        <ele>583</ele>
        <time>2022-05-05T11:19:14Z</time>
      </trkpt>
      <trkpt lat="45.44276" lon="5.48081">
        <ele>582</ele>
        <time>2022-05-05T11:19:25Z</time>
      </trkpt>
      <trkpt lat="45.44251" lon="5.48075">
        <ele>581</ele>
        <time>2022-05-05T11:19:31Z</time>
      </trkpt>
      <trkpt lat="45.44212" lon="5.48074">
        <ele>581</ele>
        <time>2022-05-05T11:19:40Z</time>
      </trkpt>
      <trkpt lat="45.44182" lon="5.48075">
        <ele>580</ele>
        <time>2022-05-05T11:19:47Z</time>
      </trkpt>
      <trkpt lat="45.44158" lon="5.48076">
        <ele>580</ele>
        <time>2022-05-05T11:19:53Z</time>
      </trkpt>
      <trkpt lat="45.44062" lon="5.48083">
        <ele>576</ele>
        <time>2022-05-05T11:20:15Z</time>
      </trkpt>
      <trkpt lat="45.44032" lon="5.48089">
        <ele>576</ele>
        <time>2022-05-05T11:20:22Z</time>
      </trkpt>
      <trkpt lat="45.44035" lon="5.48105">
        <ele>577</ele>
        <time>2022-05-05T11:20:25Z</time>
      </trkpt>
      <trkpt lat="45.44037" lon="5.48123">
        <ele>577</ele>
        <time>2022-05-05T11:20:28Z</time>
      </trkpt>
      <trkpt lat="45.44039" lon="5.48148">
        <ele>578</ele>
        <time>2022-05-05T11:20:32Z</time>
      </trkpt>
      <trkpt lat="45.44049" lon="5.48238">
        <ele>578</ele>
        <time>2022-05-05T11:20:47Z</time>
      </trkpt>
      <trkpt lat="45.44055" lon="5.48303">
        <ele>578</ele>
        <time>2022-05-05T11:20:58Z</time>
      </trkpt>
      <trkpt lat="45.44056" lon="5.48326">
        <ele>578</ele>
        <time>2022-05-05T11:21:01Z</time>
      </trkpt>
      <trkpt lat="45.44057" lon="5.48339">
        <ele>578</ele>
        <time>2022-05-05T11:21:04Z</time>
      </trkpt>
      <trkpt lat="45.44056" lon="5.48367">
        <ele>578</ele>
        <time>2022-05-05T11:21:08Z</time>
      </trkpt>
      <trkpt lat="45.44056" lon="5.48388">
        <ele>578</ele>
        <time>2022-05-05T11:21:12Z</time>
      </trkpt>
      <trkpt lat="45.44053" lon="5.48401">
        <ele>578</ele>
        <time>2022-05-05T11:21:14Z</time>
      </trkpt>
      <trkpt lat="45.44051" lon="5.48412">
        <ele>577</ele>
        <time>2022-05-05T11:21:16Z</time>
      </trkpt>
      <trkpt lat="45.4406" lon="5.48426">
        <ele>576</ele>
        <time>2022-05-05T11:21:19Z</time>
      </trkpt>
      <trkpt lat="45.44083" lon="5.48463">
        <ele>575</ele>
        <time>2022-05-05T11:21:27Z</time>
      </trkpt>
      <trkpt lat="45.44098" lon="5.48485">
        <ele>575</ele>
        <time>2022-05-05T11:21:32Z</time>
      </trkpt>
      <trkpt lat="45.44116" lon="5.48508">
        <ele>574</ele>
        <time>2022-05-05T11:21:38Z</time>
      </trkpt>
      <trkpt lat="45.44145" lon="5.48542">
        <ele>573</ele>
        <time>2022-05-05T11:21:46Z</time>
      </trkpt>
      <trkpt lat="45.44161" lon="5.4856">
        <ele>572</ele>
        <time>2022-05-05T11:21:51Z</time>
      </trkpt>
      <trkpt lat="45.4419" lon="5.48587">
        <ele>571</ele>
        <time>2022-05-05T11:21:59Z</time>
      </trkpt>
      <trkpt lat="45.44226" lon="5.48619">
        <ele>569</ele>
        <time>2022-05-05T11:22:09Z</time>
      </trkpt>
      <trkpt lat="45.4424" lon="5.48633">
        <ele>567</ele>
        <time>2022-05-05T11:22:13Z</time>
      </trkpt>
      <trkpt lat="45.44256" lon="5.48656">
        <ele>565</ele>
        <time>2022-05-05T11:22:18Z</time>
      </trkpt>
      <trkpt lat="45.44268" lon="5.48677">
        <ele>564</ele>
        <time>2022-05-05T11:22:23Z</time>
      </trkpt>
      <trkpt lat="45.44279" lon="5.48693">
        <ele>564</ele>
        <time>2022-05-05T11:22:27Z</time>
      </trkpt>
      <trkpt lat="45.44306" lon="5.48722">
        <ele>563</ele>
        <time>2022-05-05T11:22:34Z</time>
      </trkpt>
      <trkpt lat="45.44338" lon="5.4875">
        <ele>562</ele>
        <time>2022-05-05T11:22:43Z</time>
      </trkpt>
      <trkpt lat="45.44357" lon="5.48764">
        <ele>561</ele>
        <time>2022-05-05T11:22:48Z</time>
      </trkpt>
      <trkpt lat="45.44366" lon="5.48773">
        <ele>560</ele>
        <time>2022-05-05T11:22:51Z</time>
      </trkpt>
      <trkpt lat="45.44376" lon="5.48786">
        <ele>560</ele>
        <time>2022-05-05T11:22:54Z</time>
      </trkpt>
      <trkpt lat="45.44385" lon="5.48798">
        <ele>560</ele>
        <time>2022-05-05T11:22:57Z</time>
      </trkpt>
      <trkpt lat="45.44395" lon="5.48827">
        <ele>560.196167</ele>
        <time>2022-05-05T11:23:04Z</time>
      </trkpt>
      <trkpt lat="45.44404" lon="5.48821">
        <ele>559.630859</ele>
        <time>2022-05-05T10:52:21Z</time>
      </trkpt>
      <trkpt lat="45.44406" lon="5.48792">
        <ele>559</ele>
        <time>2022-05-05T10:52:28Z</time>
      </trkpt>
      <trkpt lat="45.44406" lon="5.48765">
        <ele>558</ele>
        <time>2022-05-05T10:52:32Z</time>
      </trkpt>
      <trkpt lat="45.44403" lon="5.48715">
        <ele>558</ele>
        <time>2022-05-05T10:52:40Z</time>
      </trkpt>
      <trkpt lat="45.44399" lon="5.4867">
        <ele>557</ele>
        <time>2022-05-05T10:52:48Z</time>
      </trkpt>
      <trkpt lat="45.44395" lon="5.48636">
        <ele>557</ele>
        <time>2022-05-05T10:52:53Z</time>
      </trkpt>
      <trkpt lat="45.44391" lon="5.486">
        <ele>557</ele>
        <time>2022-05-05T10:52:59Z</time>
      </trkpt>
      <trkpt lat="45.44388" lon="5.48566">
        <ele>558</ele>
        <time>2022-05-05T10:53:05Z</time>
      </trkpt>
      <trkpt lat="45.44385" lon="5.48532">
        <ele>559</ele>
        <time>2022-05-05T10:53:11Z</time>
      </trkpt>
      <trkpt lat="45.44383" lon="5.48497">
        <ele>561</ele>
        <time>2022-05-05T10:53:16Z</time>
      </trkpt>
      <trkpt lat="45.44382" lon="5.4846">
        <ele>563</ele>
        <time>2022-05-05T10:53:22Z</time>
      </trkpt>
      <trkpt lat="45.44382" lon="5.48367">
        <ele>567</ele>
        <time>2022-05-05T10:53:38Z</time>
      </trkpt>
      <trkpt lat="45.44384" lon="5.48312">
        <ele>571</ele>
        <time>2022-05-05T10:53:47Z</time>
      </trkpt>
      <trkpt lat="45.44388" lon="5.4828">
        <ele>575</ele>
        <time>2022-05-05T10:53:52Z</time>
      </trkpt>
      <trkpt lat="45.44392" lon="5.48264">
        <ele>577</ele>
        <time>2022-05-05T10:53:55Z</time>
      </trkpt>
      <trkpt lat="45.44404" lon="5.48239">
        <ele>581</ele>
        <time>2022-05-05T10:54:00Z</time>
      </trkpt>
      <trkpt lat="45.44425" lon="5.48216">
        <ele>585</ele>
        <time>2022-05-05T10:54:06Z</time>
      </trkpt>
      <trkpt lat="45.44478" lon="5.4818">
        <ele>591</ele>
        <time>2022-05-05T10:54:20Z</time>
      </trkpt>
      <trkpt lat="45.44507" lon="5.4816">
        <ele>595</ele>
        <time>2022-05-05T10:54:27Z</time>
      </trkpt>
      <trkpt lat="45.44523" lon="5.48153">
        <ele>596</ele>
        <time>2022-05-05T10:54:31Z</time>
      </trkpt>
      <trkpt lat="45.44549" lon="5.48153">
        <ele>599</ele>
        <time>2022-05-05T10:54:37Z</time>
      </trkpt>
      <trkpt lat="45.44573" lon="5.48159">
        <ele>601</ele>
        <time>2022-05-05T10:54:43Z</time>
      </trkpt>
      <trkpt lat="45.44582" lon="5.48166">
        <ele>602</ele>
        <time>2022-05-05T10:54:45Z</time>
      </trkpt>
      <trkpt lat="45.44593" lon="5.48181">
        <ele>604</ele>
        <time>2022-05-05T10:54:49Z</time>
      </trkpt>
      <trkpt lat="45.44606" lon="5.48196">
        <ele>607</ele>
        <time>2022-05-05T10:54:53Z</time>
      </trkpt>
      <trkpt lat="45.44627" lon="5.48198">
        <ele>611</ele>
        <time>2022-05-05T10:54:58Z</time>
      </trkpt>
      <trkpt lat="45.44659" lon="5.48197">
        <ele>618</ele>
        <time>2022-05-05T10:55:05Z</time>
      </trkpt>
      <trkpt lat="45.44704" lon="5.48186">
        <ele>626</ele>
        <time>2022-05-05T10:55:16Z</time>
      </trkpt>
      <trkpt lat="45.44725" lon="5.48173">
        <ele>627</ele>
        <time>2022-05-05T10:55:21Z</time>
      </trkpt>
      <trkpt lat="45.44738" lon="5.48167">
        <ele>627</ele>
        <time>2022-05-05T10:55:24Z</time>
      </trkpt>
      <trkpt lat="45.44758" lon="5.48172">
        <ele>626</ele>
        <time>2022-05-05T10:55:29Z</time>
      </trkpt>
      <trkpt lat="45.4477" lon="5.48182">
        <ele>626</ele>
        <time>2022-05-05T10:55:32Z</time>
      </trkpt>
      <trkpt lat="45.44793" lon="5.48206">
        <ele>632</ele>
        <time>2022-05-05T10:55:39Z</time>
      </trkpt>
      <trkpt lat="45.44808" lon="5.48222">
        <ele>636</ele>
        <time>2022-05-05T10:55:43Z</time>
      </trkpt>
      <trkpt lat="45.44816" lon="5.48226">
        <ele>637</ele>
        <time>2022-05-05T10:55:45Z</time>
      </trkpt>
      <trkpt lat="45.44862" lon="5.48243">
        <ele>642</ele>
        <time>2022-05-05T10:55:56Z</time>
      </trkpt>
      <trkpt lat="45.44881" lon="5.48248">
        <ele>644</ele>
        <time>2022-05-05T10:56:01Z</time>
      </trkpt>
      <trkpt lat="45.44898" lon="5.48255">
        <ele>646</ele>
        <time>2022-05-05T10:56:05Z</time>
      </trkpt>
      <trkpt lat="45.44929" lon="5.48271">
        <ele>651</ele>
        <time>2022-05-05T10:56:13Z</time>
      </trkpt>
      <trkpt lat="45.44945" lon="5.48275">
        <ele>652</ele>
        <time>2022-05-05T10:56:16Z</time>
      </trkpt>
      <trkpt lat="45.45011" lon="5.48275">
        <ele>659</ele>
        <time>2022-05-05T10:56:32Z</time>
      </trkpt>
      <trkpt lat="45.45036" lon="5.48272">
        <ele>661</ele>
        <time>2022-05-05T10:56:38Z</time>
      </trkpt>
      <trkpt lat="45.45054" lon="5.48262">
        <ele>661</ele>
        <time>2022-05-05T10:56:42Z</time>
      </trkpt>
      <trkpt lat="45.45075" lon="5.48249">
        <ele>662</ele>
        <time>2022-05-05T10:56:48Z</time>
      </trkpt>
      <trkpt lat="45.45106" lon="5.48238">
        <ele>666</ele>
        <time>2022-05-05T10:56:55Z</time>
      </trkpt>
      <trkpt lat="45.45126" lon="5.48237">
        <ele>669</ele>
        <time>2022-05-05T10:57:00Z</time>
      </trkpt>
      <trkpt lat="45.45161" lon="5.4824">
        <ele>674</ele>
        <time>2022-05-05T10:57:08Z</time>
      </trkpt>
      <trkpt lat="45.45205" lon="5.48249">
        <ele>680</ele>
        <time>2022-05-05T10:57:18Z</time>
      </trkpt>
      <trkpt lat="45.45245" lon="5.48257">
        <ele>685</ele>
        <time>2022-05-05T10:57:28Z</time>
      </trkpt>
      <trkpt lat="45.45276" lon="5.4826">
        <ele>688</ele>
        <time>2022-05-05T10:57:35Z</time>
      </trkpt>
      <trkpt lat="45.45306" lon="5.48259">
        <ele>690</ele>
        <time>2022-05-05T10:57:42Z</time>
      </trkpt>
      <trkpt lat="45.45325" lon="5.4826">
        <ele>692</ele>
        <time>2022-05-05T10:57:46Z</time>
      </trkpt>
      <trkpt lat="45.45342" lon="5.48257">
        <ele>692</ele>
        <time>2022-05-05T10:57:50Z</time>
      </trkpt>
      <trkpt lat="45.45364" lon="5.48244">
        <ele>691</ele>
        <time>2022-05-05T10:57:56Z</time>
      </trkpt>
      <trkpt lat="45.45383" lon="5.48224">
        <ele>688</ele>
        <time>2022-05-05T10:58:01Z</time>
      </trkpt>
      <trkpt lat="45.45404" lon="5.48192">
        <ele>686</ele>
        <time>2022-05-05T10:58:09Z</time>
      </trkpt>
      <trkpt lat="45.45429" lon="5.4815">
        <ele>687</ele>
        <time>2022-05-05T10:58:18Z</time>
      </trkpt>
      <trkpt lat="45.45445" lon="5.48126">
        <ele>690</ele>
        <time>2022-05-05T10:58:23Z</time>
      </trkpt>
      <trkpt lat="45.45463" lon="5.48103">
        <ele>692</ele>
        <time>2022-05-05T10:58:29Z</time>
      </trkpt>
      <trkpt lat="45.45478" lon="5.48088">
        <ele>694</ele>
        <time>2022-05-05T10:58:33Z</time>
      </trkpt>
      <trkpt lat="45.45505" lon="5.48056">
        <ele>697</ele>
        <time>2022-05-05T10:58:41Z</time>
      </trkpt>
      <trkpt lat="45.45529" lon="5.48028">
        <ele>701</ele>
        <time>2022-05-05T10:58:48Z</time>
      </trkpt>
      <trkpt lat="45.45544" lon="5.48016">
        <ele>702</ele>
        <time>2022-05-05T10:58:52Z</time>
      </trkpt>
      <trkpt lat="45.45566" lon="5.48">
        <ele>705</ele>
        <time>2022-05-05T10:58:58Z</time>
      </trkpt>
      <trkpt lat="45.45582" lon="5.47988">
        <ele>706</ele>
        <time>2022-05-05T10:59:02Z</time>
      </trkpt>
      <trkpt lat="45.45624" lon="5.47968">
        <ele>708</ele>
        <time>2022-05-05T10:59:13Z</time>
      </trkpt>
      <trkpt lat="45.45633" lon="5.47966">
        <ele>710</ele>
        <time>2022-05-05T10:59:15Z</time>
      </trkpt>
      <trkpt lat="45.45656" lon="5.47963">
        <ele>712</ele>
        <time>2022-05-05T10:59:20Z</time>
      </trkpt>
      <trkpt lat="45.45682" lon="5.47957">
        <ele>713</ele>
        <time>2022-05-05T10:59:27Z</time>
      </trkpt>
      <trkpt lat="45.45717" lon="5.47954">
        <ele>714</ele>
        <time>2022-05-05T10:59:35Z</time>
      </trkpt>
      <trkpt lat="45.45751" lon="5.47954">
        <ele>715</ele>
        <time>2022-05-05T10:59:43Z</time>
      </trkpt>
      <trkpt lat="45.45778" lon="5.47957">
        <ele>715</ele>
        <time>2022-05-05T10:59:49Z</time>
      </trkpt>
      <trkpt lat="45.45798" lon="5.47956">
        <ele>716</ele>
        <time>2022-05-05T10:59:54Z</time>
      </trkpt>
      <trkpt lat="45.45823" lon="5.47947">
        <ele>715</ele>
        <time>2022-05-05T11:00:00Z</time>
      </trkpt>
      <trkpt lat="45.45829" lon="5.47947">
        <ele>715</ele>
        <time>2022-05-05T11:00:01Z</time>
      </trkpt>
      <trkpt lat="45.45856" lon="5.47921">
        <ele>712</ele>
        <time>2022-05-05T11:00:09Z</time>
      </trkpt>
      <trkpt lat="45.45866" lon="5.47912">
        <ele>710</ele>
        <time>2022-05-05T11:00:11Z</time>
      </trkpt>
      <trkpt lat="45.45877" lon="5.47911">
        <ele>709</ele>
        <time>2022-05-05T11:00:14Z</time>
      </trkpt>
      <trkpt lat="45.45894" lon="5.47913">
        <ele>707</ele>
        <time>2022-05-05T11:00:18Z</time>
      </trkpt>
      <trkpt lat="45.45922" lon="5.47925">
        <ele>705</ele>
        <time>2022-05-05T11:00:25Z</time>
      </trkpt>
      <trkpt lat="45.4594" lon="5.47932">
        <ele>703</ele>
        <time>2022-05-05T11:00:29Z</time>
      </trkpt>
      <trkpt lat="45.45936" lon="5.47925">
        <ele>703</ele>
        <time>2022-05-05T11:00:31Z</time>
      </trkpt>
      <trkpt lat="45.4593" lon="5.47916">
        <ele>703</ele>
        <time>2022-05-05T11:00:33Z</time>
      </trkpt>
      <trkpt lat="45.45922" lon="5.47907">
        <ele>703</ele>
        <time>2022-05-05T11:00:35Z</time>
      </trkpt>
      <trkpt lat="45.45907" lon="5.47885">
        <ele>702</ele>
        <time>2022-05-05T11:00:40Z</time>
      </trkpt>
      <trkpt lat="45.45882" lon="5.47847">
        <ele>701</ele>
        <time>2022-05-05T11:00:49Z</time>
      </trkpt>
      <trkpt lat="45.4587" lon="5.47832">
        <ele>701</ele>
        <time>2022-05-05T11:00:52Z</time>
      </trkpt>
      <trkpt lat="45.45852" lon="5.4781">
        <ele>700</ele>
        <time>2022-05-05T11:00:58Z</time>
      </trkpt>
      <trkpt lat="45.45783" lon="5.47714">
        <ele>700</ele>
        <time>2022-05-05T11:01:20Z</time>
      </trkpt>
      <trkpt lat="45.45763" lon="5.47685">
        <ele>699</ele>
        <time>2022-05-05T11:01:27Z</time>
      </trkpt>
      <trkpt lat="45.45752" lon="5.47673">
        <ele>699</ele>
        <time>2022-05-05T11:01:30Z</time>
      </trkpt>
      <trkpt lat="45.4574" lon="5.47663">
        <ele>699</ele>
        <time>2022-05-05T11:01:34Z</time>
      </trkpt>
      <trkpt lat="45.45725" lon="5.47656">
        <ele>700</ele>
        <time>2022-05-05T11:01:37Z</time>
      </trkpt>
      <trkpt lat="45.45703" lon="5.47649">
        <ele>700</ele>
        <time>2022-05-05T11:01:42Z</time>
      </trkpt>
      <trkpt lat="45.45657" lon="5.47639">
        <ele>700</ele>
        <time>2022-05-05T11:01:53Z</time>
      </trkpt>
      <trkpt lat="45.45586" lon="5.47633">
        <ele>702</ele>
        <time>2022-05-05T11:02:10Z</time>
      </trkpt>
      <trkpt lat="45.45578" lon="5.47631">
        <ele>703</ele>
        <time>2022-05-05T11:02:12Z</time>
      </trkpt>
      <trkpt lat="45.45567" lon="5.47625">
        <ele>703</ele>
        <time>2022-05-05T11:02:15Z</time>
      </trkpt>
      <trkpt lat="45.45539" lon="5.47599">
        <ele>705</ele>
        <time>2022-05-05T11:02:22Z</time>
      </trkpt>
      <trkpt lat="45.45524" lon="5.47584">
        <ele>706</ele>
        <time>2022-05-05T11:02:27Z</time>
      </trkpt>
      <trkpt lat="45.45506" lon="5.47569">
        <ele>708</ele>
        <time>2022-05-05T11:02:32Z</time>
      </trkpt>
      <trkpt lat="45.4548" lon="5.47551">
        <ele>711</ele>
        <time>2022-05-05T11:02:38Z</time>
      </trkpt>
      <trkpt lat="45.45452" lon="5.47533">
        <ele>714</ele>
        <time>2022-05-05T11:02:45Z</time>
      </trkpt>
      <trkpt lat="45.45428" lon="5.4752">
        <ele>716</ele>
        <time>2022-05-05T11:02:51Z</time>
      </trkpt>
      <trkpt lat="45.45404" lon="5.4751">
        <ele>720</ele>
        <time>2022-05-05T11:02:57Z</time>
      </trkpt>
      <trkpt lat="45.45384" lon="5.47502">
        <ele>722</ele>
        <time>2022-05-05T11:03:02Z</time>
      </trkpt>
      <trkpt lat="45.45379" lon="5.47496">
        <ele>722</ele>
        <time>2022-05-05T11:03:04Z</time>
      </trkpt>
      <trkpt lat="45.45373" lon="5.47484">
        <ele>722</ele>
        <time>2022-05-05T11:03:06Z</time>
      </trkpt>
      <trkpt lat="45.45365" lon="5.47465">
        <ele>720</ele>
        <time>2022-05-05T11:03:10Z</time>
      </trkpt>
      <trkpt lat="45.45356" lon="5.47446">
        <ele>719</ele>
        <time>2022-05-05T11:03:13Z</time>
      </trkpt>
      <trkpt lat="45.45333" lon="5.4742">
        <ele>720</ele>
        <time>2022-05-05T11:03:20Z</time>
      </trkpt>
      <trkpt lat="45.45323" lon="5.47408">
        <ele>720</ele>
        <time>2022-05-05T11:03:23Z</time>
      </trkpt>
      <trkpt lat="45.45315" lon="5.47393">
        <ele>719</ele>
        <time>2022-05-05T11:03:26Z</time>
      </trkpt>
      <trkpt lat="45.45301" lon="5.47369">
        <ele>718</ele>
        <time>2022-05-05T11:03:32Z</time>
      </trkpt>
      <trkpt lat="45.45287" lon="5.47352">
        <ele>718</ele>
        <time>2022-05-05T11:03:36Z</time>
      </trkpt>
      <trkpt lat="45.45282" lon="5.47344">
        <ele>718</ele>
        <time>2022-05-05T11:03:38Z</time>
      </trkpt>
      <trkpt lat="45.45274" lon="5.47328">
        <ele>717</ele>
        <time>2022-05-05T11:03:41Z</time>
      </trkpt>
      <trkpt lat="45.45254" lon="5.47306">
        <ele>716</ele>
        <time>2022-05-05T11:03:47Z</time>
      </trkpt>
      <trkpt lat="45.45232" lon="5.47277">
        <ele>716</ele>
        <time>2022-05-05T11:03:54Z</time>
      </trkpt>
      <trkpt lat="45.45209" lon="5.47239">
        <ele>714</ele>
        <time>2022-05-05T11:04:02Z</time>
      </trkpt>
      <trkpt lat="45.45195" lon="5.4722">
        <ele>713</ele>
        <time>2022-05-05T11:04:07Z</time>
      </trkpt>
      <trkpt lat="45.45191" lon="5.47216">
        <ele>712</ele>
        <time>2022-05-05T11:04:08Z</time>
      </trkpt>
      <trkpt lat="45.45177" lon="5.47207">
        <ele>713</ele>
        <time>2022-05-05T11:04:11Z</time>
      </trkpt>
      <trkpt lat="45.45076" lon="5.47228">
        <ele>719</ele>
        <time>2022-05-05T11:04:35Z</time>
      </trkpt>
      <trkpt lat="45.45068" lon="5.47228">
        <ele>720</ele>
        <time>2022-05-05T11:04:37Z</time>
      </trkpt>
      <trkpt lat="45.45063" lon="5.47234">
        <ele>721</ele>
        <time>2022-05-05T11:04:38Z</time>
      </trkpt>
      <trkpt lat="45.45056" lon="5.47236">
        <ele>722</ele>
        <time>2022-05-05T11:04:40Z</time>
      </trkpt>
      <trkpt lat="45.45045" lon="5.47233">
        <ele>723</ele>
        <time>2022-05-05T11:04:43Z</time>
      </trkpt>
      <trkpt lat="45.45018" lon="5.47208">
        <ele>723</ele>
        <time>2022-05-05T11:04:50Z</time>
      </trkpt>
      <trkpt lat="45.45009" lon="5.47198">
        <ele>723</ele>
        <time>2022-05-05T11:04:53Z</time>
      </trkpt>
      <trkpt lat="45.45005" lon="5.47186">
        <ele>722</ele>
        <time>2022-05-05T11:04:55Z</time>
      </trkpt>
      <trkpt lat="45.45003" lon="5.47177">
        <ele>722</ele>
        <time>2022-05-05T11:04:57Z</time>
      </trkpt>
      <trkpt lat="45.44999" lon="5.47159">
        <ele>720</ele>
        <time>2022-05-05T11:05:00Z</time>
      </trkpt>
      <trkpt lat="45.4499" lon="5.47132">
        <ele>719</ele>
        <time>2022-05-05T11:05:05Z</time>
      </trkpt>
      <trkpt lat="45.44983" lon="5.47112">
        <ele>717</ele>
        <time>2022-05-05T11:05:08Z</time>
      </trkpt>
      <trkpt lat="45.44971" lon="5.47096">
        <ele>717</ele>
        <time>2022-05-05T11:05:12Z</time>
      </trkpt>
      <trkpt lat="45.44958" lon="5.47084">
        <ele>716</ele>
        <time>2022-05-05T11:05:16Z</time>
      </trkpt>
      <trkpt lat="45.44932" lon="5.4707">
        <ele>717</ele>
        <time>2022-05-05T11:05:22Z</time>
      </trkpt>
      <trkpt lat="45.44892" lon="5.47063">
        <ele>720</ele>
        <time>2022-05-05T11:05:32Z</time>
      </trkpt>
      <trkpt lat="45.44876" lon="5.47057">
        <ele>720</ele>
        <time>2022-05-05T11:05:36Z</time>
      </trkpt>
      <trkpt lat="45.44846" lon="5.47041">
        <ele>720</ele>
        <time>2022-05-05T11:05:43Z</time>
      </trkpt>
      <trkpt lat="45.44822" lon="5.47029">
        <ele>721</ele>
        <time>2022-05-05T11:05:49Z</time>
      </trkpt>
      <trkpt lat="45.44788" lon="5.47009">
        <ele>721</ele>
        <time>2022-05-05T11:05:58Z</time>
      </trkpt>
      <trkpt lat="45.44758" lon="5.46985">
        <ele>720</ele>
        <time>2022-05-05T11:06:06Z</time>
      </trkpt>
      <trkpt lat="45.44752" lon="5.46979">
        <ele>719</ele>
        <time>2022-05-05T11:06:07Z</time>
      </trkpt>
      <trkpt lat="45.44743" lon="5.46966">
        <ele>718</ele>
        <time>2022-05-05T11:06:10Z</time>
      </trkpt>
      <trkpt lat="45.44707" lon="5.46932">
        <ele>716</ele>
        <time>2022-05-05T11:06:20Z</time>
      </trkpt>
      <trkpt lat="45.44684" lon="5.46905">
        <ele>714</ele>
        <time>2022-05-05T11:06:27Z</time>
      </trkpt>
      <trkpt lat="45.44672" lon="5.46888">
        <ele>713</ele>
        <time>2022-05-05T11:06:31Z</time>
      </trkpt>
      <trkpt lat="45.4466" lon="5.46865">
        <ele>710</ele>
        <time>2022-05-05T11:06:36Z</time>
      </trkpt>
      <trkpt lat="45.4465" lon="5.46851">
        <ele>709</ele>
        <time>2022-05-05T11:06:39Z</time>
      </trkpt>
      <trkpt lat="45.4462" lon="5.46812">
        <ele>706</ele>
        <time>2022-05-05T11:06:49Z</time>
      </trkpt>
      <trkpt lat="45.44614" lon="5.468">
        <ele>704</ele>
        <time>2022-05-05T11:06:51Z</time>
      </trkpt>
      <trkpt lat="45.44603" lon="5.46772">
        <ele>700</ele>
        <time>2022-05-05T11:06:56Z</time>
      </trkpt>
      <trkpt lat="45.44593" lon="5.46755">
        <ele>698</ele>
        <time>2022-05-05T11:07:00Z</time>
      </trkpt>
      <trkpt lat="45.4458" lon="5.46738">
        <ele>696</ele>
        <time>2022-05-05T11:07:04Z</time>
      </trkpt>
      <trkpt lat="45.44558" lon="5.46711">
        <ele>693</ele>
        <time>2022-05-05T11:07:11Z</time>
      </trkpt>
      <trkpt lat="45.4453" lon="5.46679">
        <ele>688</ele>
        <time>2022-05-05T11:07:19Z</time>
      </trkpt>
      <trkpt lat="45.4452" lon="5.46663">
        <ele>686</ele>
        <time>2022-05-05T11:07:23Z</time>
      </trkpt>
      <trkpt lat="45.44515" lon="5.46668">
        <ele>688</ele>
        <time>2022-05-05T11:07:24Z</time>
      </trkpt>
      <trkpt lat="45.44492" lon="5.46684">
        <ele>691</ele>
        <time>2022-05-05T11:07:30Z</time>
      </trkpt>
      <trkpt lat="45.4447" lon="5.46697">
        <ele>694</ele>
        <time>2022-05-05T11:07:36Z</time>
      </trkpt>
      <trkpt lat="45.4445" lon="5.46714">
        <ele>695</ele>
        <time>2022-05-05T11:07:41Z</time>
      </trkpt>
      <trkpt lat="45.44435" lon="5.46728">
        <ele>694</ele>
        <time>2022-05-05T11:07:45Z</time>
      </trkpt>
      <trkpt lat="45.44428" lon="5.46737">
        <ele>693</ele>
        <time>2022-05-05T11:07:48Z</time>
      </trkpt>
      <trkpt lat="45.44413" lon="5.46763">
        <ele>690</ele>
        <time>2022-05-05T11:07:53Z</time>
      </trkpt>
      <trkpt lat="45.44396" lon="5.46787">
        <ele>687</ele>
        <time>2022-05-05T11:07:59Z</time>
      </trkpt>
      <trkpt lat="45.44374" lon="5.46808">
        <ele>683</ele>
        <time>2022-05-05T11:08:05Z</time>
      </trkpt>
      <trkpt lat="45.44352" lon="5.46831">
        <ele>680</ele>
        <time>2022-05-05T11:08:11Z</time>
      </trkpt>
      <trkpt lat="45.44341" lon="5.46847">
        <ele>679</ele>
        <time>2022-05-05T11:08:15Z</time>
      </trkpt>
      <trkpt lat="45.44331" lon="5.46862">
        <ele>677</ele>
        <time>2022-05-05T11:08:18Z</time>
      </trkpt>
      <trkpt lat="45.44306" lon="5.46904">
        <ele>674</ele>
        <time>2022-05-05T11:08:27Z</time>
      </trkpt>
      <trkpt lat="45.44294" lon="5.46922">
        <ele>672</ele>
        <time>2022-05-05T11:08:31Z</time>
      </trkpt>
      <trkpt lat="45.44283" lon="5.46936">
        <ele>670</ele>
        <time>2022-05-05T11:08:35Z</time>
      </trkpt>
      <trkpt lat="45.4427" lon="5.46948">
        <ele>671</ele>
        <time>2022-05-05T11:08:38Z</time>
      </trkpt>
      <trkpt lat="45.44257" lon="5.46957">
        <ele>671</ele>
        <time>2022-05-05T11:08:42Z</time>
      </trkpt>
      <trkpt lat="45.44239" lon="5.46964">
        <ele>670</ele>
        <time>2022-05-05T11:08:46Z</time>
      </trkpt>
      <trkpt lat="45.44216" lon="5.46969">
        <ele>668</ele>
        <time>2022-05-05T11:08:52Z</time>
      </trkpt>
      <trkpt lat="45.44183" lon="5.4697">
        <ele>663</ele>
        <time>2022-05-05T11:08:59Z</time>
      </trkpt>
      <trkpt lat="45.44164" lon="5.46972">
        <ele>661</ele>
        <time>2022-05-05T11:09:04Z</time>
      </trkpt>
      <trkpt lat="45.44156" lon="5.46974">
        <ele>660</ele>
        <time>2022-05-05T11:09:06Z</time>
      </trkpt>
      <trkpt lat="45.4412" lon="5.46994">
        <ele>654</ele>
        <time>2022-05-05T11:09:15Z</time>
      </trkpt>
      <trkpt lat="45.44084" lon="5.47012">
        <ele>654</ele>
        <time>2022-05-05T11:09:24Z</time>
      </trkpt>
      <trkpt lat="45.44059" lon="5.4702">
        <ele>652</ele>
        <time>2022-05-05T11:09:30Z</time>
      </trkpt>
      <trkpt lat="45.44028" lon="5.47029">
        <ele>649</ele>
        <time>2022-05-05T11:09:37Z</time>
      </trkpt>
      <trkpt lat="45.43966" lon="5.47054">
        <ele>642</ele>
        <time>2022-05-05T11:09:52Z</time>
      </trkpt>
      <trkpt lat="45.43946" lon="5.47063">
        <ele>641</ele>
        <time>2022-05-05T11:09:57Z</time>
      </trkpt>
      <trkpt lat="45.43897" lon="5.47091">
        <ele>636</ele>
        <time>2022-05-05T11:10:09Z</time>
      </trkpt>
      <trkpt lat="45.43874" lon="5.47104">
        <ele>633</ele>
        <time>2022-05-05T11:10:15Z</time>
      </trkpt>
      <trkpt lat="45.43838" lon="5.47118">
        <ele>629</ele>
        <time>2022-05-05T11:10:24Z</time>
      </trkpt>
      <trkpt lat="45.43803" lon="5.47127">
        <ele>627</ele>
        <time>2022-05-05T11:10:32Z</time>
      </trkpt>
      <trkpt lat="45.43777" lon="5.47132">
        <ele>626</ele>
        <time>2022-05-05T11:10:38Z</time>
      </trkpt>
      <trkpt lat="45.43755" lon="5.47142">
        <ele>628</ele>
        <time>2022-05-05T11:10:44Z</time>
      </trkpt>
      <trkpt lat="45.43745" lon="5.47149">
        <ele>628</ele>
        <time>2022-05-05T11:10:46Z</time>
      </trkpt>
      <trkpt lat="45.43739" lon="5.47157">
        <ele>629</ele>
        <time>2022-05-05T11:10:48Z</time>
      </trkpt>
      <trkpt lat="45.43712" lon="5.47149">
        <ele>629</ele>
        <time>2022-05-05T11:10:55Z</time>
      </trkpt>
      <trkpt lat="45.43675" lon="5.47139">
        <ele>629</ele>
        <time>2022-05-05T11:11:03Z</time>
      </trkpt>
      <trkpt lat="45.43629" lon="5.47125">
        <ele>626</ele>
        <time>2022-05-05T11:11:14Z</time>
      </trkpt>
      <trkpt lat="45.43594" lon="5.47114">
        <ele>621</ele>
        <time>2022-05-05T11:11:23Z</time>
      </trkpt>
      <trkpt lat="45.43561" lon="5.47097">
        <ele>615</ele>
        <time>2022-05-05T11:11:31Z</time>
      </trkpt>
      <trkpt lat="45.43532" lon="5.4708">
        <ele>610</ele>
        <time>2022-05-05T11:11:38Z</time>
      </trkpt>
      <trkpt lat="45.43513" lon="5.47062">
        <ele>608</ele>
        <time>2022-05-05T11:11:44Z</time>
      </trkpt>
      <trkpt lat="45.43472" lon="5.47013">
        <ele>601</ele>
        <time>2022-05-05T11:11:56Z</time>
      </trkpt>
      <trkpt lat="45.43439" lon="5.46976">
        <ele>599</ele>
        <time>2022-05-05T11:12:06Z</time>
      </trkpt>
      <trkpt lat="45.43419" lon="5.46958">
        <ele>597</ele>
        <time>2022-05-05T11:12:11Z</time>
      </trkpt>
      <trkpt lat="45.43401" lon="5.46947">
        <ele>596</ele>
        <time>2022-05-05T11:12:16Z</time>
      </trkpt>
      <trkpt lat="45.43382" lon="5.46942">
        <ele>596</ele>
        <time>2022-05-05T11:12:20Z</time>
      </trkpt>
      <trkpt lat="45.43352" lon="5.46944">
        <ele>596</ele>
        <time>2022-05-05T11:12:27Z</time>
      </trkpt>
      <trkpt lat="45.43281" lon="5.46956">
        <ele>590</ele>
        <time>2022-05-05T11:12:44Z</time>
      </trkpt>
      <trkpt lat="45.43277" lon="5.46955">
        <ele>589</ele>
        <time>2022-05-05T11:12:45Z</time>
      </trkpt>
      <trkpt lat="45.43277" lon="5.46966">
        <ele>590</ele>
        <time>2022-05-05T11:12:47Z</time>
      </trkpt>
      <trkpt lat="45.43278" lon="5.46978">
        <ele>590</ele>
        <time>2022-05-05T11:12:49Z</time>
      </trkpt>
      <trkpt lat="45.43281" lon="5.47002">
        <ele>590</ele>
        <time>2022-05-05T11:12:53Z</time>
      </trkpt>
      <trkpt lat="45.43284" lon="5.47039">
        <ele>589</ele>
        <time>2022-05-05T11:12:59Z</time>
      </trkpt>
      <trkpt lat="45.43287" lon="5.47074">
        <ele>587</ele>
        <time>2022-05-05T11:13:05Z</time>
      </trkpt>
      <trkpt lat="45.43295" lon="5.47141">
        <ele>580</ele>
        <time>2022-05-05T11:13:16Z</time>
      </trkpt>
      <trkpt lat="45.43298" lon="5.47153">
        <ele>579</ele>
        <time>2022-05-05T11:13:18Z</time>
      </trkpt>
      <trkpt lat="45.43303" lon="5.47163">
        <ele>578</ele>
        <time>2022-05-05T11:13:20Z</time>
      </trkpt>
      <trkpt lat="45.4331" lon="5.47173">
        <ele>577</ele>
        <time>2022-05-05T11:13:22Z</time>
      </trkpt>
      <trkpt lat="45.43318" lon="5.47184">
        <ele>577</ele>
        <time>2022-05-05T11:13:25Z</time>
      </trkpt>
      <trkpt lat="45.43323" lon="5.47188">
        <ele>577</ele>
        <time>2022-05-05T11:13:26Z</time>
      </trkpt>
      <trkpt lat="45.43336" lon="5.47198">
        <ele>577</ele>
        <time>2022-05-05T11:13:30Z</time>
      </trkpt>
      <trkpt lat="45.43349" lon="5.47212">
        <ele>577</ele>
        <time>2022-05-05T11:13:34Z</time>
      </trkpt>
      <trkpt lat="45.43359" lon="5.47223">
        <ele>577</ele>
        <time>2022-05-05T11:13:36Z</time>
      </trkpt>
      <trkpt lat="45.43367" lon="5.47239">
        <ele>577</ele>
        <time>2022-05-05T11:13:40Z</time>
      </trkpt>
      <trkpt lat="45.43389" lon="5.47291">
        <ele>576</ele>
        <time>2022-05-05T11:13:50Z</time>
      </trkpt>
      <trkpt lat="45.43397" lon="5.47315">
        <ele>575</ele>
        <time>2022-05-05T11:13:54Z</time>
      </trkpt>
      <trkpt lat="45.43402" lon="5.47325">
        <ele>574</ele>
        <time>2022-05-05T11:13:56Z</time>
      </trkpt>
      <trkpt lat="45.43404" lon="5.47344">
        <ele>574</ele>
        <time>2022-05-02T12:11:56Z</time>
      </trkpt>
      <trkpt lat="45.4343" lon="5.47402">
        <ele>574</ele>
        <time>2022-05-02T12:12:24Z</time>
      </trkpt>
      <trkpt lat="45.4349" lon="5.47521">
        <ele>579</ele>
        <time>2022-05-02T12:12:48Z</time>
      </trkpt>
      <trkpt lat="45.43471" lon="5.47521">
        <ele>577</ele>
        <time>2022-05-02T12:12:53Z</time>
      </trkpt>
      <trkpt lat="45.43435" lon="5.47508">
        <ele>575</ele>
        <time>2022-05-02T12:13:02Z</time>
      </trkpt>
      <trkpt lat="45.43402" lon="5.47492">
        <ele>575</ele>
        <time>2022-05-02T12:13:10Z</time>
      </trkpt>
      <trkpt lat="45.43378" lon="5.47477">
        <ele>575</ele>
        <time>2022-05-02T12:13:16Z</time>
      </trkpt>
      <trkpt lat="45.43186" lon="5.47271">
        <ele>569</ele>
        <time>2022-05-02T12:14:12Z</time>
      </trkpt>
      <trkpt lat="45.43162" lon="5.47261">
        <ele>567</ele>
        <time>2022-05-02T12:14:18Z</time>
      </trkpt>
      <trkpt lat="45.43109" lon="5.47248">
        <ele>565</ele>
        <time>2022-05-02T12:14:30Z</time>
      </trkpt>
      <trkpt lat="45.43066" lon="5.47234">
        <ele>565</ele>
        <time>2022-05-02T12:14:41Z</time>
      </trkpt>
      <trkpt lat="45.43069" lon="5.47267">
        <ele>564</ele>
        <time>2022-05-02T12:14:46Z</time>
      </trkpt>
      <trkpt lat="45.43065" lon="5.47313">
        <ele>564</ele>
        <time>2022-05-02T12:14:54Z</time>
      </trkpt>
      <trkpt lat="45.43066" lon="5.47332">
        <ele>566</ele>
        <time>2022-05-02T12:14:57Z</time>
      </trkpt>
      <trkpt lat="45.43081" lon="5.47348">
        <ele>567</ele>
        <time>2022-05-02T12:15:01Z</time>
      </trkpt>
      <trkpt lat="45.43088" lon="5.47366">
        <ele>568</ele>
        <time>2022-05-02T12:15:05Z</time>
      </trkpt>
      <trkpt lat="45.43088" lon="5.47416">
        <ele>574</ele>
        <time>2022-05-02T12:15:13Z</time>
      </trkpt>
      <trkpt lat="45.43093" lon="5.47428">
        <ele>575</ele>
        <time>2022-05-02T12:15:15Z</time>
      </trkpt>
      <trkpt lat="45.43118" lon="5.47448">
        <ele>576</ele>
        <time>2022-05-02T12:15:22Z</time>
      </trkpt>
      <trkpt lat="45.43133" lon="5.47472">
        <ele>578</ele>
        <time>2022-05-02T12:15:27Z</time>
      </trkpt>
      <trkpt lat="45.43137" lon="5.475">
        <ele>580</ele>
        <time>2022-05-02T12:15:32Z</time>
      </trkpt>
      <trkpt lat="45.4314" lon="5.47565">
        <ele>586</ele>
        <time>2022-05-02T12:15:42Z</time>
      </trkpt>
      <trkpt lat="45.43145" lon="5.476">
        <ele>589</ele>
        <time>2022-05-02T12:15:48Z</time>
      </trkpt>
      <trkpt lat="45.43164" lon="5.47682">
        <ele>591</ele>
        <time>2022-05-02T12:16:02Z</time>
      </trkpt>
      <trkpt lat="45.43159" lon="5.4769">
        <ele>592</ele>
        <time>2022-05-02T12:16:04Z</time>
      </trkpt>
      <trkpt lat="45.4308" lon="5.47757">
        <ele>593</ele>
        <time>2022-05-02T12:16:26Z</time>
      </trkpt>
      <trkpt lat="45.43046" lon="5.4778">
        <ele>593</ele>
        <time>2022-05-02T12:16:34Z</time>
      </trkpt>
      <trkpt lat="45.43071" lon="5.47874">
        <ele>594</ele>
        <time>2022-05-02T12:16:51Z</time>
      </trkpt>
      <trkpt lat="45.43119" lon="5.4796">
        <ele>597</ele>
        <time>2022-05-02T12:17:09Z</time>
      </trkpt>
      <trkpt lat="45.43152" lon="5.48025">
        <ele>598</ele>
        <time>2022-05-02T12:17:22Z</time>
      </trkpt>
      <trkpt lat="45.43201" lon="5.48028">
        <ele>601</ele>
        <time>2022-05-02T12:17:33Z</time>
      </trkpt>
      <trkpt lat="45.43252" lon="5.48027">
        <ele>602</ele>
        <time>2022-05-02T12:17:45Z</time>
      </trkpt>
      <trkpt lat="45.4334" lon="5.48038">
        <ele>603</ele>
        <time>2022-05-02T12:18:06Z</time>
      </trkpt>
      <trkpt lat="45.43205" lon="5.4842">
        <ele>581</ele>
        <time>2022-05-02T12:19:16Z</time>
      </trkpt>
      <trkpt lat="45.43237" lon="5.48457">
        <ele>580</ele>
        <time>2022-05-02T12:19:26Z</time>
      </trkpt>
      <trkpt lat="45.43284" lon="5.48478">
        <ele>582</ele>
        <time>2022-05-02T12:19:37Z</time>
      </trkpt>
      <trkpt lat="45.43334" lon="5.48494">
        <ele>582</ele>
        <time>2022-05-02T12:19:49Z</time>
      </trkpt>
      <trkpt lat="45.43409" lon="5.48488">
        <ele>585</ele>
        <time>2022-05-02T12:20:07Z</time>
      </trkpt>
      <trkpt lat="45.43457" lon="5.4849">
        <ele>584</ele>
        <time>2022-05-02T12:20:18Z</time>
      </trkpt>
      <trkpt lat="45.43563" lon="5.48567">
        <ele>571</ele>
        <time>2022-05-02T12:20:46Z</time>
      </trkpt>
      <trkpt lat="45.43602" lon="5.48615">
        <ele>565</ele>
        <time>2022-05-02T12:20:58Z</time>
      </trkpt>
      <trkpt lat="45.43612" lon="5.48623">
        <ele>564</ele>
        <time>2022-05-02T12:21:00Z</time>
      </trkpt>
      <trkpt lat="45.43683" lon="5.4865">
        <ele>564</ele>
        <time>2022-05-02T12:21:18Z</time>
      </trkpt>
      <trkpt lat="45.43689" lon="5.48658">
        <ele>564</ele>
        <time>2022-05-02T12:21:20Z</time>
      </trkpt>
      <trkpt lat="45.43566" lon="5.48764">
        <ele>567</ele>
        <time>2022-05-02T12:21:53Z</time>
      </trkpt>
      <trkpt lat="45.43486" lon="5.4884">
        <ele>568</ele>
        <time>2022-05-02T12:22:16Z</time>
      </trkpt>
      <trkpt lat="45.43468" lon="5.48862">
        <ele>568</ele>
        <time>2022-05-02T12:22:21Z</time>
      </trkpt>
      <trkpt lat="45.43437" lon="5.48883">
        <ele>568</ele>
        <time>2022-05-02T12:22:29Z</time>
      </trkpt>
      <trkpt lat="45.43394" lon="5.48922">
        <ele>568</ele>
        <time>2022-05-02T12:22:41Z</time>
      </trkpt>
      <trkpt lat="45.4328" lon="5.49034">
        <ele>568</ele>
        <time>2022-05-02T12:23:13Z</time>
      </trkpt>
      <trkpt lat="45.43233" lon="5.49076">
        <ele>568</ele>
        <time>2022-05-02T12:23:26Z</time>
      </trkpt>
      <trkpt lat="45.43174" lon="5.49146">
        <ele>568</ele>
        <time>2022-05-02T12:23:44Z</time>
      </trkpt>
      <trkpt lat="45.43024" lon="5.49315">
        <ele>569</ele>
        <time>2022-05-02T12:24:29Z</time>
      </trkpt>
      <trkpt lat="45.42994" lon="5.49342">
        <ele>569</ele>
        <time>2022-05-02T12:24:37Z</time>
      </trkpt>
      <trkpt lat="45.42966" lon="5.49361">
        <ele>569</ele>
        <time>2022-05-02T12:24:44Z</time>
      </trkpt>
      <trkpt lat="45.42908" lon="5.49399">
        <ele>571</ele>
        <time>2022-05-02T12:24:59Z</time>
      </trkpt>
      <trkpt lat="45.42809" lon="5.49456">
        <ele>577</ele>
        <time>2022-05-02T12:25:24Z</time>
      </trkpt>
      <trkpt lat="45.42816" lon="5.49462">
        <ele>576</ele>
        <time>2022-05-02T12:25:26Z</time>
      </trkpt>
      <trkpt lat="45.42882" lon="5.49493">
        <ele>574</ele>
        <time>2022-05-02T12:25:42Z</time>
      </trkpt>
      <trkpt lat="45.42913" lon="5.49518">
        <ele>574</ele>
        <time>2022-05-02T12:25:51Z</time>
      </trkpt>
      <trkpt lat="45.42924" lon="5.49536">
        <ele>574</ele>
        <time>2022-05-02T12:25:55Z</time>
      </trkpt>
      <trkpt lat="45.42953" lon="5.49617">
        <ele>577</ele>
        <time>2022-05-02T12:26:10Z</time>
      </trkpt>
      <trkpt lat="45.4299" lon="5.49669">
        <ele>578</ele>
        <time>2022-05-02T12:26:22Z</time>
      </trkpt>
      <trkpt lat="45.43067" lon="5.49761">
        <ele>578</ele>
        <time>2022-05-02T12:26:45Z</time>
      </trkpt>
      <trkpt lat="45.43091" lon="5.49796">
        <ele>578</ele>
        <time>2022-05-02T12:26:53Z</time>
      </trkpt>
      <trkpt lat="45.43104" lon="5.49845">
        <ele>575</ele>
        <time>2022-05-02T12:27:02Z</time>
      </trkpt>
      <trkpt lat="45.43113" lon="5.49865">
        <ele>573</ele>
        <time>2022-05-02T12:27:06Z</time>
      </trkpt>
      <trkpt lat="45.43124" lon="5.4987">
        <ele>573</ele>
        <time>2022-05-02T12:27:08Z</time>
      </trkpt>
      <trkpt lat="45.43164" lon="5.49863">
        <ele>574</ele>
        <time>2022-05-02T12:27:18Z</time>
      </trkpt>
      <trkpt lat="45.43187" lon="5.49849">
        <ele>576</ele>
        <time>2022-05-02T12:27:24Z</time>
      </trkpt>
      <trkpt lat="45.43195" lon="5.49865">
        <ele>575</ele>
        <time>2022-05-02T12:27:27Z</time>
      </trkpt>
      <trkpt lat="45.43201" lon="5.49891">
        <ele>574</ele>
        <time>2022-05-02T12:27:31Z</time>
      </trkpt>
      <trkpt lat="45.43212" lon="5.5003">
        <ele>567</ele>
        <time>2022-05-02T12:27:54Z</time>
      </trkpt>
      <trkpt lat="45.43232" lon="5.50157">
        <ele>555</ele>
        <time>2022-05-02T12:28:16Z</time>
      </trkpt>
      <trkpt lat="45.432" lon="5.50167">
        <ele>553</ele>
        <time>2022-05-02T12:28:23Z</time>
      </trkpt>
      <trkpt lat="45.43197" lon="5.50198">
        <ele>549</ele>
        <time>2022-05-02T12:28:28Z</time>
      </trkpt>
      <trkpt lat="45.43164" lon="5.50317">
        <ele>556</ele>
        <time>2022-05-02T12:28:49Z</time>
      </trkpt>
      <trkpt lat="45.43178" lon="5.50332">
        <ele>555</ele>
        <time>2022-05-02T12:28:53Z</time>
      </trkpt>
      <trkpt lat="45.43242" lon="5.50389">
        <ele>555</ele>
        <time>2022-05-02T12:29:11Z</time>
      </trkpt>
      <trkpt lat="45.43252" lon="5.50405">
        <ele>555</ele>
        <time>2022-05-02T12:29:15Z</time>
      </trkpt>
      <trkpt lat="45.43261" lon="5.50457">
        <ele>558</ele>
        <time>2022-05-02T12:29:23Z</time>
      </trkpt>
      <trkpt lat="45.4326" lon="5.5047">
        <ele>559</ele>
        <time>2022-05-02T12:29:25Z</time>
      </trkpt>
      <trkpt lat="45.43252" lon="5.50488">
        <ele>560</ele>
        <time>2022-05-02T12:29:29Z</time>
      </trkpt>
      <trkpt lat="45.43241" lon="5.50504">
        <ele>562</ele>
        <time>2022-05-02T12:29:33Z</time>
      </trkpt>
      <trkpt lat="45.43226" lon="5.50551">
        <ele>563</ele>
        <time>2022-05-02T12:29:41Z</time>
      </trkpt>
      <trkpt lat="45.43225" lon="5.50578">
        <ele>564</ele>
        <time>2022-05-02T12:29:45Z</time>
      </trkpt>
      <trkpt lat="45.4323" lon="5.50605">
        <ele>563</ele>
        <time>2022-05-02T12:29:50Z</time>
      </trkpt>
      <trkpt lat="45.4323" lon="5.50626">
        <ele>562</ele>
        <time>2022-05-02T12:29:54Z</time>
      </trkpt>
      <trkpt lat="45.43223" lon="5.50647">
        <ele>561</ele>
        <time>2022-05-02T12:29:57Z</time>
      </trkpt>
      <trkpt lat="45.43217" lon="5.50682">
        <ele>559</ele>
        <time>2022-05-02T12:30:03Z</time>
      </trkpt>
      <trkpt lat="45.4322" lon="5.50697">
        <ele>559</ele>
        <time>2022-05-02T12:30:06Z</time>
      </trkpt>
      <trkpt lat="45.43279" lon="5.50879">
        <ele>550</ele>
        <time>2022-05-02T12:30:39Z</time>
      </trkpt>
      <trkpt lat="45.43338" lon="5.50815">
        <ele>548</ele>
        <time>2022-05-02T12:30:56Z</time>
      </trkpt>
      <trkpt lat="45.43346" lon="5.50908">
        <ele>537</ele>
        <time>2022-05-02T12:31:11Z</time>
      </trkpt>
      <trkpt lat="45.43345" lon="5.50997">
        <ele>524</ele>
        <time>2022-05-02T12:31:26Z</time>
      </trkpt>
      <trkpt lat="45.43349" lon="5.51005">
        <ele>522</ele>
        <time>2022-05-02T12:31:27Z</time>
      </trkpt>
      <trkpt lat="45.43357" lon="5.51003">
        <ele>521</ele>
        <time>2022-05-02T12:31:29Z</time>
      </trkpt>
      <trkpt lat="45.43372" lon="5.50955">
        <ele>521</ele>
        <time>2022-05-02T12:31:38Z</time>
      </trkpt>
      <trkpt lat="45.43374" lon="5.5098">
        <ele>519</ele>
        <time>2022-05-02T12:31:42Z</time>
      </trkpt>
      <trkpt lat="45.43344" lon="5.51187">
        <ele>508</ele>
      </trkpt>
      <trkpt lat="45.43341" lon="5.51211">
        <ele>505</ele>
      </trkpt>
      <trkpt lat="45.43334" lon="5.5123">
        <ele>503</ele>
      </trkpt>
      <trkpt lat="45.43332" lon="5.51343">
        <ele>494</ele>
      </trkpt>
      <trkpt lat="45.43323" lon="5.51456">
        <ele>493</ele>
      </trkpt>
      <trkpt lat="45.43318" lon="5.51552">
        <ele>492</ele>
      </trkpt>
      <trkpt lat="45.43315" lon="5.51703">
        <ele>491</ele>
      </trkpt>
      <trkpt lat="45.43289" lon="5.51713">
        <ele>492</ele>
      </trkpt>
      <trkpt lat="45.43258" lon="5.51716">
        <ele>492</ele>
      </trkpt>
      <trkpt lat="45.4318" lon="5.51684">
        <ele>490</ele>
      </trkpt>
      <trkpt lat="45.43102" lon="5.51656">
        <ele>490</ele>
      </trkpt>
      <trkpt lat="45.43015" lon="5.51625">
        <ele>491</ele>
      </trkpt>
      <trkpt lat="45.42958" lon="5.51619">
        <ele>492</ele>
      </trkpt>
      <trkpt lat="45.42911" lon="5.5164">
        <ele>492</ele>
      </trkpt>
      <trkpt lat="45.42858" lon="5.51701">
        <ele>493</ele>
      </trkpt>
      <trkpt lat="45.42822" lon="5.51793">
        <ele>495</ele>
      </trkpt>
      <trkpt lat="45.42801" lon="5.51864">
        <ele>497</ele>
      </trkpt>
      <trkpt lat="45.42762" lon="5.51914">
        <ele>497</ele>
      </trkpt>
      <trkpt lat="45.42723" lon="5.51941">
        <ele>497</ele>
      </trkpt>
      <trkpt lat="45.42695" lon="5.51944">
        <ele>497</ele>
      </trkpt>
      <trkpt lat="45.42654" lon="5.51942">
        <ele>498</ele>
      </trkpt>
      <trkpt lat="45.42627" lon="5.5194">
        <ele>499</ele>
        <time>2022-05-02T12:32:18Z</time>
      </trkpt>
      <trkpt lat="45.42625" lon="5.5197">
        <ele>500</ele>
        <time>2022-05-02T09:43:21Z</time>
      </trkpt>
      <trkpt lat="45.42617" lon="5.52012">
        <ele>501</ele>
        <time>2022-05-02T09:43:25Z</time>
      </trkpt>
      <trkpt lat="45.42586" lon="5.52061">
        <ele>502</ele>
      </trkpt>
      <trkpt lat="45.42555" lon="5.52113">
        <ele>505</ele>
        <time>2022-05-02T09:43:47Z</time>
      </trkpt>
      <trkpt lat="45.42541" lon="5.52125">
        <ele>506</ele>
        <time>2022-05-02T09:43:50Z</time>
      </trkpt>
      <trkpt lat="45.42515" lon="5.52132">
        <ele>507</ele>
        <time>2022-05-02T09:43:57Z</time>
      </trkpt>
      <trkpt lat="45.42481" lon="5.52145">
        <ele>509</ele>
        <time>2022-05-02T09:44:05Z</time>
      </trkpt>
      <trkpt lat="45.42411" lon="5.52222">
        <ele>517</ele>
        <time>2022-05-02T09:44:25Z</time>
      </trkpt>
      <trkpt lat="45.42372" lon="5.52284">
        <ele>521</ele>
        <time>2022-05-02T09:44:39Z</time>
      </trkpt>
      <trkpt lat="45.42361" lon="5.52312">
        <ele>521</ele>
        <time>2022-05-02T09:44:44Z</time>
      </trkpt>
      <trkpt lat="45.42336" lon="5.52299">
        <ele>519</ele>
        <time>2022-05-02T09:44:51Z</time>
      </trkpt>
      <trkpt lat="45.42309" lon="5.5229">
        <ele>517</ele>
        <time>2022-05-02T09:44:57Z</time>
      </trkpt>
      <trkpt lat="45.42292" lon="5.52301">
        <ele>517</ele>
        <time>2022-05-02T09:45:01Z</time>
      </trkpt>
      <trkpt lat="45.42207" lon="5.52379">
        <ele>515</ele>
        <time>2022-05-02T09:45:25Z</time>
      </trkpt>
      <trkpt lat="45.42103" lon="5.52487">
        <ele>512</ele>
        <time>2022-05-02T09:45:55Z</time>
      </trkpt>
      <trkpt lat="45.42086" lon="5.52502">
        <ele>512</ele>
        <time>2022-05-02T09:46:00Z</time>
      </trkpt>
      <trkpt lat="45.42072" lon="5.52507">
        <ele>512</ele>
        <time>2022-05-02T09:46:03Z</time>
      </trkpt>
      <trkpt lat="45.42067" lon="5.52521">
        <ele>512</ele>
        <time>2022-05-02T09:46:06Z</time>
      </trkpt>
      <trkpt lat="45.42027" lon="5.52565">
        <ele>512</ele>
        <time>2022-05-02T09:46:18Z</time>
      </trkpt>
      <trkpt lat="45.41982" lon="5.52608">
        <ele>512</ele>
        <time>2022-05-02T09:46:30Z</time>
      </trkpt>
      <trkpt lat="45.41929" lon="5.52649">
        <ele>511</ele>
        <time>2022-05-02T09:46:44Z</time>
      </trkpt>
      <trkpt lat="45.41866" lon="5.52692">
        <ele>510</ele>
        <time>2022-05-02T09:47:01Z</time>
      </trkpt>
      <trkpt lat="45.41838" lon="5.52721">
        <ele>509</ele>
        <time>2022-05-02T09:47:09Z</time>
      </trkpt>
      <trkpt lat="45.41813" lon="5.52754">
        <ele>510</ele>
        <time>2022-05-02T09:47:17Z</time>
      </trkpt>
      <trkpt lat="45.41739" lon="5.52858">
        <ele>509</ele>
        <time>2022-05-02T09:47:41Z</time>
      </trkpt>
      <trkpt lat="45.41693" lon="5.52927">
        <ele>508</ele>
        <time>2022-05-02T09:47:56Z</time>
      </trkpt>
      <trkpt lat="45.41692" lon="5.52944">
        <ele>509</ele>
        <time>2022-05-02T09:47:59Z</time>
      </trkpt>
      <trkpt lat="45.41719" lon="5.52962">
        <ele>512</ele>
        <time>2022-05-02T09:48:06Z</time>
      </trkpt>
      <trkpt lat="45.41731" lon="5.52979">
        <ele>513</ele>
        <time>2022-05-02T09:48:10Z</time>
      </trkpt>
      <trkpt lat="45.41782" lon="5.53142">
        <ele>521</ele>
        <time>2022-05-02T09:48:39Z</time>
      </trkpt>
      <trkpt lat="45.41798" lon="5.5317">
        <ele>522</ele>
        <time>2022-05-02T09:48:45Z</time>
      </trkpt>
      <trkpt lat="45.41819" lon="5.53181">
        <ele>524</ele>
        <time>2022-05-02T09:48:51Z</time>
      </trkpt>
      <trkpt lat="45.41853" lon="5.53214">
        <ele>529</ele>
        <time>2022-05-02T09:49:00Z</time>
      </trkpt>
      <trkpt lat="45.4186" lon="5.53218">
        <ele>530</ele>
        <time>2022-05-02T09:49:02Z</time>
      </trkpt>
      <trkpt lat="45.4187" lon="5.53221">
        <ele>531</ele>
        <time>2022-05-02T09:49:04Z</time>
      </trkpt>
      <trkpt lat="45.41889" lon="5.53213">
        <ele>535</ele>
        <time>2022-05-02T09:49:09Z</time>
      </trkpt>
      <trkpt lat="45.41918" lon="5.53212">
        <ele>538</ele>
        <time>2022-05-02T09:49:16Z</time>
      </trkpt>
      <trkpt lat="45.41939" lon="5.53224">
        <ele>540</ele>
        <time>2022-05-02T09:49:21Z</time>
      </trkpt>
      <trkpt lat="45.41964" lon="5.53246">
        <ele>540</ele>
        <time>2022-05-02T09:49:28Z</time>
      </trkpt>
      <trkpt lat="45.42032" lon="5.53283">
        <ele>540</ele>
        <time>2022-05-02T09:49:45Z</time>
      </trkpt>
      <trkpt lat="45.42039" lon="5.53297">
        <ele>541</ele>
        <time>2022-05-02T09:49:48Z</time>
      </trkpt>
      <trkpt lat="45.42043" lon="5.53323">
        <ele>543</ele>
        <time>2022-05-02T09:49:52Z</time>
      </trkpt>
      <trkpt lat="45.42033" lon="5.53373">
        <ele>545</ele>
        <time>2022-05-02T09:50:01Z</time>
      </trkpt>
      <trkpt lat="45.42034" lon="5.53388">
        <ele>546</ele>
        <time>2022-05-02T09:50:03Z</time>
      </trkpt>
      <trkpt lat="45.4205" lon="5.53426">
        <ele>547</ele>
        <time>2022-05-02T09:50:10Z</time>
      </trkpt>
      <trkpt lat="45.42057" lon="5.53437">
        <ele>547</ele>
        <time>2022-05-02T09:50:13Z</time>
      </trkpt>
      <trkpt lat="45.42084" lon="5.53464">
        <ele>549</ele>
        <time>2022-05-02T09:50:20Z</time>
      </trkpt>
      <trkpt lat="45.42097" lon="5.53482">
        <ele>550</ele>
        <time>2022-05-02T09:50:25Z</time>
      </trkpt>
      <trkpt lat="45.42111" lon="5.53493">
        <ele>551</ele>
        <time>2022-05-02T09:50:28Z</time>
      </trkpt>
      <trkpt lat="45.4212" lon="5.53495">
        <ele>552</ele>
        <time>2022-05-02T09:50:31Z</time>
      </trkpt>
      <trkpt lat="45.42149" lon="5.53509">
        <ele>555</ele>
        <time>2022-05-02T09:50:38Z</time>
      </trkpt>
      <trkpt lat="45.42168" lon="5.53513">
        <ele>557</ele>
        <time>2022-05-02T09:50:42Z</time>
      </trkpt>
      <trkpt lat="45.42167" lon="5.5356">
        <ele>558</ele>
        <time>2022-05-02T09:50:50Z</time>
      </trkpt>
      <trkpt lat="45.4217" lon="5.53598">
        <ele>558</ele>
        <time>2022-05-02T09:50:56Z</time>
      </trkpt>
      <trkpt lat="45.42222" lon="5.53756">
        <ele>561</ele>
        <time>2022-05-02T09:51:25Z</time>
      </trkpt>
      <trkpt lat="45.42189" lon="5.53877">
        <ele>563</ele>
        <time>2022-05-02T09:51:46Z</time>
      </trkpt>
      <trkpt lat="45.42181" lon="5.53967">
        <ele>572</ele>
        <time>2022-05-02T09:52:01Z</time>
      </trkpt>
      <trkpt lat="45.42202" lon="5.53964">
        <ele>571</ele>
        <time>2022-05-02T09:52:06Z</time>
      </trkpt>
      <trkpt lat="45.42232" lon="5.53945">
        <ele>568</ele>
        <time>2022-05-02T09:52:14Z</time>
      </trkpt>
      <trkpt lat="45.42242" lon="5.53947">
        <ele>568</ele>
        <time>2022-05-02T09:52:16Z</time>
      </trkpt>
      <trkpt lat="45.42248" lon="5.53954">
        <ele>568</ele>
        <time>2022-05-02T09:52:18Z</time>
      </trkpt>
      <trkpt lat="45.42263" lon="5.53994">
        <ele>571</ele>
        <time>2022-05-02T09:52:25Z</time>
      </trkpt>
      <trkpt lat="45.42328" lon="5.54123">
        <ele>579</ele>
        <time>2022-05-02T09:52:51Z</time>
      </trkpt>
      <trkpt lat="45.42373" lon="5.54188">
        <ele>584</ele>
        <time>2022-05-02T09:53:06Z</time>
      </trkpt>
      <trkpt lat="45.42401" lon="5.54224">
        <ele>589</ele>
        <time>2022-05-02T09:53:15Z</time>
      </trkpt>
      <trkpt lat="45.42449" lon="5.54259">
        <ele>587</ele>
        <time>2022-05-02T09:53:28Z</time>
      </trkpt>
      <trkpt lat="45.42497" lon="5.54307">
        <ele>588</ele>
        <time>2022-05-02T09:53:41Z</time>
      </trkpt>
      <trkpt lat="45.42501" lon="5.54307">
        <ele>588</ele>
        <time>2022-05-02T09:53:42Z</time>
      </trkpt>
      <trkpt lat="45.4252" lon="5.54325">
        <ele>589</ele>
        <time>2022-05-02T09:53:47Z</time>
      </trkpt>
      <trkpt lat="45.42531" lon="5.54331">
        <ele>588</ele>
        <time>2022-05-02T09:53:50Z</time>
      </trkpt>
      <trkpt lat="45.42569" lon="5.54335">
        <ele>591</ele>
        <time>2022-05-02T09:53:59Z</time>
      </trkpt>
      <trkpt lat="45.42585" lon="5.54339">
        <ele>592</ele>
        <time>2022-05-02T09:54:03Z</time>
      </trkpt>
      <trkpt lat="45.42657" lon="5.54375">
        <ele>600</ele>
        <time>2022-05-02T09:54:21Z</time>
      </trkpt>
      <trkpt lat="45.42718" lon="5.54394">
        <ele>608</ele>
        <time>2022-05-02T09:54:35Z</time>
      </trkpt>
      <trkpt lat="45.42792" lon="5.54403">
        <ele>617</ele>
        <time>2022-05-02T09:54:53Z</time>
      </trkpt>
      <trkpt lat="45.42848" lon="5.54417">
        <ele>627</ele>
        <time>2022-05-02T09:55:06Z</time>
      </trkpt>
      <trkpt lat="45.42854" lon="5.54416">
        <ele>627</ele>
        <time>2022-05-02T09:55:07Z</time>
      </trkpt>
      <trkpt lat="45.42887" lon="5.5439">
        <ele>627</ele>
        <time>2022-05-02T09:55:16Z</time>
      </trkpt>
      <trkpt lat="45.429" lon="5.54376">
        <ele>627</ele>
        <time>2022-05-02T09:55:20Z</time>
      </trkpt>
      <trkpt lat="45.43006" lon="5.5436">
        <ele>641</ele>
        <time>2022-05-02T09:55:45Z</time>
      </trkpt>
      <trkpt lat="45.43055" lon="5.54339">
        <ele>644</ele>
        <time>2022-05-02T09:55:57Z</time>
      </trkpt>
      <trkpt lat="45.43084" lon="5.54323">
        <ele>647</ele>
        <time>2022-05-02T09:56:04Z</time>
      </trkpt>
      <trkpt lat="45.43106" lon="5.54309">
        <ele>649</ele>
        <time>2022-05-02T09:56:10Z</time>
      </trkpt>
      <trkpt lat="45.43159" lon="5.54264">
        <ele>656</ele>
        <time>2022-05-02T09:56:24Z</time>
      </trkpt>
      <trkpt lat="45.43185" lon="5.54246">
        <ele>659</ele>
        <time>2022-05-02T09:56:31Z</time>
      </trkpt>
      <trkpt lat="45.43213" lon="5.5422">
        <ele>660</ele>
        <time>2022-05-02T09:56:39Z</time>
      </trkpt>
      <trkpt lat="45.43253" lon="5.54175">
        <ele>660</ele>
        <time>2022-05-02T09:56:51Z</time>
      </trkpt>
      <trkpt lat="45.43277" lon="5.54155">
        <ele>663</ele>
        <time>2022-05-02T09:56:57Z</time>
      </trkpt>
      <trkpt lat="45.43328" lon="5.54137">
        <ele>670</ele>
        <time>2022-05-02T09:57:09Z</time>
      </trkpt>
      <trkpt lat="45.43342" lon="5.5413">
        <ele>672</ele>
        <time>2022-05-02T09:57:13Z</time>
      </trkpt>
      <trkpt lat="45.43355" lon="5.54127">
        <ele>673</ele>
        <time>2022-05-02T09:57:16Z</time>
      </trkpt>
      <trkpt lat="45.43389" lon="5.54133">
        <ele>676</ele>
        <time>2022-05-02T09:57:24Z</time>
      </trkpt>
      <trkpt lat="45.43438" lon="5.54154">
        <ele>684</ele>
        <time>2022-05-02T09:57:36Z</time>
      </trkpt>
      <trkpt lat="45.43453" lon="5.54147">
        <ele>686</ele>
        <time>2022-05-02T09:57:40Z</time>
      </trkpt>
      <trkpt lat="45.43473" lon="5.54163">
        <ele>687</ele>
        <time>2022-05-02T09:57:45Z</time>
      </trkpt>
      <trkpt lat="45.43506" lon="5.54167">
        <ele>691</ele>
        <time>2022-05-02T09:57:53Z</time>
      </trkpt>
      <trkpt lat="45.43532" lon="5.54178">
        <ele>692</ele>
        <time>2022-05-02T09:57:59Z</time>
      </trkpt>
      <trkpt lat="45.43638" lon="5.54236">
        <ele>704</ele>
        <time>2022-05-02T09:58:25Z</time>
      </trkpt>
      <trkpt lat="45.43695" lon="5.54237">
        <ele>706</ele>
        <time>2022-05-02T09:58:39Z</time>
      </trkpt>
      <trkpt lat="45.43756" lon="5.54236">
        <ele>709</ele>
        <time>2022-05-02T09:58:53Z</time>
      </trkpt>
      <trkpt lat="45.43779" lon="5.54231">
        <ele>711</ele>
        <time>2022-05-02T09:58:58Z</time>
      </trkpt>
      <trkpt lat="45.4381" lon="5.54211">
        <ele>714</ele>
        <time>2022-05-02T09:59:06Z</time>
      </trkpt>
      <trkpt lat="45.43845" lon="5.54167">
        <ele>719</ele>
        <time>2022-05-02T09:59:17Z</time>
      </trkpt>
      <trkpt lat="45.43879" lon="5.5414">
        <ele>719</ele>
        <time>2022-05-02T09:59:26Z</time>
      </trkpt>
      <trkpt lat="45.43905" lon="5.54123">
        <ele>716</ele>
        <time>2022-05-02T09:59:33Z</time>
      </trkpt>
      <trkpt lat="45.43911" lon="5.54131">
        <ele>716</ele>
        <time>2022-05-02T09:59:35Z</time>
      </trkpt>
      <trkpt lat="45.43912" lon="5.54127">
        <ele>715</ele>
        <time>2022-05-02T09:59:36Z</time>
      </trkpt>
      <trkpt lat="45.43922" lon="5.54157">
        <ele>716</ele>
        <time>2022-05-02T09:59:41Z</time>
      </trkpt>
      <trkpt lat="45.43918" lon="5.54245">
        <ele>718</ele>
        <time>2022-05-02T09:59:56Z</time>
      </trkpt>
      <trkpt lat="45.43921" lon="5.54312">
        <ele>719</ele>
        <time>2022-05-02T10:00:07Z</time>
      </trkpt>
      <trkpt lat="45.43932" lon="5.54375">
        <ele>717</ele>
        <time>2022-05-02T10:00:17Z</time>
      </trkpt>
      <trkpt lat="45.43935" lon="5.54418">
        <ele>714</ele>
        <time>2022-05-02T10:00:24Z</time>
      </trkpt>
      <trkpt lat="45.43935" lon="5.5453">
        <ele>707</ele>
        <time>2022-05-02T10:00:43Z</time>
      </trkpt>
      <trkpt lat="45.4393" lon="5.54579">
        <ele>705</ele>
        <time>2022-05-02T10:00:51Z</time>
      </trkpt>
      <trkpt lat="45.43931" lon="5.54602">
        <ele>703</ele>
        <time>2022-05-02T10:00:55Z</time>
      </trkpt>
      <trkpt lat="45.4394" lon="5.54652">
        <ele>698</ele>
        <time>2022-05-02T10:01:03Z</time>
      </trkpt>
      <trkpt lat="45.43945" lon="5.54726">
        <ele>693</ele>
        <time>2022-05-02T10:01:15Z</time>
      </trkpt>
      <trkpt lat="45.43945" lon="5.54777">
        <ele>691</ele>
        <time>2022-05-02T10:01:24Z</time>
      </trkpt>
      <trkpt lat="45.43939" lon="5.54799">
        <ele>691</ele>
        <time>2022-05-02T10:01:27Z</time>
      </trkpt>
      <trkpt lat="45.43946" lon="5.5482">
        <ele>689</ele>
        <time>2022-05-02T10:01:31Z</time>
      </trkpt>
      <trkpt lat="45.4395" lon="5.54848">
        <ele>687</ele>
        <time>2022-05-02T10:01:36Z</time>
      </trkpt>
      <trkpt lat="45.43959" lon="5.54878">
        <ele>685</ele>
        <time>2022-05-02T10:01:41Z</time>
      </trkpt>
      <trkpt lat="45.43974" lon="5.54898">
        <ele>682</ele>
        <time>2022-05-02T10:01:46Z</time>
      </trkpt>
      <trkpt lat="45.44006" lon="5.54953">
        <ele>673</ele>
        <time>2022-05-02T10:01:58Z</time>
      </trkpt>
      <trkpt lat="45.44078" lon="5.54993">
        <ele>659</ele>
        <time>2022-05-02T10:02:16Z</time>
      </trkpt>
      <trkpt lat="45.44143" lon="5.55047">
        <ele>647</ele>
        <time>2022-05-02T10:02:33Z</time>
      </trkpt>
      <trkpt lat="45.44189" lon="5.55116">
        <ele>641</ele>
        <time>2022-05-02T10:02:49Z</time>
      </trkpt>
      <trkpt lat="45.44199" lon="5.5513">
        <ele>639</ele>
        <time>2022-05-02T10:02:52Z</time>
      </trkpt>
      <trkpt lat="45.44207" lon="5.55137">
        <ele>638</ele>
        <time>2022-05-02T10:02:54Z</time>
      </trkpt>
      <trkpt lat="45.44219" lon="5.5512">
        <ele>637</ele>
        <time>2022-05-02T10:02:58Z</time>
      </trkpt>
      <trkpt lat="45.44267" lon="5.5508">
        <ele>632</ele>
        <time>2022-05-02T10:03:11Z</time>
      </trkpt>
      <trkpt lat="45.4428" lon="5.55072">
        <ele>632</ele>
        <time>2022-05-02T10:03:15Z</time>
      </trkpt>
      <trkpt lat="45.44311" lon="5.55066">
        <ele>631</ele>
        <time>2022-05-02T10:03:22Z</time>
      </trkpt>
      <trkpt lat="45.44323" lon="5.55057">
        <ele>632</ele>
        <time>2022-05-02T10:03:25Z</time>
      </trkpt>
      <trkpt lat="45.44347" lon="5.55016">
        <ele>633</ele>
        <time>2022-05-02T10:03:34Z</time>
      </trkpt>
      <trkpt lat="45.44358" lon="5.55007">
        <ele>633</ele>
        <time>2022-05-02T10:03:37Z</time>
      </trkpt>
      <trkpt lat="45.44371" lon="5.55003">
        <ele>633</ele>
        <time>2022-05-02T10:03:40Z</time>
      </trkpt>
      <trkpt lat="45.44394" lon="5.5501">
        <ele>631</ele>
        <time>2022-05-02T10:03:45Z</time>
      </trkpt>
      <trkpt lat="45.44405" lon="5.55021">
        <ele>630</ele>
        <time>2022-05-02T10:03:49Z</time>
      </trkpt>
      <trkpt lat="45.44406" lon="5.55027">
        <ele>630</ele>
        <time>2022-05-02T10:03:50Z</time>
      </trkpt>
      <trkpt lat="45.44417" lon="5.55046">
        <ele>629</ele>
        <time>2022-05-02T10:03:54Z</time>
      </trkpt>
      <trkpt lat="45.44453" lon="5.55098">
        <ele>626</ele>
        <time>2022-05-02T10:04:06Z</time>
      </trkpt>
      <trkpt lat="45.44473" lon="5.5515">
        <ele>624</ele>
        <time>2022-05-02T10:04:15Z</time>
      </trkpt>
      <trkpt lat="45.44484" lon="5.55174">
        <ele>622</ele>
        <time>2022-05-02T10:04:20Z</time>
      </trkpt>
      <trkpt lat="45.44497" lon="5.55194">
        <ele>621</ele>
        <time>2022-05-02T10:04:24Z</time>
      </trkpt>
      <trkpt lat="45.44507" lon="5.55204">
        <ele>619</ele>
        <time>2022-05-02T10:04:27Z</time>
      </trkpt>
      <trkpt lat="45.44521" lon="5.55213">
        <ele>618</ele>
        <time>2022-05-02T10:04:31Z</time>
      </trkpt>
      <trkpt lat="45.44533" lon="5.55215">
        <ele>617</ele>
        <time>2022-05-02T10:04:34Z</time>
      </trkpt>
      <trkpt lat="45.44545" lon="5.55213">
        <ele>616</ele>
        <time>2022-05-02T10:04:37Z</time>
      </trkpt>
      <trkpt lat="45.4457" lon="5.552">
        <ele>614</ele>
        <time>2022-05-02T10:04:43Z</time>
      </trkpt>
      <trkpt lat="45.44585" lon="5.55185">
        <ele>613</ele>
        <time>2022-05-02T10:04:47Z</time>
      </trkpt>
      <trkpt lat="45.44615" lon="5.55146">
        <ele>612</ele>
        <time>2022-05-02T10:04:57Z</time>
      </trkpt>
      <trkpt lat="45.446" lon="5.55167">
        <ele>612</ele>
        <time>2022-05-02T10:05:01Z</time>
      </trkpt>
      <trkpt lat="45.44622" lon="5.55141">
        <ele>611</ele>
        <time>2022-05-02T10:05:08Z</time>
      </trkpt>
      <trkpt lat="45.4463" lon="5.55138">
        <ele>610</ele>
        <time>2022-05-02T10:05:10Z</time>
      </trkpt>
      <trkpt lat="45.44666" lon="5.55139">
        <ele>606</ele>
        <time>2022-05-02T10:05:18Z</time>
      </trkpt>
      <trkpt lat="45.44672" lon="5.55136">
        <ele>606</ele>
        <time>2022-05-02T10:05:20Z</time>
      </trkpt>
      <trkpt lat="45.44697" lon="5.55112">
        <ele>604</ele>
        <time>2022-05-02T10:05:27Z</time>
      </trkpt>
      <trkpt lat="45.44738" lon="5.55089">
        <ele>600</ele>
        <time>2022-05-02T10:05:37Z</time>
      </trkpt>
      <trkpt lat="45.4476" lon="5.55054">
        <ele>599</ele>
        <time>2022-05-02T10:05:45Z</time>
      </trkpt>
      <trkpt lat="45.44778" lon="5.55033">
        <ele>597</ele>
        <time>2022-05-02T10:05:50Z</time>
      </trkpt>
      <trkpt lat="45.44799" lon="5.55013">
        <ele>595</ele>
        <time>2022-05-02T10:05:56Z</time>
      </trkpt>
      <trkpt lat="45.44812" lon="5.55004">
        <ele>594</ele>
        <time>2022-05-02T10:06:00Z</time>
      </trkpt>
      <trkpt lat="45.44834" lon="5.55">
        <ele>593</ele>
        <time>2022-05-02T10:06:05Z</time>
      </trkpt>
      <trkpt lat="45.44885" lon="5.55015">
        <ele>593</ele>
        <time>2022-05-02T10:06:17Z</time>
      </trkpt>
      <trkpt lat="45.44913" lon="5.5502">
        <ele>596</ele>
        <time>2022-05-02T10:06:24Z</time>
      </trkpt>
      <trkpt lat="45.44916" lon="5.55027">
        <ele>596</ele>
        <time>2022-05-02T10:06:25Z</time>
      </trkpt>
      <trkpt lat="45.44914" lon="5.55048">
        <ele>598</ele>
        <time>2022-05-02T10:06:28Z</time>
      </trkpt>
      <trkpt lat="45.44903" lon="5.55118">
        <ele>604</ele>
        <time>2022-05-02T10:06:40Z</time>
      </trkpt>
      <trkpt lat="45.44881" lon="5.55196">
        <ele>605</ele>
        <time>2022-05-02T10:06:54Z</time>
      </trkpt>
      <trkpt lat="45.44882" lon="5.5521">
        <ele>606</ele>
        <time>2022-05-02T10:06:56Z</time>
      </trkpt>
      <trkpt lat="45.44885" lon="5.55218">
        <ele>607</ele>
        <time>2022-05-02T10:06:58Z</time>
      </trkpt>
      <trkpt lat="45.44911" lon="5.5526">
        <ele>613</ele>
        <time>2022-05-02T10:07:07Z</time>
      </trkpt>
      <trkpt lat="45.44918" lon="5.5528">
        <ele>615</ele>
        <time>2022-05-02T10:07:11Z</time>
      </trkpt>
      <trkpt lat="45.4492" lon="5.55298">
        <ele>614</ele>
        <time>2022-05-02T10:07:14Z</time>
      </trkpt>
      <trkpt lat="45.4492" lon="5.55345">
        <ele>612</ele>
        <time>2022-05-02T10:07:21Z</time>
      </trkpt>
      <trkpt lat="45.44927" lon="5.55366">
        <ele>610</ele>
        <time>2022-05-02T10:07:25Z</time>
      </trkpt>
      <trkpt lat="45.44927" lon="5.55385">
        <ele>607</ele>
        <time>2022-05-02T10:07:28Z</time>
      </trkpt>
      <trkpt lat="45.44912" lon="5.55438">
        <ele>600</ele>
        <time>2022-05-02T10:07:38Z</time>
      </trkpt>
      <trkpt lat="45.44911" lon="5.55458">
        <ele>598</ele>
        <time>2022-05-02T10:07:41Z</time>
      </trkpt>
      <trkpt lat="45.44914" lon="5.55475">
        <ele>597</ele>
        <time>2022-05-02T10:07:44Z</time>
      </trkpt>
      <trkpt lat="45.44921" lon="5.55493">
        <ele>596</ele>
        <time>2022-05-02T10:07:47Z</time>
      </trkpt>
      <trkpt lat="45.44938" lon="5.55523">
        <ele>596</ele>
        <time>2022-05-02T10:07:53Z</time>
      </trkpt>
      <trkpt lat="45.44941" lon="5.55536">
        <ele>596</ele>
        <time>2022-05-02T10:07:56Z</time>
      </trkpt>
      <trkpt lat="45.44941" lon="5.5555">
        <ele>595</ele>
        <time>2022-05-02T10:07:58Z</time>
      </trkpt>
      <trkpt lat="45.44932" lon="5.55601">
        <ele>588</ele>
        <time>2022-05-02T10:08:07Z</time>
      </trkpt>
      <trkpt lat="45.44928" lon="5.5564">
        <ele>583</ele>
        <time>2022-05-02T10:08:13Z</time>
      </trkpt>
      <trkpt lat="45.44956" lon="5.55701">
        <ele>582</ele>
        <time>2022-05-02T10:08:25Z</time>
      </trkpt>
      <trkpt lat="45.45014" lon="5.55799">
        <ele>581</ele>
        <time>2022-05-02T10:08:46Z</time>
      </trkpt>
      <trkpt lat="45.45021" lon="5.55807">
        <ele>581</ele>
        <time>2022-05-02T10:08:48Z</time>
      </trkpt>
      <trkpt lat="45.45066" lon="5.55834">
        <ele>588</ele>
        <time>2022-05-02T10:08:59Z</time>
      </trkpt>
      <trkpt lat="45.4511" lon="5.55891">
        <ele>596</ele>
        <time>2022-05-02T10:09:13Z</time>
      </trkpt>
      <trkpt lat="45.45123" lon="5.55918">
        <ele>600</ele>
        <time>2022-05-02T10:09:19Z</time>
      </trkpt>
      <trkpt lat="45.45138" lon="5.55935">
        <ele>603</ele>
        <time>2022-05-02T10:09:23Z</time>
      </trkpt>
      <trkpt lat="45.45146" lon="5.55942">
        <ele>605</ele>
        <time>2022-05-02T10:09:25Z</time>
      </trkpt>
      <trkpt lat="45.45163" lon="5.55947">
        <ele>608</ele>
        <time>2022-05-02T10:09:29Z</time>
      </trkpt>
      <trkpt lat="45.4523" lon="5.55939">
        <ele>622</ele>
        <time>2022-05-02T10:09:45Z</time>
      </trkpt>
      <trkpt lat="45.45253" lon="5.5596">
        <ele>627</ele>
        <time>2022-05-02T10:09:51Z</time>
      </trkpt>
      <trkpt lat="45.45263" lon="5.55987">
        <ele>628</ele>
        <time>2022-05-02T10:09:56Z</time>
      </trkpt>
      <trkpt lat="45.45265" lon="5.56004">
        <ele>628</ele>
        <time>2022-05-02T10:09:59Z</time>
      </trkpt>
      <trkpt lat="45.4526" lon="5.56105">
        <ele>624</ele>
        <time>2022-05-02T10:10:16Z</time>
      </trkpt>
      <trkpt lat="45.45264" lon="5.56133">
        <ele>624</ele>
        <time>2022-05-02T10:10:21Z</time>
      </trkpt>
      <trkpt lat="45.45268" lon="5.5614">
        <ele>624</ele>
        <time>2022-05-02T10:10:22Z</time>
      </trkpt>
      <trkpt lat="45.45292" lon="5.5616">
        <ele>627</ele>
        <time>2022-05-02T10:10:29Z</time>
      </trkpt>
      <trkpt lat="45.45311" lon="5.56195">
        <ele>627</ele>
        <time>2022-05-02T10:10:36Z</time>
      </trkpt>
      <trkpt lat="45.4532" lon="5.56203">
        <ele>628</ele>
        <time>2022-05-02T10:10:38Z</time>
      </trkpt>
      <trkpt lat="45.45328" lon="5.56207">
        <ele>629</ele>
        <time>2022-05-02T10:10:40Z</time>
      </trkpt>
      <trkpt lat="45.45356" lon="5.56211">
        <ele>635</ele>
        <time>2022-05-02T10:10:47Z</time>
      </trkpt>
      <trkpt lat="45.45413" lon="5.56208">
        <ele>649</ele>
        <time>2022-05-02T10:11:00Z</time>
      </trkpt>
      <trkpt lat="45.4542" lon="5.56215">
        <ele>650</ele>
        <time>2022-05-02T10:11:02Z</time>
      </trkpt>
      <trkpt lat="45.45429" lon="5.56237">
        <ele>649</ele>
        <time>2022-05-02T10:11:06Z</time>
      </trkpt>
      <trkpt lat="45.4544" lon="5.56255">
        <ele>649</ele>
        <time>2022-05-02T10:11:10Z</time>
      </trkpt>
      <trkpt lat="45.45461" lon="5.56269">
        <ele>652</ele>
        <time>2022-05-02T10:11:16Z</time>
      </trkpt>
      <trkpt lat="45.45483" lon="5.56275">
        <ele>656</ele>
        <time>2022-05-02T10:11:21Z</time>
      </trkpt>
      <trkpt lat="45.45493" lon="5.56275">
        <ele>659</ele>
        <time>2022-05-02T10:11:23Z</time>
      </trkpt>
      <trkpt lat="45.45503" lon="5.56279">
        <ele>660</ele>
        <time>2022-05-02T10:11:26Z</time>
      </trkpt>
      <trkpt lat="45.45515" lon="5.56305">
        <ele>659</ele>
        <time>2022-05-02T10:11:31Z</time>
      </trkpt>
      <trkpt lat="45.45525" lon="5.56318">
        <ele>659</ele>
        <time>2022-05-02T10:11:34Z</time>
      </trkpt>
      <trkpt lat="45.45574" lon="5.56351">
        <ele>658</ele>
        <time>2022-05-02T10:11:47Z</time>
      </trkpt>
      <trkpt lat="45.45613" lon="5.56375">
        <ele>653</ele>
        <time>2022-05-02T10:11:56Z</time>
      </trkpt>
      <trkpt lat="45.45629" lon="5.56374">
        <ele>653</ele>
        <time>2022-05-02T10:12:00Z</time>
      </trkpt>
      <trkpt lat="45.45634" lon="5.56381">
        <ele>651</ele>
        <time>2022-05-02T10:12:02Z</time>
      </trkpt>
      <trkpt lat="45.45698" lon="5.56403">
        <ele>644</ele>
        <time>2022-05-02T10:12:17Z</time>
      </trkpt>
      <trkpt lat="45.45735" lon="5.5642">
        <ele>642</ele>
        <time>2022-05-02T10:12:26Z</time>
      </trkpt>
      <trkpt lat="45.45744" lon="5.56418">
        <ele>643</ele>
        <time>2022-05-02T10:12:28Z</time>
      </trkpt>
      <trkpt lat="45.45773" lon="5.56403">
        <ele>647</ele>
        <time>2022-05-02T10:12:36Z</time>
      </trkpt>
      <trkpt lat="45.45777" lon="5.56399">
        <ele>648</ele>
        <time>2022-05-02T10:12:37Z</time>
      </trkpt>
      <trkpt lat="45.45789" lon="5.56371">
        <ele>650</ele>
        <time>2022-05-02T10:12:42Z</time>
      </trkpt>
      <trkpt lat="45.45798" lon="5.56366">
        <ele>651</ele>
        <time>2022-05-02T10:12:44Z</time>
      </trkpt>
      <trkpt lat="45.45851" lon="5.5636">
        <ele>652</ele>
        <time>2022-05-02T10:12:57Z</time>
      </trkpt>
      <trkpt lat="45.45883" lon="5.56359">
        <ele>653</ele>
        <time>2022-05-02T10:13:04Z</time>
      </trkpt>
      <trkpt lat="45.45893" lon="5.56355">
        <ele>653</ele>
        <time>2022-05-02T10:13:07Z</time>
      </trkpt>
      <trkpt lat="45.45924" lon="5.56335">
        <ele>652</ele>
        <time>2022-05-02T10:13:15Z</time>
      </trkpt>
      <trkpt lat="45.45934" lon="5.5637">
        <ele>653</ele>
        <time>2022-05-02T10:13:21Z</time>
      </trkpt>
      <trkpt lat="45.45972" lon="5.56467">
        <ele>657</ele>
        <time>2022-05-02T10:13:39Z</time>
      </trkpt>
      <trkpt lat="45.45981" lon="5.56497">
        <ele>659</ele>
        <time>2022-05-02T10:13:44Z</time>
      </trkpt>
      <trkpt lat="45.45983" lon="5.56515">
        <ele>660</ele>
        <time>2022-05-02T10:13:47Z</time>
      </trkpt>
      <trkpt lat="45.46009" lon="5.56518">
        <ele>659</ele>
        <time>2022-05-02T10:13:53Z</time>
      </trkpt>
      <trkpt lat="45.46043" lon="5.56529">
        <ele>657</ele>
        <time>2022-05-02T10:14:02Z</time>
      </trkpt>
      <trkpt lat="45.46097" lon="5.56565">
        <ele>654</ele>
        <time>2022-05-02T10:14:16Z</time>
      </trkpt>
      <trkpt lat="45.46124" lon="5.56591">
        <ele>653</ele>
        <time>2022-05-02T10:14:23Z</time>
      </trkpt>
      <trkpt lat="45.4615" lon="5.56611">
        <ele>651</ele>
        <time>2022-05-02T10:14:30Z</time>
      </trkpt>
      <trkpt lat="45.46212" lon="5.56643">
        <ele>646</ele>
        <time>2022-05-02T10:14:45Z</time>
      </trkpt>
      <trkpt lat="45.46237" lon="5.56661">
        <ele>645</ele>
        <time>2022-05-02T10:14:52Z</time>
      </trkpt>
      <trkpt lat="45.46263" lon="5.56675">
        <ele>643</ele>
        <time>2022-05-02T10:14:58Z</time>
      </trkpt>
      <trkpt lat="45.46277" lon="5.56685">
        <ele>643</ele>
        <time>2022-05-02T10:15:02Z</time>
      </trkpt>
      <trkpt lat="45.46313" lon="5.56725">
        <ele>643</ele>
        <time>2022-05-02T10:15:13Z</time>
      </trkpt>
      <trkpt lat="45.46356" lon="5.56764">
        <ele>640</ele>
        <time>2022-05-02T10:15:25Z</time>
      </trkpt>
      <trkpt lat="45.46369" lon="5.56784">
        <ele>640</ele>
        <time>2022-05-02T10:15:29Z</time>
      </trkpt>
      <trkpt lat="45.46385" lon="5.56803">
        <ele>639</ele>
        <time>2022-05-02T10:15:34Z</time>
      </trkpt>
      <trkpt lat="45.46398" lon="5.56811">
        <ele>637</ele>
        <time>2022-05-02T10:15:37Z</time>
      </trkpt>
      <trkpt lat="45.46414" lon="5.56812">
        <ele>635</ele>
        <time>2022-05-02T10:15:41Z</time>
      </trkpt>
      <trkpt lat="45.46445" lon="5.56797">
        <ele>629</ele>
        <time>2022-05-02T10:15:49Z</time>
      </trkpt>
      <trkpt lat="45.4648" lon="5.56765">
        <ele>621</ele>
        <time>2022-05-02T10:15:58Z</time>
      </trkpt>
      <trkpt lat="45.46497" lon="5.56753">
        <ele>618</ele>
        <time>2022-05-02T10:16:03Z</time>
      </trkpt>
      <trkpt lat="45.4653" lon="5.56742">
        <ele>613</ele>
        <time>2022-05-02T10:16:11Z</time>
      </trkpt>
      <trkpt lat="45.46543" lon="5.56745">
        <ele>611</ele>
        <time>2022-05-02T10:16:14Z</time>
      </trkpt>
      <trkpt lat="45.46552" lon="5.56752">
        <ele>610</ele>
        <time>2022-05-02T10:16:16Z</time>
      </trkpt>
      <trkpt lat="45.46586" lon="5.56789">
        <ele>609</ele>
        <time>2022-05-02T10:16:26Z</time>
      </trkpt>
      <trkpt lat="45.46606" lon="5.56803">
        <ele>607</ele>
        <time>2022-05-02T10:16:31Z</time>
      </trkpt>
      <trkpt lat="45.4665" lon="5.56815">
        <ele>602</ele>
        <time>2022-05-02T10:16:42Z</time>
      </trkpt>
      <trkpt lat="45.46668" lon="5.56829">
        <ele>599</ele>
        <time>2022-05-02T10:16:47Z</time>
      </trkpt>
      <trkpt lat="45.46677" lon="5.56839">
        <ele>598</ele>
        <time>2022-05-02T10:16:49Z</time>
      </trkpt>
      <trkpt lat="45.46687" lon="5.56858">
        <ele>598</ele>
        <time>2022-05-02T10:16:53Z</time>
      </trkpt>
      <trkpt lat="45.4672" lon="5.56934">
        <ele>593</ele>
        <time>2022-05-02T10:17:08Z</time>
      </trkpt>
      <trkpt lat="45.46739" lon="5.56955">
        <ele>591</ele>
        <time>2022-05-02T10:17:13Z</time>
      </trkpt>
      <trkpt lat="45.46754" lon="5.56965">
        <ele>588</ele>
        <time>2022-05-02T10:17:17Z</time>
      </trkpt>
      <trkpt lat="45.46763" lon="5.56966">
        <ele>587</ele>
        <time>2022-05-02T10:17:19Z</time>
      </trkpt>
      <trkpt lat="45.46766" lon="5.56975">
        <ele>587</ele>
        <time>2022-05-02T10:17:21Z</time>
      </trkpt>
      <trkpt lat="45.46772" lon="5.56972">
        <ele>586</ele>
        <time>2022-05-02T10:17:23Z</time>
      </trkpt>
      <trkpt lat="45.46795" lon="5.56946">
        <ele>581</ele>
        <time>2022-05-02T10:17:29Z</time>
      </trkpt>
      <trkpt lat="45.46827" lon="5.5693">
        <ele>576</ele>
        <time>2022-05-02T10:17:37Z</time>
      </trkpt>
      <trkpt lat="45.46865" lon="5.56939">
        <ele>572</ele>
        <time>2022-05-02T10:17:46Z</time>
      </trkpt>
      <trkpt lat="45.46894" lon="5.56942">
        <ele>569</ele>
        <time>2022-05-02T10:17:53Z</time>
      </trkpt>
      <trkpt lat="45.46983" lon="5.56936">
        <ele>556</ele>
        <time>2022-05-02T10:18:14Z</time>
      </trkpt>
      <trkpt lat="45.46993" lon="5.56938">
        <ele>554</ele>
        <time>2022-05-02T10:18:16Z</time>
      </trkpt>
      <trkpt lat="45.47031" lon="5.56961">
        <ele>547</ele>
        <time>2022-05-02T10:18:26Z</time>
      </trkpt>
      <trkpt lat="45.47057" lon="5.56992">
        <ele>542</ele>
        <time>2022-05-02T10:18:34Z</time>
      </trkpt>
      <trkpt lat="45.4708" lon="5.56992">
        <ele>538</ele>
        <time>2022-05-02T10:18:39Z</time>
      </trkpt>
      <trkpt lat="45.47147" lon="5.5702">
        <ele>531</ele>
        <time>2022-05-02T10:18:56Z</time>
      </trkpt>
      <trkpt lat="45.47179" lon="5.57022">
        <ele>528</ele>
        <time>2022-05-02T10:19:03Z</time>
      </trkpt>
      <trkpt lat="45.47189" lon="5.57025">
        <ele>527</ele>
        <time>2022-05-02T10:19:05Z</time>
      </trkpt>
      <trkpt lat="45.47236" lon="5.57056">
        <ele>527</ele>
        <time>2022-05-02T10:19:17Z</time>
      </trkpt>
      <trkpt lat="45.47261" lon="5.5706">
        <ele>526</ele>
        <time>2022-05-02T10:19:23Z</time>
      </trkpt>
      <trkpt lat="45.47288" lon="5.5706">
        <ele>525</ele>
        <time>2022-05-02T10:19:30Z</time>
      </trkpt>
      <trkpt lat="45.47313" lon="5.57058">
        <ele>525</ele>
        <time>2022-05-02T10:19:36Z</time>
      </trkpt>
      <trkpt lat="45.47337" lon="5.57052">
        <ele>524</ele>
        <time>2022-05-02T10:19:41Z</time>
      </trkpt>
      <trkpt lat="45.47329" lon="5.57026">
        <ele>523</ele>
        <time>2022-05-02T10:19:46Z</time>
      </trkpt>
      <trkpt lat="45.47304" lon="5.56963">
        <ele>521</ele>
        <time>2022-05-02T10:19:58Z</time>
      </trkpt>
      <trkpt lat="45.47294" lon="5.56933">
        <ele>518</ele>
        <time>2022-05-02T10:20:03Z</time>
      </trkpt>
      <trkpt lat="45.4729" lon="5.56912">
        <ele>517</ele>
        <time>2022-05-02T10:20:07Z</time>
      </trkpt>
      <trkpt lat="45.47292" lon="5.56861">
        <ele>514</ele>
        <time>2022-05-02T10:20:15Z</time>
      </trkpt>
      <trkpt lat="45.47297" lon="5.56828">
        <ele>511</ele>
        <time>2022-05-02T10:20:21Z</time>
      </trkpt>
      <trkpt lat="45.47316" lon="5.56785">
        <ele>509</ele>
        <time>2022-05-02T10:20:29Z</time>
      </trkpt>
      <trkpt lat="45.4733" lon="5.56767">
        <ele>508</ele>
        <time>2022-05-02T10:20:33Z</time>
      </trkpt>
      <trkpt lat="45.47367" lon="5.56734">
        <ele>506</ele>
        <time>2022-05-02T10:20:44Z</time>
      </trkpt>
      <trkpt lat="45.47386" lon="5.56721">
        <ele>505</ele>
        <time>2022-05-02T10:20:48Z</time>
      </trkpt>
      <trkpt lat="45.474" lon="5.567">
        <ele>504</ele>
        <time>2022-05-02T10:20:53Z</time>
      </trkpt>
      <trkpt lat="45.47411" lon="5.56675">
        <ele>503</ele>
        <time>2022-05-02T10:20:58Z</time>
      </trkpt>
      <trkpt lat="45.47413" lon="5.56639">
        <ele>502</ele>
        <time>2022-05-02T10:21:04Z</time>
      </trkpt>
      <trkpt lat="45.4739" lon="5.56641">
        <ele>503</ele>
        <time>2022-05-02T10:21:09Z</time>
      </trkpt>
      <trkpt lat="45.47369" lon="5.56638">
        <ele>504</ele>
        <time>2022-05-02T10:21:14Z</time>
      </trkpt>
      <trkpt lat="45.473" lon="5.56605">
        <ele>507</ele>
        <time>2022-05-02T10:21:31Z</time>
      </trkpt>
      <trkpt lat="45.4708" lon="5.56484">
        <ele>510</ele>
        <time>2022-05-02T10:22:26Z</time>
      </trkpt>
      <trkpt lat="45.47148" lon="5.56458">
        <ele>509</ele>
        <time>2022-05-02T10:22:43Z</time>
      </trkpt>
      <trkpt lat="45.47197" lon="5.56432">
        <ele>507</ele>
        <time>2022-05-02T10:22:55Z</time>
      </trkpt>
      <trkpt lat="45.47218" lon="5.5641">
        <ele>505</ele>
        <time>2022-05-02T10:23:01Z</time>
      </trkpt>
      <trkpt lat="45.47359" lon="5.56287">
        <ele>497</ele>
        <time>2022-05-02T10:23:40Z</time>
      </trkpt>
      <trkpt lat="45.47392" lon="5.5624">
        <ele>495</ele>
        <time>2022-05-02T10:23:51Z</time>
      </trkpt>
      <trkpt lat="45.47423" lon="5.56216">
        <ele>494</ele>
        <time>2022-05-02T10:23:59Z</time>
      </trkpt>
      <trkpt lat="45.47439" lon="5.562">
        <ele>494</ele>
        <time>2022-05-02T10:24:03Z</time>
      </trkpt>
      <trkpt lat="45.4744" lon="5.5619">
        <ele>494</ele>
        <time>2022-05-02T10:24:05Z</time>
      </trkpt>
      <trkpt lat="45.47417" lon="5.56065">
        <ele>493</ele>
        <time>2022-05-02T10:24:26Z</time>
      </trkpt>
      <trkpt lat="45.47417" lon="5.56043">
        <ele>493</ele>
        <time>2022-05-02T10:24:30Z</time>
      </trkpt>
      <trkpt lat="45.47423" lon="5.56001">
        <ele>493</ele>
        <time>2022-05-02T10:24:37Z</time>
      </trkpt>
      <trkpt lat="45.47427" lon="5.5594">
        <ele>492</ele>
        <time>2022-05-02T10:24:47Z</time>
      </trkpt>
      <trkpt lat="45.47426" lon="5.55906">
        <ele>492</ele>
        <time>2022-05-02T10:24:52Z</time>
      </trkpt>
      <trkpt lat="45.47421" lon="5.55881">
        <ele>492</ele>
        <time>2022-05-02T10:24:57Z</time>
      </trkpt>
      <trkpt lat="45.47378" lon="5.55747">
        <ele>492</ele>
        <time>2022-05-02T10:25:21Z</time>
      </trkpt>
      <trkpt lat="45.4737" lon="5.5571">
        <ele>492</ele>
        <time>2022-05-02T10:25:27Z</time>
      </trkpt>
      <trkpt lat="45.47378" lon="5.55687">
        <ele>492</ele>
        <time>2022-05-02T10:25:31Z</time>
      </trkpt>
      <trkpt lat="45.47397" lon="5.55659">
        <ele>494</ele>
        <time>2022-05-02T10:25:38Z</time>
      </trkpt>
      <trkpt lat="45.47439" lon="5.55609">
        <ele>496</ele>
        <time>2022-05-02T10:25:50Z</time>
      </trkpt>
      <trkpt lat="45.47493" lon="5.55524">
        <ele>503</ele>
        <time>2022-05-02T10:26:09Z</time>
      </trkpt>
      <trkpt lat="45.4751" lon="5.55508">
        <ele>505</ele>
        <time>2022-05-02T10:26:14Z</time>
      </trkpt>
      <trkpt lat="45.4752" lon="5.55495">
        <ele>506</ele>
        <time>2022-05-02T10:26:17Z</time>
      </trkpt>
      <trkpt lat="45.47529" lon="5.5548">
        <ele>507</ele>
        <time>2022-05-02T10:26:20Z</time>
      </trkpt>
      <trkpt lat="45.47542" lon="5.55446">
        <ele>510</ele>
        <time>2022-05-02T10:26:27Z</time>
      </trkpt>
      <trkpt lat="45.47559" lon="5.55417">
        <ele>511</ele>
        <time>2022-05-02T10:26:33Z</time>
      </trkpt>
      <trkpt lat="45.47564" lon="5.55411">
        <ele>511</ele>
        <time>2022-05-02T10:26:34Z</time>
      </trkpt>
      <trkpt lat="45.47574" lon="5.55406">
        <ele>511</ele>
        <time>2022-05-02T10:26:37Z</time>
      </trkpt>
      <trkpt lat="45.47589" lon="5.55388">
        <ele>512</ele>
        <time>2022-05-02T10:26:42Z</time>
      </trkpt>
      <trkpt lat="45.47557" lon="5.55359">
        <ele>511</ele>
        <time>2022-05-02T10:26:50Z</time>
      </trkpt>
      <trkpt lat="45.47456" lon="5.55248">
        <ele>511</ele>
        <time>2022-05-02T10:27:20Z</time>
      </trkpt>
      <trkpt lat="45.47449" lon="5.55238">
        <ele>510</ele>
        <time>2022-05-02T10:27:22Z</time>
      </trkpt>
      <trkpt lat="45.47437" lon="5.55212">
        <ele>510</ele>
        <time>2022-05-02T10:27:28Z</time>
      </trkpt>
      <trkpt lat="45.47418" lon="5.55162">
        <ele>508</ele>
        <time>2022-05-02T10:27:37Z</time>
      </trkpt>
      <trkpt lat="45.47398" lon="5.55127">
        <ele>506</ele>
        <time>2022-05-02T10:27:44Z</time>
      </trkpt>
      <trkpt lat="45.47355" lon="5.55058">
        <ele>503</ele>
        <time>2022-05-02T10:28:06Z</time>
      </trkpt>
    </trkseg>
  </trk>
</gpx>